<?xml version="1.0" encoding="UTF-8" standalone="no" ?>
<gpx xmlns="http://www.topografix.com/GPX/1/1" xmlns:xsi="http://www.w3.org/2001/XMLSchema-instance" xsi:schemaLocation="http://www.topografix.com/GPX/1/1 http://www.topografix.com/GPX/1/1/gpx.xsd" version="1.1" creator="VisuGPX - https://www.visugpx.com">
  <metadata>
    <name>Descente de la Cagne VTT 22/05/2011</name>
    <desc><![CDATA[Descente de la Cagne en VTT depuis le col de Vence jusqu\'à St-Jeannet, en passant par Bézaudun]]></desc>
  </metadata>
  <trk>
    <name><![CDATA[Descente de la Cagne VTT]]></name>
    <desc><![CDATA[22 mai 2011  9:34 am]]></desc>
    <trkseg>
      <trkpt lat="43.7612" lon="7.07457">
        <ele>972.973377</ele>
        <time>2011-05-22T07:35:44Z</time>
      </trkpt>
      <trkpt lat="43.76127" lon="7.07448">
        <ele>972.726957</ele>
        <time>2011-05-22T07:35:47Z</time>
      </trkpt>
      <trkpt lat="43.76135" lon="7.07437">
        <ele>972.62147</ele>
        <time>2011-05-22T07:35:50Z</time>
      </trkpt>
      <trkpt lat="43.76144" lon="7.07423">
        <ele>972.433739</ele>
        <time>2011-05-22T07:35:53Z</time>
      </trkpt>
      <trkpt lat="43.76152" lon="7.07409">
        <ele>972.03903</ele>
        <time>2011-05-22T07:35:56Z</time>
      </trkpt>
      <trkpt lat="43.76158" lon="7.07395">
        <ele>971.646116</ele>
        <time>2011-05-22T07:35:59Z</time>
      </trkpt>
      <trkpt lat="43.76166" lon="7.07379">
        <ele>971.413093</ele>
        <time>2011-05-22T07:36:02Z</time>
      </trkpt>
      <trkpt lat="43.76174" lon="7.07357">
        <ele>971.188881</ele>
        <time>2011-05-22T07:36:05Z</time>
      </trkpt>
      <trkpt lat="43.7618" lon="7.0734">
        <ele>970.834905</ele>
        <time>2011-05-22T07:36:07Z</time>
      </trkpt>
      <trkpt lat="43.7619" lon="7.07313">
        <ele>970.378827</ele>
        <time>2011-05-22T07:36:10Z</time>
      </trkpt>
      <trkpt lat="43.76202" lon="7.07288">
        <ele>969.957735</ele>
        <time>2011-05-22T07:36:12Z</time>
      </trkpt>
      <trkpt lat="43.76211" lon="7.07275">
        <ele>969.68206</ele>
        <time>2011-05-22T07:36:15Z</time>
      </trkpt>
      <trkpt lat="43.7622" lon="7.07264">
        <ele>969.54873</ele>
        <time>2011-05-22T07:36:17Z</time>
      </trkpt>
      <trkpt lat="43.76234" lon="7.07251">
        <ele>969.469297</ele>
        <time>2011-05-22T07:36:20Z</time>
      </trkpt>
      <trkpt lat="43.76244" lon="7.07243">
        <ele>969.391857</ele>
        <time>2011-05-22T07:36:22Z</time>
      </trkpt>
      <trkpt lat="43.76261" lon="7.0723">
        <ele>969.330466</ele>
        <time>2011-05-22T07:36:25Z</time>
      </trkpt>
      <trkpt lat="43.76276" lon="7.07212">
        <ele>969.225411</ele>
        <time>2011-05-22T07:36:28Z</time>
      </trkpt>
      <trkpt lat="43.76289" lon="7.07193">
        <ele>968.973018</ele>
        <time>2011-05-22T07:36:31Z</time>
      </trkpt>
      <trkpt lat="43.76297" lon="7.07181">
        <ele>968.614435</ele>
        <time>2011-05-22T07:36:33Z</time>
      </trkpt>
      <trkpt lat="43.76312" lon="7.07166">
        <ele>968.261145</ele>
        <time>2011-05-22T07:36:36Z</time>
      </trkpt>
      <trkpt lat="43.76329" lon="7.07155">
        <ele>967.950027</ele>
        <time>2011-05-22T07:36:39Z</time>
      </trkpt>
      <trkpt lat="43.76351" lon="7.07142">
        <ele>967.684413</ele>
        <time>2011-05-22T07:36:42Z</time>
      </trkpt>
      <trkpt lat="43.76378" lon="7.0713">
        <ele>967.425748</ele>
        <time>2011-05-22T07:36:45Z</time>
      </trkpt>
      <trkpt lat="43.76397" lon="7.0712">
        <ele>967.047966</ele>
        <time>2011-05-22T07:36:47Z</time>
      </trkpt>
      <trkpt lat="43.76427" lon="7.07105">
        <ele>966.556807</ele>
        <time>2011-05-22T07:36:50Z</time>
      </trkpt>
      <trkpt lat="43.76457" lon="7.0709">
        <ele>966.176356</ele>
        <time>2011-05-22T07:36:53Z</time>
      </trkpt>
      <trkpt lat="43.76486" lon="7.07074">
        <ele>966.030212</ele>
        <time>2011-05-22T07:36:56Z</time>
      </trkpt>
      <trkpt lat="43.76514" lon="7.07057">
        <ele>966.038802</ele>
        <time>2011-05-22T07:36:59Z</time>
      </trkpt>
      <trkpt lat="43.7654" lon="7.07048">
        <ele>966.220312</ele>
        <time>2011-05-22T07:37:02Z</time>
      </trkpt>
      <trkpt lat="43.76571" lon="7.07038">
        <ele>966.614751</ele>
        <time>2011-05-22T07:37:05Z</time>
      </trkpt>
      <trkpt lat="43.76604" lon="7.07028">
        <ele>967.104663</ele>
        <time>2011-05-22T07:37:07Z</time>
      </trkpt>
      <trkpt lat="43.76639" lon="7.07017">
        <ele>967.510194</ele>
        <time>2011-05-22T07:37:10Z</time>
      </trkpt>
      <trkpt lat="43.76663" lon="7.0701">
        <ele>967.735871</ele>
        <time>2011-05-22T07:37:13Z</time>
      </trkpt>
      <trkpt lat="43.76699" lon="7.07">
        <ele>967.790027</ele>
        <time>2011-05-22T07:37:16Z</time>
      </trkpt>
      <trkpt lat="43.76732" lon="7.06991">
        <ele>967.377867</ele>
        <time>2011-05-22T07:37:19Z</time>
      </trkpt>
      <trkpt lat="43.76763" lon="7.06982">
        <ele>966.000594</ele>
        <time>2011-05-22T07:37:21Z</time>
      </trkpt>
      <trkpt lat="43.76783" lon="7.06976">
        <ele>963.467506</ele>
        <time>2011-05-22T07:37:24Z</time>
      </trkpt>
      <trkpt lat="43.76806" lon="7.06967">
        <ele>959.919474</ele>
        <time>2011-05-22T07:37:27Z</time>
      </trkpt>
      <trkpt lat="43.7682" lon="7.0696">
        <ele>956.109003</ele>
        <time>2011-05-22T07:37:30Z</time>
      </trkpt>
      <trkpt lat="43.76831" lon="7.06957">
        <ele>953.322861</ele>
        <time>2011-05-22T07:37:33Z</time>
      </trkpt>
      <trkpt lat="43.7684" lon="7.06963">
        <ele>952.118967</ele>
        <time>2011-05-22T07:37:36Z</time>
      </trkpt>
      <trkpt lat="43.7685" lon="7.06972">
        <ele>952.007515</ele>
        <time>2011-05-22T07:37:39Z</time>
      </trkpt>
      <trkpt lat="43.76861" lon="7.06981">
        <ele>952.266723</ele>
        <time>2011-05-22T07:37:42Z</time>
      </trkpt>
      <trkpt lat="43.76871" lon="7.06988">
        <ele>952.493394</ele>
        <time>2011-05-22T07:37:46Z</time>
      </trkpt>
      <trkpt lat="43.76883" lon="7.06995">
        <ele>952.589989</ele>
        <time>2011-05-22T07:37:48Z</time>
      </trkpt>
      <trkpt lat="43.76892" lon="7.07001">
        <ele>952.21677</ele>
        <time>2011-05-22T07:37:50Z</time>
      </trkpt>
      <trkpt lat="43.76907" lon="7.0701">
        <ele>951.135441</ele>
        <time>2011-05-22T07:37:53Z</time>
      </trkpt>
      <trkpt lat="43.76918" lon="7.07018">
        <ele>949.898334</ele>
        <time>2011-05-22T07:37:55Z</time>
      </trkpt>
      <trkpt lat="43.76933" lon="7.07029">
        <ele>949.009885</ele>
        <time>2011-05-22T07:37:59Z</time>
      </trkpt>
      <trkpt lat="43.76948" lon="7.0704">
        <ele>947.880794</ele>
        <time>2011-05-22T07:38:02Z</time>
      </trkpt>
      <trkpt lat="43.76961" lon="7.07054">
        <ele>945.742029</ele>
        <time>2011-05-22T07:38:05Z</time>
      </trkpt>
      <trkpt lat="43.76975" lon="7.07071">
        <ele>942.54518</ele>
        <time>2011-05-22T07:38:08Z</time>
      </trkpt>
      <trkpt lat="43.76987" lon="7.07085">
        <ele>938.998591</ele>
        <time>2011-05-22T07:38:11Z</time>
      </trkpt>
      <trkpt lat="43.76997" lon="7.07103">
        <ele>936.209246</ele>
        <time>2011-05-22T07:38:14Z</time>
      </trkpt>
      <trkpt lat="43.77007" lon="7.07121">
        <ele>934.868932</ele>
        <time>2011-05-22T07:38:17Z</time>
      </trkpt>
      <trkpt lat="43.77017" lon="7.07136">
        <ele>934.655809</ele>
        <time>2011-05-22T07:38:19Z</time>
      </trkpt>
      <trkpt lat="43.77029" lon="7.07143">
        <ele>934.877433</ele>
        <time>2011-05-22T07:38:21Z</time>
      </trkpt>
      <trkpt lat="43.77038" lon="7.07149">
        <ele>935.104811</ele>
        <time>2011-05-22T07:38:23Z</time>
      </trkpt>
      <trkpt lat="43.77052" lon="7.07161">
        <ele>935.212646</ele>
        <time>2011-05-22T07:38:27Z</time>
      </trkpt>
      <trkpt lat="43.77067" lon="7.07174">
        <ele>935.223391</ele>
        <time>2011-05-22T07:38:29Z</time>
      </trkpt>
      <trkpt lat="43.77077" lon="7.07182">
        <ele>935.122677</ele>
        <time>2011-05-22T07:38:32Z</time>
      </trkpt>
      <trkpt lat="43.77093" lon="7.07194">
        <ele>934.820612</ele>
        <time>2011-05-22T07:38:35Z</time>
      </trkpt>
      <trkpt lat="43.7711" lon="7.07206">
        <ele>934.250532</ele>
        <time>2011-05-22T07:38:38Z</time>
      </trkpt>
      <trkpt lat="43.77125" lon="7.07218">
        <ele>933.484738</ele>
        <time>2011-05-22T07:38:40Z</time>
      </trkpt>
      <trkpt lat="43.77135" lon="7.07228">
        <ele>932.660777</ele>
        <time>2011-05-22T07:38:42Z</time>
      </trkpt>
      <trkpt lat="43.77149" lon="7.07243">
        <ele>931.812192</ele>
        <time>2011-05-22T07:38:45Z</time>
      </trkpt>
      <trkpt lat="43.77159" lon="7.07255">
        <ele>930.924718</ele>
        <time>2011-05-22T07:38:48Z</time>
      </trkpt>
      <trkpt lat="43.77167" lon="7.07266">
        <ele>930.14097</ele>
        <time>2011-05-22T07:38:50Z</time>
      </trkpt>
      <trkpt lat="43.77181" lon="7.07282">
        <ele>929.606362</ele>
        <time>2011-05-22T07:38:52Z</time>
      </trkpt>
      <trkpt lat="43.77191" lon="7.07291">
        <ele>929.271914</ele>
        <time>2011-05-22T07:38:54Z</time>
      </trkpt>
      <trkpt lat="43.77203" lon="7.07301">
        <ele>929.039558</ele>
        <time>2011-05-22T07:38:57Z</time>
      </trkpt>
      <trkpt lat="43.77203" lon="7.07301">
        <ele>928.872394</ele>
        <time>2011-05-22T07:39:00Z</time>
      </trkpt>
      <trkpt lat="43.77221" lon="7.07318">
        <ele>928.744955</ele>
        <time>2011-05-22T07:39:09Z</time>
      </trkpt>
      <trkpt lat="43.77232" lon="7.07323">
        <ele>928.644085</ele>
        <time>2011-05-22T07:39:11Z</time>
      </trkpt>
      <trkpt lat="43.77243" lon="7.0733">
        <ele>928.543699</ele>
        <time>2011-05-22T07:39:14Z</time>
      </trkpt>
      <trkpt lat="43.77253" lon="7.07335">
        <ele>928.429593</ele>
        <time>2011-05-22T07:39:17Z</time>
      </trkpt>
      <trkpt lat="43.77267" lon="7.07345">
        <ele>928.33468</ele>
        <time>2011-05-22T07:39:21Z</time>
      </trkpt>
      <trkpt lat="43.77279" lon="7.07355">
        <ele>928.24405</ele>
        <time>2011-05-22T07:39:23Z</time>
      </trkpt>
      <trkpt lat="43.77297" lon="7.07374">
        <ele>928.131535</ele>
        <time>2011-05-22T07:39:25Z</time>
      </trkpt>
      <trkpt lat="43.7731" lon="7.07387">
        <ele>927.810495</ele>
        <time>2011-05-22T07:39:27Z</time>
      </trkpt>
      <trkpt lat="43.77323" lon="7.074">
        <ele>926.817632</ele>
        <time>2011-05-22T07:39:30Z</time>
      </trkpt>
      <trkpt lat="43.77341" lon="7.07417">
        <ele>924.811433</ele>
        <time>2011-05-22T07:39:33Z</time>
      </trkpt>
      <trkpt lat="43.77356" lon="7.0743">
        <ele>922.182271</ele>
        <time>2011-05-22T07:39:36Z</time>
      </trkpt>
      <trkpt lat="43.77371" lon="7.07438">
        <ele>919.84147</ele>
        <time>2011-05-22T07:39:38Z</time>
      </trkpt>
      <trkpt lat="43.7738" lon="7.07443">
        <ele>918.370419</ele>
        <time>2011-05-22T07:39:40Z</time>
      </trkpt>
      <trkpt lat="43.77392" lon="7.07452">
        <ele>917.715408</ele>
        <time>2011-05-22T07:39:43Z</time>
      </trkpt>
      <trkpt lat="43.77405" lon="7.0746">
        <ele>917.583468</ele>
        <time>2011-05-22T07:39:46Z</time>
      </trkpt>
      <trkpt lat="43.77417" lon="7.07466">
        <ele>917.670881</ele>
        <time>2011-05-22T07:39:49Z</time>
      </trkpt>
      <trkpt lat="43.77427" lon="7.0747">
        <ele>917.811339</ele>
        <time>2011-05-22T07:39:52Z</time>
      </trkpt>
      <trkpt lat="43.7744" lon="7.07477">
        <ele>917.972409</ele>
        <time>2011-05-22T07:39:54Z</time>
      </trkpt>
      <trkpt lat="43.77449" lon="7.07481">
        <ele>918.118708</ele>
        <time>2011-05-22T07:39:56Z</time>
      </trkpt>
      <trkpt lat="43.77462" lon="7.07489">
        <ele>918.286975</ele>
        <time>2011-05-22T07:40:00Z</time>
      </trkpt>
      <trkpt lat="43.77472" lon="7.07496">
        <ele>918.556891</ele>
        <time>2011-05-22T07:40:02Z</time>
      </trkpt>
      <trkpt lat="43.77481" lon="7.07507">
        <ele>918.858212</ele>
        <time>2011-05-22T07:40:05Z</time>
      </trkpt>
      <trkpt lat="43.77487" lon="7.07518">
        <ele>919.101581</ele>
        <time>2011-05-22T07:40:08Z</time>
      </trkpt>
      <trkpt lat="43.77487" lon="7.07518">
        <ele>919.290554</ele>
        <time>2011-05-22T07:40:54Z</time>
      </trkpt>
      <trkpt lat="43.77511" lon="7.07535">
        <ele>919.40695</ele>
        <time>2011-05-22T07:41:39Z</time>
      </trkpt>
      <trkpt lat="43.77519" lon="7.07545">
        <ele>919.440633</ele>
        <time>2011-05-22T07:41:44Z</time>
      </trkpt>
      <trkpt lat="43.77527" lon="7.07552">
        <ele>919.244121</ele>
        <time>2011-05-22T07:41:48Z</time>
      </trkpt>
      <trkpt lat="43.77534" lon="7.07563">
        <ele>918.573994</ele>
        <time>2011-05-22T07:41:54Z</time>
      </trkpt>
      <trkpt lat="43.77534" lon="7.07563">
        <ele>917.635014</ele>
        <time>2011-05-22T07:41:56Z</time>
      </trkpt>
      <trkpt lat="43.77534" lon="7.07563">
        <ele>916.91722</ele>
        <time>2011-05-22T07:42:28Z</time>
      </trkpt>
      <trkpt lat="43.7755" lon="7.07596">
        <ele>916.530826</ele>
        <time>2011-05-22T07:43:09Z</time>
      </trkpt>
      <trkpt lat="43.7755" lon="7.07596">
        <ele>916.261951</ele>
        <time>2011-05-22T07:43:13Z</time>
      </trkpt>
      <trkpt lat="43.7755" lon="7.07596">
        <ele>915.959982</ele>
        <time>2011-05-22T07:43:32Z</time>
      </trkpt>
      <trkpt lat="43.77566" lon="7.0763">
        <ele>915.623212</ele>
        <time>2011-05-22T07:44:20Z</time>
      </trkpt>
      <trkpt lat="43.77566" lon="7.0763">
        <ele>915.342947</ele>
        <time>2011-05-22T07:44:31Z</time>
      </trkpt>
      <trkpt lat="43.77591" lon="7.07631">
        <ele>915.102738</ele>
        <time>2011-05-22T07:44:51Z</time>
      </trkpt>
      <trkpt lat="43.77603" lon="7.07634">
        <ele>913.345706</ele>
        <time>2011-05-22T07:44:54Z</time>
      </trkpt>
      <trkpt lat="43.77614" lon="7.07639">
        <ele>908.0663</ele>
        <time>2011-05-22T07:44:57Z</time>
      </trkpt>
      <trkpt lat="43.77622" lon="7.07646">
        <ele>900.785113</ele>
        <time>2011-05-22T07:45:00Z</time>
      </trkpt>
      <trkpt lat="43.77622" lon="7.07646">
        <ele>895.370371</ele>
        <time>2011-05-22T07:45:10Z</time>
      </trkpt>
      <trkpt lat="43.7764" lon="7.07675">
        <ele>893.177545</ele>
        <time>2011-05-22T07:45:39Z</time>
      </trkpt>
      <trkpt lat="43.77642" lon="7.07689">
        <ele>892.85956</ele>
        <time>2011-05-22T07:45:44Z</time>
      </trkpt>
      <trkpt lat="43.77652" lon="7.07695">
        <ele>892.793724</ele>
        <time>2011-05-22T07:45:50Z</time>
      </trkpt>
      <trkpt lat="43.77655" lon="7.07708">
        <ele>888.487497</ele>
        <time>2011-05-22T07:45:55Z</time>
      </trkpt>
      <trkpt lat="43.77651" lon="7.07722">
        <ele>877.406203</ele>
        <time>2011-05-22T07:46:02Z</time>
      </trkpt>
      <trkpt lat="43.77658" lon="7.07731">
        <ele>865.026184</ele>
        <time>2011-05-22T07:46:17Z</time>
      </trkpt>
      <trkpt lat="43.77658" lon="7.07731">
        <ele>857.454614</ele>
        <time>2011-05-22T07:46:31Z</time>
      </trkpt>
      <trkpt lat="43.77685" lon="7.07716">
        <ele>854.375286</ele>
        <time>2011-05-22T07:46:57Z</time>
      </trkpt>
      <trkpt lat="43.77694" lon="7.07715">
        <ele>852.949891</ele>
        <time>2011-05-22T07:47:02Z</time>
      </trkpt>
      <trkpt lat="43.77703" lon="7.0771">
        <ele>850.457884</ele>
        <time>2011-05-22T07:47:06Z</time>
      </trkpt>
      <trkpt lat="43.77712" lon="7.07706">
        <ele>844.888302</ele>
        <time>2011-05-22T07:47:11Z</time>
      </trkpt>
      <trkpt lat="43.77721" lon="7.07709">
        <ele>836.717934</ele>
        <time>2011-05-22T07:47:15Z</time>
      </trkpt>
      <trkpt lat="43.7773" lon="7.07717">
        <ele>829.452012</ele>
        <time>2011-05-22T07:47:19Z</time>
      </trkpt>
      <trkpt lat="43.77738" lon="7.07722">
        <ele>825.174321</ele>
        <time>2011-05-22T07:47:24Z</time>
      </trkpt>
      <trkpt lat="43.77748" lon="7.07718">
        <ele>822.833474</ele>
        <time>2011-05-22T07:47:33Z</time>
      </trkpt>
      <trkpt lat="43.77758" lon="7.0771">
        <ele>821.080253</ele>
        <time>2011-05-22T07:47:37Z</time>
      </trkpt>
      <trkpt lat="43.77767" lon="7.07716">
        <ele>819.158605</ele>
        <time>2011-05-22T07:47:42Z</time>
      </trkpt>
      <trkpt lat="43.77775" lon="7.07724">
        <ele>816.528449</ele>
        <time>2011-05-22T07:47:47Z</time>
      </trkpt>
      <trkpt lat="43.77782" lon="7.07733">
        <ele>813.193586</ele>
        <time>2011-05-22T07:47:52Z</time>
      </trkpt>
      <trkpt lat="43.77789" lon="7.07742">
        <ele>809.848298</ele>
        <time>2011-05-22T07:47:56Z</time>
      </trkpt>
      <trkpt lat="43.77792" lon="7.07755">
        <ele>806.917628</ele>
        <time>2011-05-22T07:48:01Z</time>
      </trkpt>
      <trkpt lat="43.7779" lon="7.07767">
        <ele>804.229059</ele>
        <time>2011-05-22T07:48:09Z</time>
      </trkpt>
      <trkpt lat="43.7779" lon="7.07767">
        <ele>801.985068</ele>
        <time>2011-05-22T07:48:23Z</time>
      </trkpt>
      <trkpt lat="43.77809" lon="7.07806">
        <ele>800.388283</ele>
        <time>2011-05-22T07:48:39Z</time>
      </trkpt>
      <trkpt lat="43.7781" lon="7.0782">
        <ele>798.807874</ele>
        <time>2011-05-22T07:48:43Z</time>
      </trkpt>
      <trkpt lat="43.7781" lon="7.07835">
        <ele>796.286554</ele>
        <time>2011-05-22T07:48:46Z</time>
      </trkpt>
      <trkpt lat="43.77811" lon="7.07851">
        <ele>791.041383</ele>
        <time>2011-05-22T07:48:50Z</time>
      </trkpt>
      <trkpt lat="43.77814" lon="7.07862">
        <ele>782.984664</ele>
        <time>2011-05-22T07:48:53Z</time>
      </trkpt>
      <trkpt lat="43.7782" lon="7.07874">
        <ele>775.741499</ele>
        <time>2011-05-22T07:48:57Z</time>
      </trkpt>
      <trkpt lat="43.77826" lon="7.07884">
        <ele>771.900277</ele>
        <time>2011-05-22T07:49:00Z</time>
      </trkpt>
      <trkpt lat="43.77833" lon="7.07895">
        <ele>770.410411</ele>
        <time>2011-05-22T07:49:06Z</time>
      </trkpt>
      <trkpt lat="43.7784" lon="7.07906">
        <ele>769.749316</ele>
        <time>2011-05-22T07:49:12Z</time>
      </trkpt>
      <trkpt lat="43.77844" lon="7.07921">
        <ele>769.096492</ele>
        <time>2011-05-22T07:49:16Z</time>
      </trkpt>
      <trkpt lat="43.77846" lon="7.07935">
        <ele>768.189984</ele>
        <time>2011-05-22T07:49:21Z</time>
      </trkpt>
      <trkpt lat="43.7785" lon="7.07948">
        <ele>767.016171</ele>
        <time>2011-05-22T07:49:26Z</time>
      </trkpt>
      <trkpt lat="43.7785" lon="7.07948">
        <ele>765.870608</ele>
        <time>2011-05-22T07:49:36Z</time>
      </trkpt>
      <trkpt lat="43.77869" lon="7.07987">
        <ele>765.076467</ele>
        <time>2011-05-22T07:50:08Z</time>
      </trkpt>
      <trkpt lat="43.77873" lon="7.08">
        <ele>764.459607</ele>
        <time>2011-05-22T07:50:12Z</time>
      </trkpt>
      <trkpt lat="43.77873" lon="7.08">
        <ele>763.824332</ele>
        <time>2011-05-22T07:50:28Z</time>
      </trkpt>
      <trkpt lat="43.7788" lon="7.08047">
        <ele>763.196851</ele>
        <time>2011-05-22T07:50:49Z</time>
      </trkpt>
      <trkpt lat="43.7788" lon="7.08047">
        <ele>762.60051</ele>
        <time>2011-05-22T07:51:02Z</time>
      </trkpt>
      <trkpt lat="43.77901" lon="7.08072">
        <ele>760.404142</ele>
        <time>2011-05-22T07:51:33Z</time>
      </trkpt>
      <trkpt lat="43.77906" lon="7.08082">
        <ele>755.433813</ele>
        <time>2011-05-22T07:51:38Z</time>
      </trkpt>
      <trkpt lat="43.77911" lon="7.08098">
        <ele>748.616421</ele>
        <time>2011-05-22T07:51:44Z</time>
      </trkpt>
      <trkpt lat="43.77914" lon="7.0811">
        <ele>740.469907</ele>
        <time>2011-05-22T07:51:47Z</time>
      </trkpt>
      <trkpt lat="43.77914" lon="7.0811">
        <ele>732.19935</ele>
        <time>2011-05-22T07:52:06Z</time>
      </trkpt>
      <trkpt lat="43.77914" lon="7.0811">
        <ele>726.919691</ele>
        <time>2011-05-22T07:52:18Z</time>
      </trkpt>
      <trkpt lat="43.77922" lon="7.08158">
        <ele>725.198765</ele>
        <time>2011-05-22T07:53:42Z</time>
      </trkpt>
      <trkpt lat="43.77924" lon="7.0817">
        <ele>725.075538</ele>
        <time>2011-05-22T07:53:46Z</time>
      </trkpt>
      <trkpt lat="43.77928" lon="7.08182">
        <ele>725.050961</ele>
        <time>2011-05-22T07:53:50Z</time>
      </trkpt>
      <trkpt lat="43.77929" lon="7.08195">
        <ele>721.436237</ele>
        <time>2011-05-22T07:53:56Z</time>
      </trkpt>
      <trkpt lat="43.77929" lon="7.08195">
        <ele>712.406308</ele>
        <time>2011-05-22T07:54:11Z</time>
      </trkpt>
      <trkpt lat="43.77929" lon="7.08195">
        <ele>703.270534</ele>
        <time>2011-05-22T07:54:26Z</time>
      </trkpt>
      <trkpt lat="43.77942" lon="7.08231">
        <ele>698.789647</ele>
        <time>2011-05-22T07:56:26Z</time>
      </trkpt>
      <trkpt lat="43.7795" lon="7.08239">
        <ele>697.524236</ele>
        <time>2011-05-22T07:56:32Z</time>
      </trkpt>
      <trkpt lat="43.77954" lon="7.08253">
        <ele>697.210744</ele>
        <time>2011-05-22T07:56:38Z</time>
      </trkpt>
      <trkpt lat="43.77958" lon="7.08266">
        <ele>694.940875</ele>
        <time>2011-05-22T07:56:43Z</time>
      </trkpt>
      <trkpt lat="43.77959" lon="7.08282">
        <ele>689.440752</ele>
        <time>2011-05-22T07:56:48Z</time>
      </trkpt>
      <trkpt lat="43.77964" lon="7.08296">
        <ele>683.667819</ele>
        <time>2011-05-22T07:56:53Z</time>
      </trkpt>
      <trkpt lat="43.7797" lon="7.0831">
        <ele>680.571815</ele>
        <time>2011-05-22T07:57:02Z</time>
      </trkpt>
      <trkpt lat="43.7797" lon="7.0831">
        <ele>679.760148</ele>
        <time>2011-05-22T07:57:18Z</time>
      </trkpt>
      <trkpt lat="43.7797" lon="7.0831">
        <ele>679.964905</ele>
        <time>2011-05-22T07:57:32Z</time>
      </trkpt>
      <trkpt lat="43.77976" lon="7.08354">
        <ele>680.283361</ele>
        <time>2011-05-22T07:58:20Z</time>
      </trkpt>
      <trkpt lat="43.7798" lon="7.08365">
        <ele>680.352809</ele>
        <time>2011-05-22T07:58:29Z</time>
      </trkpt>
      <trkpt lat="43.77983" lon="7.0838">
        <ele>680.110743</ele>
        <time>2011-05-22T07:58:34Z</time>
      </trkpt>
      <trkpt lat="43.77987" lon="7.08392">
        <ele>679.742054</ele>
        <time>2011-05-22T07:58:39Z</time>
      </trkpt>
      <trkpt lat="43.77991" lon="7.08404">
        <ele>679.488876</ele>
        <time>2011-05-22T07:58:43Z</time>
      </trkpt>
      <trkpt lat="43.77994" lon="7.08418">
        <ele>679.403543</ele>
        <time>2011-05-22T07:58:47Z</time>
      </trkpt>
      <trkpt lat="43.77998" lon="7.0843">
        <ele>679.412515</ele>
        <time>2011-05-22T07:58:52Z</time>
      </trkpt>
      <trkpt lat="43.77999" lon="7.08444">
        <ele>679.464401</ele>
        <time>2011-05-22T07:58:57Z</time>
      </trkpt>
      <trkpt lat="43.78002" lon="7.08458">
        <ele>679.58156</ele>
        <time>2011-05-22T07:59:02Z</time>
      </trkpt>
      <trkpt lat="43.78003" lon="7.08472">
        <ele>679.801084</ele>
        <time>2011-05-22T07:59:06Z</time>
      </trkpt>
      <trkpt lat="43.78002" lon="7.08484">
        <ele>680.115568</ele>
        <time>2011-05-22T07:59:16Z</time>
      </trkpt>
      <trkpt lat="43.78001" lon="7.08498">
        <ele>680.436883</ele>
        <time>2011-05-22T07:59:22Z</time>
      </trkpt>
      <trkpt lat="43.77998" lon="7.08512">
        <ele>680.644324</ele>
        <time>2011-05-22T07:59:27Z</time>
      </trkpt>
      <trkpt lat="43.77993" lon="7.08525">
        <ele>680.708762</ele>
        <time>2011-05-22T07:59:33Z</time>
      </trkpt>
      <trkpt lat="43.77992" lon="7.08538">
        <ele>680.690337</ele>
        <time>2011-05-22T07:59:37Z</time>
      </trkpt>
      <trkpt lat="43.77994" lon="7.08551">
        <ele>680.536196</ele>
        <time>2011-05-22T07:59:42Z</time>
      </trkpt>
      <trkpt lat="43.78001" lon="7.08565">
        <ele>680.101895</ele>
        <time>2011-05-22T07:59:47Z</time>
      </trkpt>
      <trkpt lat="43.78008" lon="7.08581">
        <ele>679.432795</ele>
        <time>2011-05-22T07:59:50Z</time>
      </trkpt>
      <trkpt lat="43.78021" lon="7.08591">
        <ele>678.766744</ele>
        <time>2011-05-22T07:59:53Z</time>
      </trkpt>
      <trkpt lat="43.78035" lon="7.08594">
        <ele>678.294302</ele>
        <time>2011-05-22T07:59:56Z</time>
      </trkpt>
      <trkpt lat="43.78046" lon="7.086">
        <ele>678.075126</ele>
        <time>2011-05-22T07:59:59Z</time>
      </trkpt>
      <trkpt lat="43.78054" lon="7.08608">
        <ele>678.044922</ele>
        <time>2011-05-22T08:00:02Z</time>
      </trkpt>
      <trkpt lat="43.78063" lon="7.08621">
        <ele>678.199677</ele>
        <time>2011-05-22T08:00:05Z</time>
      </trkpt>
      <trkpt lat="43.78068" lon="7.08637">
        <ele>678.537736</ele>
        <time>2011-05-22T08:00:08Z</time>
      </trkpt>
      <trkpt lat="43.78075" lon="7.08651">
        <ele>678.862871</ele>
        <time>2011-05-22T08:00:11Z</time>
      </trkpt>
      <trkpt lat="43.78078" lon="7.08663">
        <ele>679.011041</ele>
        <time>2011-05-22T08:00:13Z</time>
      </trkpt>
      <trkpt lat="43.78084" lon="7.08678">
        <ele>679.005044</ele>
        <time>2011-05-22T08:00:16Z</time>
      </trkpt>
      <trkpt lat="43.78086" lon="7.08694">
        <ele>678.857458</ele>
        <time>2011-05-22T08:00:19Z</time>
      </trkpt>
      <trkpt lat="43.78087" lon="7.08713">
        <ele>678.59491</ele>
        <time>2011-05-22T08:00:22Z</time>
      </trkpt>
      <trkpt lat="43.78089" lon="7.08726">
        <ele>678.285732</ele>
        <time>2011-05-22T08:00:26Z</time>
      </trkpt>
      <trkpt lat="43.7809" lon="7.08739">
        <ele>677.95353</ele>
        <time>2011-05-22T08:00:30Z</time>
      </trkpt>
      <trkpt lat="43.78095" lon="7.0875">
        <ele>677.579561</ele>
        <time>2011-05-22T08:00:34Z</time>
      </trkpt>
      <trkpt lat="43.78104" lon="7.08762">
        <ele>677.144611</ele>
        <time>2011-05-22T08:00:37Z</time>
      </trkpt>
      <trkpt lat="43.78112" lon="7.08777">
        <ele>676.631722</ele>
        <time>2011-05-22T08:00:40Z</time>
      </trkpt>
      <trkpt lat="43.78124" lon="7.08778">
        <ele>675.790892</ele>
        <time>2011-05-22T08:00:44Z</time>
      </trkpt>
      <trkpt lat="43.78133" lon="7.08785">
        <ele>674.100363</ele>
        <time>2011-05-22T08:00:48Z</time>
      </trkpt>
      <trkpt lat="43.78135" lon="7.088">
        <ele>671.564174</ele>
        <time>2011-05-22T08:00:52Z</time>
      </trkpt>
      <trkpt lat="43.78143" lon="7.08808">
        <ele>669.119239</ele>
        <time>2011-05-22T08:01:10Z</time>
      </trkpt>
      <trkpt lat="43.78143" lon="7.08808">
        <ele>667.655102</ele>
        <time>2011-05-22T08:01:14Z</time>
      </trkpt>
      <trkpt lat="43.78161" lon="7.0884">
        <ele>667.184661</ele>
        <time>2011-05-22T08:01:50Z</time>
      </trkpt>
      <trkpt lat="43.78158" lon="7.08852">
        <ele>667.188653</ele>
        <time>2011-05-22T08:02:04Z</time>
      </trkpt>
      <trkpt lat="43.78158" lon="7.08865">
        <ele>667.036999</ele>
        <time>2011-05-22T08:02:14Z</time>
      </trkpt>
      <trkpt lat="43.78159" lon="7.08878">
        <ele>666.100451</ele>
        <time>2011-05-22T08:02:28Z</time>
      </trkpt>
      <trkpt lat="43.78163" lon="7.0889">
        <ele>664.520038</ele>
        <time>2011-05-22T08:02:41Z</time>
      </trkpt>
      <trkpt lat="43.78163" lon="7.0889">
        <ele>663.229177</ele>
        <time>2011-05-22T08:02:51Z</time>
      </trkpt>
      <trkpt lat="43.78163" lon="7.0889">
        <ele>662.674404</ele>
        <time>2011-05-22T08:03:11Z</time>
      </trkpt>
      <trkpt lat="43.7818" lon="7.08925">
        <ele>662.5554</ele>
        <time>2011-05-22T08:05:37Z</time>
      </trkpt>
      <trkpt lat="43.78185" lon="7.08937">
        <ele>662.593751</ele>
        <time>2011-05-22T08:05:53Z</time>
      </trkpt>
      <trkpt lat="43.78189" lon="7.08948">
        <ele>662.703788</ele>
        <time>2011-05-22T08:06:00Z</time>
      </trkpt>
      <trkpt lat="43.78191" lon="7.0896">
        <ele>662.869311</ele>
        <time>2011-05-22T08:06:07Z</time>
      </trkpt>
      <trkpt lat="43.78197" lon="7.08972">
        <ele>663.046755</ele>
        <time>2011-05-22T08:06:14Z</time>
      </trkpt>
      <trkpt lat="43.78203" lon="7.08982">
        <ele>663.164956</ele>
        <time>2011-05-22T08:06:21Z</time>
      </trkpt>
      <trkpt lat="43.78209" lon="7.08993">
        <ele>663.279589</ele>
        <time>2011-05-22T08:06:28Z</time>
      </trkpt>
      <trkpt lat="43.78214" lon="7.09005">
        <ele>663.561637</ele>
        <time>2011-05-22T08:06:34Z</time>
      </trkpt>
      <trkpt lat="43.78219" lon="7.09016">
        <ele>664.073608</ele>
        <time>2011-05-22T08:06:40Z</time>
      </trkpt>
      <trkpt lat="43.78224" lon="7.09029">
        <ele>664.730904</ele>
        <time>2011-05-22T08:06:48Z</time>
      </trkpt>
      <trkpt lat="43.78223" lon="7.09043">
        <ele>665.428184</ele>
        <time>2011-05-22T08:06:53Z</time>
      </trkpt>
      <trkpt lat="43.78219" lon="7.09055">
        <ele>666.104402</ele>
        <time>2011-05-22T08:07:00Z</time>
      </trkpt>
      <trkpt lat="43.78215" lon="7.09068">
        <ele>666.797101</ele>
        <time>2011-05-22T08:07:07Z</time>
      </trkpt>
      <trkpt lat="43.78211" lon="7.09081">
        <ele>667.545593</ele>
        <time>2011-05-22T08:07:14Z</time>
      </trkpt>
      <trkpt lat="43.78207" lon="7.09092">
        <ele>668.331084</ele>
        <time>2011-05-22T08:07:20Z</time>
      </trkpt>
      <trkpt lat="43.78205" lon="7.09106">
        <ele>669.173815</ele>
        <time>2011-05-22T08:07:26Z</time>
      </trkpt>
      <trkpt lat="43.78202" lon="7.09118">
        <ele>670.119658</ele>
        <time>2011-05-22T08:07:33Z</time>
      </trkpt>
      <trkpt lat="43.78202" lon="7.09131">
        <ele>671.132608</ele>
        <time>2011-05-22T08:07:40Z</time>
      </trkpt>
      <trkpt lat="43.78203" lon="7.09145">
        <ele>672.157594</ele>
        <time>2011-05-22T08:07:47Z</time>
      </trkpt>
      <trkpt lat="43.78202" lon="7.09159">
        <ele>673.21772</ele>
        <time>2011-05-22T08:07:53Z</time>
      </trkpt>
      <trkpt lat="43.78202" lon="7.09173">
        <ele>674.383842</ele>
        <time>2011-05-22T08:07:58Z</time>
      </trkpt>
      <trkpt lat="43.78199" lon="7.09185">
        <ele>675.680016</ele>
        <time>2011-05-22T08:08:04Z</time>
      </trkpt>
      <trkpt lat="43.78198" lon="7.09199">
        <ele>677.052306</ele>
        <time>2011-05-22T08:08:13Z</time>
      </trkpt>
      <trkpt lat="43.782" lon="7.09214">
        <ele>678.388171</ele>
        <time>2011-05-22T08:08:18Z</time>
      </trkpt>
      <trkpt lat="43.78199" lon="7.09229">
        <ele>679.633349</ele>
        <time>2011-05-22T08:08:23Z</time>
      </trkpt>
      <trkpt lat="43.78198" lon="7.09243">
        <ele>680.924978</ele>
        <time>2011-05-22T08:08:28Z</time>
      </trkpt>
      <trkpt lat="43.78195" lon="7.09255">
        <ele>682.335977</ele>
        <time>2011-05-22T08:08:34Z</time>
      </trkpt>
      <trkpt lat="43.78195" lon="7.09268">
        <ele>683.700557</ele>
        <time>2011-05-22T08:08:39Z</time>
      </trkpt>
      <trkpt lat="43.78196" lon="7.09282">
        <ele>684.896658</ele>
        <time>2011-05-22T08:08:44Z</time>
      </trkpt>
      <trkpt lat="43.78197" lon="7.09296">
        <ele>686.00522</ele>
        <time>2011-05-22T08:08:49Z</time>
      </trkpt>
      <trkpt lat="43.78197" lon="7.0931">
        <ele>687.097649</ele>
        <time>2011-05-22T08:08:55Z</time>
      </trkpt>
      <trkpt lat="43.78195" lon="7.09323">
        <ele>688.148463</ele>
        <time>2011-05-22T08:09:01Z</time>
      </trkpt>
      <trkpt lat="43.78192" lon="7.09335">
        <ele>689.116972</ele>
        <time>2011-05-22T08:09:07Z</time>
      </trkpt>
      <trkpt lat="43.78195" lon="7.09349">
        <ele>690.037885</ele>
        <time>2011-05-22T08:09:13Z</time>
      </trkpt>
      <trkpt lat="43.78197" lon="7.09363">
        <ele>690.976757</ele>
        <time>2011-05-22T08:09:19Z</time>
      </trkpt>
      <trkpt lat="43.782" lon="7.09376">
        <ele>691.953099</ele>
        <time>2011-05-22T08:09:26Z</time>
      </trkpt>
      <trkpt lat="43.78205" lon="7.09388">
        <ele>692.936559</ele>
        <time>2011-05-22T08:09:33Z</time>
      </trkpt>
      <trkpt lat="43.78209" lon="7.09401">
        <ele>693.907897</ele>
        <time>2011-05-22T08:09:40Z</time>
      </trkpt>
      <trkpt lat="43.78215" lon="7.09413">
        <ele>694.902166</ele>
        <time>2011-05-22T08:09:46Z</time>
      </trkpt>
      <trkpt lat="43.7822" lon="7.09425">
        <ele>695.961994</ele>
        <time>2011-05-22T08:09:52Z</time>
      </trkpt>
      <trkpt lat="43.78223" lon="7.09439">
        <ele>697.075517</ele>
        <time>2011-05-22T08:09:58Z</time>
      </trkpt>
      <trkpt lat="43.78223" lon="7.09452">
        <ele>698.180651</ele>
        <time>2011-05-22T08:10:05Z</time>
      </trkpt>
      <trkpt lat="43.78226" lon="7.09465">
        <ele>699.212571</ele>
        <time>2011-05-22T08:10:13Z</time>
      </trkpt>
      <trkpt lat="43.7823" lon="7.09478">
        <ele>700.147862</ele>
        <time>2011-05-22T08:10:20Z</time>
      </trkpt>
      <trkpt lat="43.78232" lon="7.09491">
        <ele>701.026752</ele>
        <time>2011-05-22T08:10:26Z</time>
      </trkpt>
      <trkpt lat="43.78235" lon="7.09502">
        <ele>701.915705</ele>
        <time>2011-05-22T08:10:32Z</time>
      </trkpt>
      <trkpt lat="43.78239" lon="7.09515">
        <ele>702.837093</ele>
        <time>2011-05-22T08:10:38Z</time>
      </trkpt>
      <trkpt lat="43.78242" lon="7.09527">
        <ele>703.744422</ele>
        <time>2011-05-22T08:10:44Z</time>
      </trkpt>
      <trkpt lat="43.78245" lon="7.09539">
        <ele>704.60268</ele>
        <time>2011-05-22T08:10:49Z</time>
      </trkpt>
      <trkpt lat="43.78251" lon="7.0955">
        <ele>705.4385</ele>
        <time>2011-05-22T08:10:54Z</time>
      </trkpt>
      <trkpt lat="43.78255" lon="7.09561">
        <ele>706.290161</ele>
        <time>2011-05-22T08:10:59Z</time>
      </trkpt>
      <trkpt lat="43.78262" lon="7.09572">
        <ele>707.143331</ele>
        <time>2011-05-22T08:11:06Z</time>
      </trkpt>
      <trkpt lat="43.78269" lon="7.09579">
        <ele>707.945113</ele>
        <time>2011-05-22T08:11:11Z</time>
      </trkpt>
      <trkpt lat="43.78278" lon="7.09585">
        <ele>708.651878</ele>
        <time>2011-05-22T08:11:17Z</time>
      </trkpt>
      <trkpt lat="43.78286" lon="7.09592">
        <ele>709.261245</ele>
        <time>2011-05-22T08:11:24Z</time>
      </trkpt>
      <trkpt lat="43.78295" lon="7.09598">
        <ele>709.789374</ele>
        <time>2011-05-22T08:11:30Z</time>
      </trkpt>
      <trkpt lat="43.78302" lon="7.09608">
        <ele>710.251351</ele>
        <time>2011-05-22T08:11:36Z</time>
      </trkpt>
      <trkpt lat="43.78309" lon="7.09617">
        <ele>710.681511</ele>
        <time>2011-05-22T08:11:42Z</time>
      </trkpt>
      <trkpt lat="43.78318" lon="7.09619">
        <ele>711.124024</ele>
        <time>2011-05-22T08:11:48Z</time>
      </trkpt>
      <trkpt lat="43.78326" lon="7.09626">
        <ele>711.59027</ele>
        <time>2011-05-22T08:11:54Z</time>
      </trkpt>
      <trkpt lat="43.78333" lon="7.09634">
        <ele>712.080348</ele>
        <time>2011-05-22T08:12:00Z</time>
      </trkpt>
      <trkpt lat="43.78341" lon="7.09643">
        <ele>712.57874</ele>
        <time>2011-05-22T08:12:07Z</time>
      </trkpt>
      <trkpt lat="43.78349" lon="7.09652">
        <ele>713.064223</ele>
        <time>2011-05-22T08:12:13Z</time>
      </trkpt>
      <trkpt lat="43.78356" lon="7.09661">
        <ele>713.576038</ele>
        <time>2011-05-22T08:12:19Z</time>
      </trkpt>
      <trkpt lat="43.78362" lon="7.0967">
        <ele>714.220254</ele>
        <time>2011-05-22T08:12:24Z</time>
      </trkpt>
      <trkpt lat="43.78368" lon="7.0968">
        <ele>715.052264</ele>
        <time>2011-05-22T08:12:29Z</time>
      </trkpt>
      <trkpt lat="43.78374" lon="7.09691">
        <ele>716.013055</ele>
        <time>2011-05-22T08:12:36Z</time>
      </trkpt>
      <trkpt lat="43.78376" lon="7.09704">
        <ele>716.983096</ele>
        <time>2011-05-22T08:12:41Z</time>
      </trkpt>
      <trkpt lat="43.78378" lon="7.09718">
        <ele>717.872384</ele>
        <time>2011-05-22T08:12:45Z</time>
      </trkpt>
      <trkpt lat="43.78387" lon="7.09711">
        <ele>718.703905</ele>
        <time>2011-05-22T08:13:00Z</time>
      </trkpt>
      <trkpt lat="43.78384" lon="7.09697">
        <ele>719.524181</ele>
        <time>2011-05-22T08:13:07Z</time>
      </trkpt>
      <trkpt lat="43.78381" lon="7.09685">
        <ele>720.267235</ele>
        <time>2011-05-22T08:13:13Z</time>
      </trkpt>
      <trkpt lat="43.78378" lon="7.09672">
        <ele>721.085408</ele>
        <time>2011-05-22T08:13:19Z</time>
      </trkpt>
      <trkpt lat="43.78375" lon="7.09659">
        <ele>722.219743</ele>
        <time>2011-05-22T08:13:25Z</time>
      </trkpt>
      <trkpt lat="43.7837" lon="7.09645">
        <ele>723.487996</ele>
        <time>2011-05-22T08:13:31Z</time>
      </trkpt>
      <trkpt lat="43.78366" lon="7.09633">
        <ele>724.554321</ele>
        <time>2011-05-22T08:13:37Z</time>
      </trkpt>
      <trkpt lat="43.78361" lon="7.09622">
        <ele>725.38247</ele>
        <time>2011-05-22T08:13:43Z</time>
      </trkpt>
      <trkpt lat="43.78357" lon="7.09609">
        <ele>726.104945</ele>
        <time>2011-05-22T08:13:50Z</time>
      </trkpt>
      <trkpt lat="43.78354" lon="7.09595">
        <ele>726.864795</ele>
        <time>2011-05-22T08:13:57Z</time>
      </trkpt>
      <trkpt lat="43.7835" lon="7.09582">
        <ele>727.728907</ele>
        <time>2011-05-22T08:14:03Z</time>
      </trkpt>
      <trkpt lat="43.78346" lon="7.09569">
        <ele>728.729345</ele>
        <time>2011-05-22T08:14:09Z</time>
      </trkpt>
      <trkpt lat="43.78342" lon="7.09557">
        <ele>729.868281</ele>
        <time>2011-05-22T08:14:15Z</time>
      </trkpt>
      <trkpt lat="43.78339" lon="7.09545">
        <ele>731.020234</ele>
        <time>2011-05-22T08:14:21Z</time>
      </trkpt>
      <trkpt lat="43.78333" lon="7.09533">
        <ele>732.024088</ele>
        <time>2011-05-22T08:14:27Z</time>
      </trkpt>
      <trkpt lat="43.78327" lon="7.09521">
        <ele>732.899717</ele>
        <time>2011-05-22T08:14:33Z</time>
      </trkpt>
      <trkpt lat="43.7832" lon="7.0951">
        <ele>733.784755</ele>
        <time>2011-05-22T08:14:39Z</time>
      </trkpt>
      <trkpt lat="43.78315" lon="7.095">
        <ele>734.738005</ele>
        <time>2011-05-22T08:14:44Z</time>
      </trkpt>
      <trkpt lat="43.78308" lon="7.0949">
        <ele>735.730843</ele>
        <time>2011-05-22T08:14:49Z</time>
      </trkpt>
      <trkpt lat="43.78307" lon="7.09477">
        <ele>736.720868</ele>
        <time>2011-05-22T08:14:55Z</time>
      </trkpt>
      <trkpt lat="43.78307" lon="7.09464">
        <ele>737.663906</ele>
        <time>2011-05-22T08:15:00Z</time>
      </trkpt>
      <trkpt lat="43.78307" lon="7.09451">
        <ele>738.517634</ele>
        <time>2011-05-22T08:15:06Z</time>
      </trkpt>
      <trkpt lat="43.78306" lon="7.09438">
        <ele>739.293758</ele>
        <time>2011-05-22T08:15:12Z</time>
      </trkpt>
      <trkpt lat="43.78304" lon="7.09425">
        <ele>740.032789</ele>
        <time>2011-05-22T08:15:18Z</time>
      </trkpt>
      <trkpt lat="43.78304" lon="7.09413">
        <ele>740.763254</ele>
        <time>2011-05-22T08:15:23Z</time>
      </trkpt>
      <trkpt lat="43.78304" lon="7.094">
        <ele>741.524545</ele>
        <time>2011-05-22T08:15:28Z</time>
      </trkpt>
      <trkpt lat="43.78304" lon="7.09386">
        <ele>742.347048</ele>
        <time>2011-05-22T08:15:34Z</time>
      </trkpt>
      <trkpt lat="43.78305" lon="7.09373">
        <ele>743.197124</ele>
        <time>2011-05-22T08:15:40Z</time>
      </trkpt>
      <trkpt lat="43.78309" lon="7.09361">
        <ele>744.00899</ele>
        <time>2011-05-22T08:15:47Z</time>
      </trkpt>
      <trkpt lat="43.78314" lon="7.0935">
        <ele>744.770857</ele>
        <time>2011-05-22T08:15:53Z</time>
      </trkpt>
      <trkpt lat="43.78319" lon="7.0934">
        <ele>745.531826</ele>
        <time>2011-05-22T08:15:59Z</time>
      </trkpt>
      <trkpt lat="43.78323" lon="7.09327">
        <ele>746.342902</ele>
        <time>2011-05-22T08:16:05Z</time>
      </trkpt>
      <trkpt lat="43.78328" lon="7.09316">
        <ele>747.186452</ele>
        <time>2011-05-22T08:16:11Z</time>
      </trkpt>
      <trkpt lat="43.78333" lon="7.09305">
        <ele>748.002443</ele>
        <time>2011-05-22T08:16:17Z</time>
      </trkpt>
      <trkpt lat="43.78337" lon="7.09292">
        <ele>748.76783</ele>
        <time>2011-05-22T08:16:24Z</time>
      </trkpt>
      <trkpt lat="43.78341" lon="7.09281">
        <ele>749.515555</ele>
        <time>2011-05-22T08:16:30Z</time>
      </trkpt>
      <trkpt lat="43.78345" lon="7.09269">
        <ele>750.306557</ele>
        <time>2011-05-22T08:16:36Z</time>
      </trkpt>
      <trkpt lat="43.78349" lon="7.09256">
        <ele>751.214703</ele>
        <time>2011-05-22T08:16:42Z</time>
      </trkpt>
      <trkpt lat="43.78354" lon="7.09245">
        <ele>752.24232</ele>
        <time>2011-05-22T08:16:47Z</time>
      </trkpt>
      <trkpt lat="43.7836" lon="7.09235">
        <ele>753.311605</ele>
        <time>2011-05-22T08:16:55Z</time>
      </trkpt>
      <trkpt lat="43.78367" lon="7.09224">
        <ele>754.349492</ele>
        <time>2011-05-22T08:17:03Z</time>
      </trkpt>
      <trkpt lat="43.78373" lon="7.09215">
        <ele>755.319781</ele>
        <time>2011-05-22T08:17:09Z</time>
      </trkpt>
      <trkpt lat="43.7838" lon="7.09205">
        <ele>756.258877</ele>
        <time>2011-05-22T08:17:15Z</time>
      </trkpt>
      <trkpt lat="43.78387" lon="7.09197">
        <ele>757.256242</ele>
        <time>2011-05-22T08:17:21Z</time>
      </trkpt>
      <trkpt lat="43.78394" lon="7.09188">
        <ele>758.318281</ele>
        <time>2011-05-22T08:17:27Z</time>
      </trkpt>
      <trkpt lat="43.78403" lon="7.0918">
        <ele>759.397176</ele>
        <time>2011-05-22T08:17:34Z</time>
      </trkpt>
      <trkpt lat="43.78411" lon="7.09175">
        <ele>760.465323</ele>
        <time>2011-05-22T08:17:40Z</time>
      </trkpt>
      <trkpt lat="43.78419" lon="7.09168">
        <ele>761.510969</ele>
        <time>2011-05-22T08:17:46Z</time>
      </trkpt>
      <trkpt lat="43.78428" lon="7.09162">
        <ele>762.635525</ele>
        <time>2011-05-22T08:17:52Z</time>
      </trkpt>
      <trkpt lat="43.78435" lon="7.09154">
        <ele>763.937315</ele>
        <time>2011-05-22T08:17:58Z</time>
      </trkpt>
      <trkpt lat="43.78444" lon="7.09148">
        <ele>765.3198</ele>
        <time>2011-05-22T08:18:04Z</time>
      </trkpt>
      <trkpt lat="43.78453" lon="7.09141">
        <ele>766.625189</ele>
        <time>2011-05-22T08:18:11Z</time>
      </trkpt>
      <trkpt lat="43.78461" lon="7.09135">
        <ele>767.807176</ele>
        <time>2011-05-22T08:18:17Z</time>
      </trkpt>
      <trkpt lat="43.7847" lon="7.09128">
        <ele>768.89666</ele>
        <time>2011-05-22T08:18:23Z</time>
      </trkpt>
      <trkpt lat="43.78479" lon="7.09123">
        <ele>769.960442</ele>
        <time>2011-05-22T08:18:29Z</time>
      </trkpt>
      <trkpt lat="43.78488" lon="7.09117">
        <ele>771.042343</ele>
        <time>2011-05-22T08:18:35Z</time>
      </trkpt>
      <trkpt lat="43.78496" lon="7.09108">
        <ele>772.121257</ele>
        <time>2011-05-22T08:18:42Z</time>
      </trkpt>
      <trkpt lat="43.78504" lon="7.091">
        <ele>773.139877</ele>
        <time>2011-05-22T08:18:49Z</time>
      </trkpt>
      <trkpt lat="43.78513" lon="7.09093">
        <ele>774.106923</ele>
        <time>2011-05-22T08:18:56Z</time>
      </trkpt>
      <trkpt lat="43.78516" lon="7.09107">
        <ele>775.132831</ele>
        <time>2011-05-22T08:19:05Z</time>
      </trkpt>
      <trkpt lat="43.7851" lon="7.09119">
        <ele>776.31478</ele>
        <time>2011-05-22T08:19:12Z</time>
      </trkpt>
      <trkpt lat="43.78503" lon="7.09128">
        <ele>777.623355</ele>
        <time>2011-05-22T08:19:18Z</time>
      </trkpt>
      <trkpt lat="43.78497" lon="7.09138">
        <ele>779.018627</ele>
        <time>2011-05-22T08:19:24Z</time>
      </trkpt>
      <trkpt lat="43.78491" lon="7.09151">
        <ele>780.447463</ele>
        <time>2011-05-22T08:19:30Z</time>
      </trkpt>
      <trkpt lat="43.78485" lon="7.09161">
        <ele>781.760627</ele>
        <time>2011-05-22T08:19:35Z</time>
      </trkpt>
      <trkpt lat="43.78479" lon="7.09171">
        <ele>782.852021</ele>
        <time>2011-05-22T08:19:41Z</time>
      </trkpt>
      <trkpt lat="43.78472" lon="7.09181">
        <ele>783.778119</ele>
        <time>2011-05-22T08:19:46Z</time>
      </trkpt>
      <trkpt lat="43.78464" lon="7.0919">
        <ele>784.624123</ele>
        <time>2011-05-22T08:19:52Z</time>
      </trkpt>
      <trkpt lat="43.78456" lon="7.092">
        <ele>785.443236</ele>
        <time>2011-05-22T08:19:58Z</time>
      </trkpt>
      <trkpt lat="43.78449" lon="7.09208">
        <ele>786.259254</ele>
        <time>2011-05-22T08:20:03Z</time>
      </trkpt>
      <trkpt lat="43.78441" lon="7.09217">
        <ele>787.078957</ele>
        <time>2011-05-22T08:20:09Z</time>
      </trkpt>
      <trkpt lat="43.78434" lon="7.09226">
        <ele>787.91651</ele>
        <time>2011-05-22T08:20:15Z</time>
      </trkpt>
      <trkpt lat="43.78441" lon="7.09219">
        <ele>788.767421</ele>
        <time>2011-05-22T08:20:26Z</time>
      </trkpt>
      <trkpt lat="43.78449" lon="7.0921">
        <ele>789.608395</ele>
        <time>2011-05-22T08:20:32Z</time>
      </trkpt>
      <trkpt lat="43.78458" lon="7.09203">
        <ele>790.453</ele>
        <time>2011-05-22T08:20:38Z</time>
      </trkpt>
      <trkpt lat="43.78467" lon="7.09197">
        <ele>791.422577</ele>
        <time>2011-05-22T08:20:44Z</time>
      </trkpt>
      <trkpt lat="43.78477" lon="7.09193">
        <ele>792.564959</ele>
        <time>2011-05-22T08:20:50Z</time>
      </trkpt>
      <trkpt lat="43.78485" lon="7.09186">
        <ele>793.694574</ele>
        <time>2011-05-22T08:20:56Z</time>
      </trkpt>
      <trkpt lat="43.78494" lon="7.0918">
        <ele>794.640089</ele>
        <time>2011-05-22T08:21:02Z</time>
      </trkpt>
      <trkpt lat="43.78502" lon="7.09174">
        <ele>795.413514</ele>
        <time>2011-05-22T08:21:08Z</time>
      </trkpt>
      <trkpt lat="43.7851" lon="7.09167">
        <ele>796.056382</ele>
        <time>2011-05-22T08:21:14Z</time>
      </trkpt>
      <trkpt lat="43.78519" lon="7.09162">
        <ele>796.619455</ele>
        <time>2011-05-22T08:21:20Z</time>
      </trkpt>
      <trkpt lat="43.78527" lon="7.09157">
        <ele>797.163094</ele>
        <time>2011-05-22T08:21:26Z</time>
      </trkpt>
      <trkpt lat="43.78537" lon="7.09151">
        <ele>797.727983</ele>
        <time>2011-05-22T08:21:32Z</time>
      </trkpt>
      <trkpt lat="43.78546" lon="7.09148">
        <ele>798.324342</ele>
        <time>2011-05-22T08:21:37Z</time>
      </trkpt>
      <trkpt lat="43.78555" lon="7.09142">
        <ele>798.941608</ele>
        <time>2011-05-22T08:21:43Z</time>
      </trkpt>
      <trkpt lat="43.78564" lon="7.09135">
        <ele>799.551398</ele>
        <time>2011-05-22T08:21:50Z</time>
      </trkpt>
      <trkpt lat="43.78574" lon="7.09131">
        <ele>800.11475</ele>
        <time>2011-05-22T08:21:56Z</time>
      </trkpt>
      <trkpt lat="43.78582" lon="7.09128">
        <ele>800.645354</ele>
        <time>2011-05-22T08:22:01Z</time>
      </trkpt>
      <trkpt lat="43.78587" lon="7.09116">
        <ele>801.254101</ele>
        <time>2011-05-22T08:22:07Z</time>
      </trkpt>
      <trkpt lat="43.78585" lon="7.09104">
        <ele>802.027522</ele>
        <time>2011-05-22T08:22:13Z</time>
      </trkpt>
      <trkpt lat="43.78582" lon="7.09091">
        <ele>802.900278</ele>
        <time>2011-05-22T08:22:19Z</time>
      </trkpt>
      <trkpt lat="43.78579" lon="7.09078">
        <ele>803.757468</ele>
        <time>2011-05-22T08:22:25Z</time>
      </trkpt>
      <trkpt lat="43.78578" lon="7.09065">
        <ele>804.573884</ele>
        <time>2011-05-22T08:22:31Z</time>
      </trkpt>
      <trkpt lat="43.78576" lon="7.09051">
        <ele>805.388096</ele>
        <time>2011-05-22T08:22:37Z</time>
      </trkpt>
      <trkpt lat="43.78573" lon="7.09039">
        <ele>806.233663</ele>
        <time>2011-05-22T08:22:42Z</time>
      </trkpt>
      <trkpt lat="43.78567" lon="7.09027">
        <ele>807.111811</ele>
        <time>2011-05-22T08:22:48Z</time>
      </trkpt>
      <trkpt lat="43.78562" lon="7.09015">
        <ele>807.998619</ele>
        <time>2011-05-22T08:22:54Z</time>
      </trkpt>
      <trkpt lat="43.78557" lon="7.09004">
        <ele>808.856836</ele>
        <time>2011-05-22T08:23:00Z</time>
      </trkpt>
      <trkpt lat="43.78553" lon="7.08993">
        <ele>809.672696</ele>
        <time>2011-05-22T08:23:06Z</time>
      </trkpt>
      <trkpt lat="43.78548" lon="7.08981">
        <ele>810.482214</ele>
        <time>2011-05-22T08:23:12Z</time>
      </trkpt>
      <trkpt lat="43.78542" lon="7.0897">
        <ele>811.319804</ele>
        <time>2011-05-22T08:23:18Z</time>
      </trkpt>
      <trkpt lat="43.78539" lon="7.08956">
        <ele>812.178779</ele>
        <time>2011-05-22T08:23:24Z</time>
      </trkpt>
      <trkpt lat="43.78531" lon="7.08947">
        <ele>813.042251</ele>
        <time>2011-05-22T08:23:30Z</time>
      </trkpt>
      <trkpt lat="43.78523" lon="7.08939">
        <ele>813.880737</ele>
        <time>2011-05-22T08:23:36Z</time>
      </trkpt>
      <trkpt lat="43.78518" lon="7.08929">
        <ele>814.673648</ele>
        <time>2011-05-22T08:23:42Z</time>
      </trkpt>
      <trkpt lat="43.78527" lon="7.08928">
        <ele>815.42911</ele>
        <time>2011-05-22T08:23:51Z</time>
      </trkpt>
      <trkpt lat="43.78533" lon="7.08938">
        <ele>816.157011</ele>
        <time>2011-05-22T08:23:57Z</time>
      </trkpt>
      <trkpt lat="43.78541" lon="7.08946">
        <ele>816.863456</ele>
        <time>2011-05-22T08:24:04Z</time>
      </trkpt>
      <trkpt lat="43.78549" lon="7.08954">
        <ele>817.591264</ele>
        <time>2011-05-22T08:24:10Z</time>
      </trkpt>
      <trkpt lat="43.78556" lon="7.08964">
        <ele>818.390072</ele>
        <time>2011-05-22T08:24:16Z</time>
      </trkpt>
      <trkpt lat="43.78564" lon="7.08972">
        <ele>819.311803</ele>
        <time>2011-05-22T08:24:22Z</time>
      </trkpt>
      <trkpt lat="43.78571" lon="7.08981">
        <ele>820.389824</ele>
        <time>2011-05-22T08:24:28Z</time>
      </trkpt>
      <trkpt lat="43.78579" lon="7.08992">
        <ele>821.589775</ele>
        <time>2011-05-22T08:24:34Z</time>
      </trkpt>
      <trkpt lat="43.78586" lon="7.09001">
        <ele>822.837738</ele>
        <time>2011-05-22T08:24:39Z</time>
      </trkpt>
      <trkpt lat="43.78593" lon="7.09011">
        <ele>824.081683</ele>
        <time>2011-05-22T08:24:45Z</time>
      </trkpt>
      <trkpt lat="43.786" lon="7.0902">
        <ele>825.255009</ele>
        <time>2011-05-22T08:24:51Z</time>
      </trkpt>
      <trkpt lat="43.78607" lon="7.09029">
        <ele>826.29915</ele>
        <time>2011-05-22T08:24:57Z</time>
      </trkpt>
      <trkpt lat="43.78614" lon="7.09039">
        <ele>827.265061</ele>
        <time>2011-05-22T08:25:03Z</time>
      </trkpt>
      <trkpt lat="43.7862" lon="7.09048">
        <ele>828.279372</ele>
        <time>2011-05-22T08:25:08Z</time>
      </trkpt>
      <trkpt lat="43.78628" lon="7.09059">
        <ele>829.390076</ele>
        <time>2011-05-22T08:25:14Z</time>
      </trkpt>
      <trkpt lat="43.78636" lon="7.09065">
        <ele>830.543944</ele>
        <time>2011-05-22T08:25:20Z</time>
      </trkpt>
      <trkpt lat="43.78644" lon="7.09074">
        <ele>831.64453</ele>
        <time>2011-05-22T08:25:26Z</time>
      </trkpt>
      <trkpt lat="43.78652" lon="7.09083">
        <ele>832.641387</ele>
        <time>2011-05-22T08:25:32Z</time>
      </trkpt>
      <trkpt lat="43.78659" lon="7.09091">
        <ele>833.544977</ele>
        <time>2011-05-22T08:25:38Z</time>
      </trkpt>
      <trkpt lat="43.78666" lon="7.091">
        <ele>834.393506</ele>
        <time>2011-05-22T08:25:44Z</time>
      </trkpt>
      <trkpt lat="43.78674" lon="7.0911">
        <ele>835.270709</ele>
        <time>2011-05-22T08:25:50Z</time>
      </trkpt>
      <trkpt lat="43.78682" lon="7.09119">
        <ele>836.253186</ele>
        <time>2011-05-22T08:25:55Z</time>
      </trkpt>
      <trkpt lat="43.78691" lon="7.09125">
        <ele>837.317306</ele>
        <time>2011-05-22T08:26:02Z</time>
      </trkpt>
      <trkpt lat="43.787" lon="7.0913">
        <ele>838.362614</ele>
        <time>2011-05-22T08:26:08Z</time>
      </trkpt>
      <trkpt lat="43.7871" lon="7.09135">
        <ele>839.293662</ele>
        <time>2011-05-22T08:26:15Z</time>
      </trkpt>
      <trkpt lat="43.78719" lon="7.0914">
        <ele>840.165261</ele>
        <time>2011-05-22T08:26:21Z</time>
      </trkpt>
      <trkpt lat="43.78728" lon="7.09144">
        <ele>841.103673</ele>
        <time>2011-05-22T08:26:26Z</time>
      </trkpt>
      <trkpt lat="43.78737" lon="7.09149">
        <ele>842.12306</ele>
        <time>2011-05-22T08:26:32Z</time>
      </trkpt>
      <trkpt lat="43.78745" lon="7.09154">
        <ele>843.158058</ele>
        <time>2011-05-22T08:26:38Z</time>
      </trkpt>
      <trkpt lat="43.78756" lon="7.09158">
        <ele>844.149974</ele>
        <time>2011-05-22T08:26:44Z</time>
      </trkpt>
      <trkpt lat="43.78765" lon="7.09163">
        <ele>845.096046</ele>
        <time>2011-05-22T08:26:51Z</time>
      </trkpt>
      <trkpt lat="43.78774" lon="7.09166">
        <ele>846.064814</ele>
        <time>2011-05-22T08:26:57Z</time>
      </trkpt>
      <trkpt lat="43.78783" lon="7.09167">
        <ele>847.089323</ele>
        <time>2011-05-22T08:27:03Z</time>
      </trkpt>
      <trkpt lat="43.78793" lon="7.09169">
        <ele>848.163223</ele>
        <time>2011-05-22T08:27:09Z</time>
      </trkpt>
      <trkpt lat="43.78802" lon="7.0917">
        <ele>849.263878</ele>
        <time>2011-05-22T08:27:14Z</time>
      </trkpt>
      <trkpt lat="43.78812" lon="7.09171">
        <ele>850.327223</ele>
        <time>2011-05-22T08:27:20Z</time>
      </trkpt>
      <trkpt lat="43.78823" lon="7.09171">
        <ele>851.306204</ele>
        <time>2011-05-22T08:27:26Z</time>
      </trkpt>
      <trkpt lat="43.78832" lon="7.0917">
        <ele>852.191055</ele>
        <time>2011-05-22T08:27:31Z</time>
      </trkpt>
      <trkpt lat="43.78842" lon="7.09169">
        <ele>852.993424</ele>
        <time>2011-05-22T08:27:37Z</time>
      </trkpt>
      <trkpt lat="43.78842" lon="7.09169">
        <ele>853.653021</ele>
        <time>2011-05-22T08:27:50Z</time>
      </trkpt>
      <trkpt lat="43.78842" lon="7.09169">
        <ele>854.034747</ele>
        <time>2011-05-22T08:28:07Z</time>
      </trkpt>
      <trkpt lat="43.78874" lon="7.09165">
        <ele>854.251576</ele>
        <time>2011-05-22T08:29:24Z</time>
      </trkpt>
      <trkpt lat="43.78884" lon="7.09163">
        <ele>854.623977</ele>
        <time>2011-05-22T08:29:30Z</time>
      </trkpt>
      <trkpt lat="43.78894" lon="7.09158">
        <ele>855.264384</ele>
        <time>2011-05-22T08:29:36Z</time>
      </trkpt>
      <trkpt lat="43.78904" lon="7.09153">
        <ele>856.722715</ele>
        <time>2011-05-22T08:29:42Z</time>
      </trkpt>
      <trkpt lat="43.78913" lon="7.09147">
        <ele>859.311449</ele>
        <time>2011-05-22T08:29:48Z</time>
      </trkpt>
      <trkpt lat="43.78923" lon="7.09142">
        <ele>862.019158</ele>
        <time>2011-05-22T08:29:54Z</time>
      </trkpt>
      <trkpt lat="43.78932" lon="7.09141">
        <ele>863.881274</ele>
        <time>2011-05-22T08:29:59Z</time>
      </trkpt>
      <trkpt lat="43.78942" lon="7.09144">
        <ele>865.067481</ele>
        <time>2011-05-22T08:30:06Z</time>
      </trkpt>
      <trkpt lat="43.78951" lon="7.09148">
        <ele>865.970209</ele>
        <time>2011-05-22T08:30:12Z</time>
      </trkpt>
      <trkpt lat="43.7896" lon="7.09152">
        <ele>866.816636</ele>
        <time>2011-05-22T08:30:17Z</time>
      </trkpt>
      <trkpt lat="43.78969" lon="7.09156">
        <ele>867.696587</ele>
        <time>2011-05-22T08:30:23Z</time>
      </trkpt>
      <trkpt lat="43.78978" lon="7.09159">
        <ele>868.647971</ele>
        <time>2011-05-22T08:30:29Z</time>
      </trkpt>
      <trkpt lat="43.78987" lon="7.09164">
        <ele>869.615716</ele>
        <time>2011-05-22T08:30:35Z</time>
      </trkpt>
      <trkpt lat="43.78997" lon="7.09168">
        <ele>870.521643</ele>
        <time>2011-05-22T08:30:42Z</time>
      </trkpt>
      <trkpt lat="43.79007" lon="7.09172">
        <ele>871.352887</ele>
        <time>2011-05-22T08:30:47Z</time>
      </trkpt>
      <trkpt lat="43.79016" lon="7.09174">
        <ele>872.144109</ele>
        <time>2011-05-22T08:30:52Z</time>
      </trkpt>
      <trkpt lat="43.79025" lon="7.09176">
        <ele>872.964423</ele>
        <time>2011-05-22T08:30:59Z</time>
      </trkpt>
      <trkpt lat="43.79035" lon="7.09179">
        <ele>873.824594</ele>
        <time>2011-05-22T08:31:05Z</time>
      </trkpt>
      <trkpt lat="43.79043" lon="7.09182">
        <ele>874.658695</ele>
        <time>2011-05-22T08:31:11Z</time>
      </trkpt>
      <trkpt lat="43.79053" lon="7.09183">
        <ele>875.499282</ele>
        <time>2011-05-22T08:31:17Z</time>
      </trkpt>
      <trkpt lat="43.79062" lon="7.09179">
        <ele>876.434564</ele>
        <time>2011-05-22T08:31:23Z</time>
      </trkpt>
      <trkpt lat="43.79071" lon="7.09174">
        <ele>877.441587</ele>
        <time>2011-05-22T08:31:29Z</time>
      </trkpt>
      <trkpt lat="43.7908" lon="7.09171">
        <ele>878.443992</ele>
        <time>2011-05-22T08:31:35Z</time>
      </trkpt>
      <trkpt lat="43.79088" lon="7.09164">
        <ele>879.422732</ele>
        <time>2011-05-22T08:31:41Z</time>
      </trkpt>
      <trkpt lat="43.79098" lon="7.09157">
        <ele>880.385954</ele>
        <time>2011-05-22T08:31:47Z</time>
      </trkpt>
      <trkpt lat="43.79107" lon="7.09153">
        <ele>881.346459</ele>
        <time>2011-05-22T08:31:53Z</time>
      </trkpt>
      <trkpt lat="43.79117" lon="7.09149">
        <ele>882.326669</ele>
        <time>2011-05-22T08:31:59Z</time>
      </trkpt>
      <trkpt lat="43.79126" lon="7.09145">
        <ele>883.344845</ele>
        <time>2011-05-22T08:32:05Z</time>
      </trkpt>
      <trkpt lat="43.79135" lon="7.0914">
        <ele>884.39543</ele>
        <time>2011-05-22T08:32:12Z</time>
      </trkpt>
      <trkpt lat="43.79144" lon="7.09133">
        <ele>885.458472</ele>
        <time>2011-05-22T08:32:18Z</time>
      </trkpt>
      <trkpt lat="43.79153" lon="7.09128">
        <ele>886.517429</ele>
        <time>2011-05-22T08:32:25Z</time>
      </trkpt>
      <trkpt lat="43.79153" lon="7.09128">
        <ele>887.421712</ele>
        <time>2011-05-22T08:32:39Z</time>
      </trkpt>
      <trkpt lat="43.79153" lon="7.09128">
        <ele>887.943448</ele>
        <time>2011-05-22T08:33:16Z</time>
      </trkpt>
      <trkpt lat="43.7917" lon="7.09088">
        <ele>888.246091</ele>
        <time>2011-05-22T08:34:00Z</time>
      </trkpt>
      <trkpt lat="43.79171" lon="7.09074">
        <ele>888.776886</ele>
        <time>2011-05-22T08:34:06Z</time>
      </trkpt>
      <trkpt lat="43.79176" lon="7.09062">
        <ele>889.692382</ele>
        <time>2011-05-22T08:34:13Z</time>
      </trkpt>
      <trkpt lat="43.79182" lon="7.09051">
        <ele>891.597259</ele>
        <time>2011-05-22T08:34:19Z</time>
      </trkpt>
      <trkpt lat="43.79188" lon="7.09042">
        <ele>894.774226</ele>
        <time>2011-05-22T08:34:25Z</time>
      </trkpt>
      <trkpt lat="43.79194" lon="7.09031">
        <ele>898.011176</ele>
        <time>2011-05-22T08:34:30Z</time>
      </trkpt>
      <trkpt lat="43.79198" lon="7.09019">
        <ele>900.232183</ele>
        <time>2011-05-22T08:34:36Z</time>
      </trkpt>
      <trkpt lat="43.792" lon="7.09007">
        <ele>901.663228</ele>
        <time>2011-05-22T08:34:41Z</time>
      </trkpt>
      <trkpt lat="43.79202" lon="7.08994">
        <ele>902.731985</ele>
        <time>2011-05-22T08:34:46Z</time>
      </trkpt>
      <trkpt lat="43.79208" lon="7.08982">
        <ele>903.719912</ele>
        <time>2011-05-22T08:34:53Z</time>
      </trkpt>
      <trkpt lat="43.79216" lon="7.08975">
        <ele>904.729241</ele>
        <time>2011-05-22T08:34:57Z</time>
      </trkpt>
      <trkpt lat="43.79226" lon="7.08969">
        <ele>905.744753</ele>
        <time>2011-05-22T08:35:02Z</time>
      </trkpt>
      <trkpt lat="43.79234" lon="7.08962">
        <ele>906.781707</ele>
        <time>2011-05-22T08:35:09Z</time>
      </trkpt>
      <trkpt lat="43.79239" lon="7.08951">
        <ele>907.841961</ele>
        <time>2011-05-22T08:35:17Z</time>
      </trkpt>
      <trkpt lat="43.79245" lon="7.08939">
        <ele>908.834228</ele>
        <time>2011-05-22T08:35:24Z</time>
      </trkpt>
      <trkpt lat="43.7925" lon="7.08926">
        <ele>909.786956</ele>
        <time>2011-05-22T08:35:31Z</time>
      </trkpt>
      <trkpt lat="43.79256" lon="7.08915">
        <ele>910.885285</ele>
        <time>2011-05-22T08:35:37Z</time>
      </trkpt>
      <trkpt lat="43.79261" lon="7.08903">
        <ele>912.19361</ele>
        <time>2011-05-22T08:35:44Z</time>
      </trkpt>
      <trkpt lat="43.79264" lon="7.0889">
        <ele>913.566219</ele>
        <time>2011-05-22T08:35:50Z</time>
      </trkpt>
      <trkpt lat="43.79267" lon="7.08878">
        <ele>914.838606</ele>
        <time>2011-05-22T08:35:57Z</time>
      </trkpt>
      <trkpt lat="43.79271" lon="7.08864">
        <ele>916.028175</ele>
        <time>2011-05-22T08:36:03Z</time>
      </trkpt>
      <trkpt lat="43.79276" lon="7.08854">
        <ele>917.215848</ele>
        <time>2011-05-22T08:36:09Z</time>
      </trkpt>
      <trkpt lat="43.79281" lon="7.08842">
        <ele>918.374469</ele>
        <time>2011-05-22T08:36:15Z</time>
      </trkpt>
      <trkpt lat="43.79286" lon="7.0883">
        <ele>919.454055</ele>
        <time>2011-05-22T08:36:22Z</time>
      </trkpt>
      <trkpt lat="43.79292" lon="7.08819">
        <ele>920.484533</ele>
        <time>2011-05-22T08:36:28Z</time>
      </trkpt>
      <trkpt lat="43.79296" lon="7.08807">
        <ele>921.519545</ele>
        <time>2011-05-22T08:36:33Z</time>
      </trkpt>
      <trkpt lat="43.79301" lon="7.08796">
        <ele>922.596465</ele>
        <time>2011-05-22T08:36:38Z</time>
      </trkpt>
      <trkpt lat="43.79305" lon="7.08785">
        <ele>923.680227</ele>
        <time>2011-05-22T08:36:43Z</time>
      </trkpt>
      <trkpt lat="43.79308" lon="7.08772">
        <ele>924.673055</ele>
        <time>2011-05-22T08:36:49Z</time>
      </trkpt>
      <trkpt lat="43.79312" lon="7.0876">
        <ele>925.546423</ele>
        <time>2011-05-22T08:36:55Z</time>
      </trkpt>
      <trkpt lat="43.79317" lon="7.08749">
        <ele>926.36732</ele>
        <time>2011-05-22T08:37:00Z</time>
      </trkpt>
      <trkpt lat="43.79321" lon="7.08736">
        <ele>927.209243</ele>
        <time>2011-05-22T08:37:06Z</time>
      </trkpt>
      <trkpt lat="43.79325" lon="7.08723">
        <ele>928.088548</ele>
        <time>2011-05-22T08:37:12Z</time>
      </trkpt>
      <trkpt lat="43.79328" lon="7.08712">
        <ele>928.990502</ele>
        <time>2011-05-22T08:37:17Z</time>
      </trkpt>
      <trkpt lat="43.79333" lon="7.08699">
        <ele>929.968196</ele>
        <time>2011-05-22T08:37:23Z</time>
      </trkpt>
      <trkpt lat="43.79336" lon="7.08687">
        <ele>931.04847</ele>
        <time>2011-05-22T08:37:28Z</time>
      </trkpt>
      <trkpt lat="43.7934" lon="7.08674">
        <ele>932.136966</ele>
        <time>2011-05-22T08:37:34Z</time>
      </trkpt>
      <trkpt lat="43.79344" lon="7.08662">
        <ele>933.191545</ele>
        <time>2011-05-22T08:37:39Z</time>
      </trkpt>
      <trkpt lat="43.79347" lon="7.08649">
        <ele>934.247692</ele>
        <time>2011-05-22T08:37:44Z</time>
      </trkpt>
      <trkpt lat="43.79352" lon="7.08637">
        <ele>935.326595</ele>
        <time>2011-05-22T08:37:49Z</time>
      </trkpt>
      <trkpt lat="43.79357" lon="7.08626">
        <ele>936.398217</ele>
        <time>2011-05-22T08:37:54Z</time>
      </trkpt>
      <trkpt lat="43.79363" lon="7.08615">
        <ele>937.409722</ele>
        <time>2011-05-22T08:37:59Z</time>
      </trkpt>
      <trkpt lat="43.79369" lon="7.08602">
        <ele>938.372989</ele>
        <time>2011-05-22T08:38:04Z</time>
      </trkpt>
      <trkpt lat="43.79377" lon="7.08593">
        <ele>939.33556</ele>
        <time>2011-05-22T08:38:09Z</time>
      </trkpt>
      <trkpt lat="43.79385" lon="7.08584">
        <ele>940.275862</ele>
        <time>2011-05-22T08:38:14Z</time>
      </trkpt>
      <trkpt lat="43.79392" lon="7.08574">
        <ele>941.133059</ele>
        <time>2011-05-22T08:38:19Z</time>
      </trkpt>
      <trkpt lat="43.79399" lon="7.08564">
        <ele>941.865699</ele>
        <time>2011-05-22T08:38:24Z</time>
      </trkpt>
      <trkpt lat="43.79406" lon="7.08553">
        <ele>942.496186</ele>
        <time>2011-05-22T08:38:29Z</time>
      </trkpt>
      <trkpt lat="43.79414" lon="7.08543">
        <ele>943.082542</ele>
        <time>2011-05-22T08:38:33Z</time>
      </trkpt>
      <trkpt lat="43.79422" lon="7.08533">
        <ele>943.656737</ele>
        <time>2011-05-22T08:38:37Z</time>
      </trkpt>
      <trkpt lat="43.7943" lon="7.08523">
        <ele>944.222798</ele>
        <time>2011-05-22T08:38:41Z</time>
      </trkpt>
      <trkpt lat="43.79438" lon="7.08513">
        <ele>944.747041</ele>
        <time>2011-05-22T08:38:45Z</time>
      </trkpt>
      <trkpt lat="43.79446" lon="7.08504">
        <ele>945.188872</ele>
        <time>2011-05-22T08:38:49Z</time>
      </trkpt>
      <trkpt lat="43.79455" lon="7.08498">
        <ele>945.556816</ele>
        <time>2011-05-22T08:38:53Z</time>
      </trkpt>
      <trkpt lat="43.79463" lon="7.08491">
        <ele>945.880755</ele>
        <time>2011-05-22T08:38:57Z</time>
      </trkpt>
      <trkpt lat="43.79471" lon="7.08483">
        <ele>946.157012</ele>
        <time>2011-05-22T08:39:01Z</time>
      </trkpt>
      <trkpt lat="43.79479" lon="7.08474">
        <ele>946.386325</ele>
        <time>2011-05-22T08:39:05Z</time>
      </trkpt>
      <trkpt lat="43.79487" lon="7.08465">
        <ele>946.585049</ele>
        <time>2011-05-22T08:39:09Z</time>
      </trkpt>
      <trkpt lat="43.79494" lon="7.08454">
        <ele>946.760733</ele>
        <time>2011-05-22T08:39:13Z</time>
      </trkpt>
      <trkpt lat="43.79494" lon="7.08454">
        <ele>946.895401</ele>
        <time>2011-05-22T08:39:18Z</time>
      </trkpt>
      <trkpt lat="43.79494" lon="7.08454">
        <ele>946.967088</ele>
        <time>2011-05-22T08:39:51Z</time>
      </trkpt>
      <trkpt lat="43.79525" lon="7.08426">
        <ele>946.996328</ele>
        <time>2011-05-22T08:52:53Z</time>
      </trkpt>
      <trkpt lat="43.79533" lon="7.08421">
        <ele>947.044103</ele>
        <time>2011-05-22T08:52:59Z</time>
      </trkpt>
      <trkpt lat="43.79543" lon="7.08417">
        <ele>947.163077</ele>
        <time>2011-05-22T08:53:05Z</time>
      </trkpt>
      <trkpt lat="43.79551" lon="7.08411">
        <ele>947.66008</ele>
        <time>2011-05-22T08:53:10Z</time>
      </trkpt>
      <trkpt lat="43.79559" lon="7.08405">
        <ele>948.653733</ele>
        <time>2011-05-22T08:53:15Z</time>
      </trkpt>
      <trkpt lat="43.79569" lon="7.08401">
        <ele>949.609689</ele>
        <time>2011-05-22T08:53:20Z</time>
      </trkpt>
      <trkpt lat="43.7958" lon="7.084">
        <ele>950.077045</ele>
        <time>2011-05-22T08:53:25Z</time>
      </trkpt>
      <trkpt lat="43.7959" lon="7.08396">
        <ele>950.190677</ele>
        <time>2011-05-22T08:53:30Z</time>
      </trkpt>
      <trkpt lat="43.796" lon="7.08394">
        <ele>950.182345</ele>
        <time>2011-05-22T08:53:35Z</time>
      </trkpt>
      <trkpt lat="43.7961" lon="7.08391">
        <ele>950.18219</ele>
        <time>2011-05-22T08:53:40Z</time>
      </trkpt>
      <trkpt lat="43.79621" lon="7.08389">
        <ele>950.219864</ele>
        <time>2011-05-22T08:53:45Z</time>
      </trkpt>
      <trkpt lat="43.7963" lon="7.08387">
        <ele>950.286728</ele>
        <time>2011-05-22T08:53:49Z</time>
      </trkpt>
      <trkpt lat="43.79641" lon="7.08388">
        <ele>950.364769</ele>
        <time>2011-05-22T08:53:54Z</time>
      </trkpt>
      <trkpt lat="43.79651" lon="7.08388">
        <ele>950.438179</ele>
        <time>2011-05-22T08:53:58Z</time>
      </trkpt>
      <trkpt lat="43.79662" lon="7.08388">
        <ele>950.501034</ele>
        <time>2011-05-22T08:54:02Z</time>
      </trkpt>
      <trkpt lat="43.79672" lon="7.08388">
        <ele>950.564806</ele>
        <time>2011-05-22T08:54:06Z</time>
      </trkpt>
      <trkpt lat="43.79683" lon="7.08386">
        <ele>950.647681</ele>
        <time>2011-05-22T08:54:10Z</time>
      </trkpt>
      <trkpt lat="43.79694" lon="7.08384">
        <ele>950.749933</ele>
        <time>2011-05-22T08:54:14Z</time>
      </trkpt>
      <trkpt lat="43.79705" lon="7.08386">
        <ele>950.854153</ele>
        <time>2011-05-22T08:54:18Z</time>
      </trkpt>
      <trkpt lat="43.79715" lon="7.08392">
        <ele>950.955632</ele>
        <time>2011-05-22T08:54:22Z</time>
      </trkpt>
      <trkpt lat="43.79725" lon="7.08398">
        <ele>951.071813</ele>
        <time>2011-05-22T08:54:27Z</time>
      </trkpt>
      <trkpt lat="43.79732" lon="7.08406">
        <ele>951.223902</ele>
        <time>2011-05-22T08:54:35Z</time>
      </trkpt>
      <trkpt lat="43.79742" lon="7.08404">
        <ele>951.419847</ele>
        <time>2011-05-22T08:54:42Z</time>
      </trkpt>
      <trkpt lat="43.79733" lon="7.08406">
        <ele>951.667005</ele>
        <time>2011-05-22T08:55:00Z</time>
      </trkpt>
      <trkpt lat="43.79735" lon="7.08418">
        <ele>951.995384</ele>
        <time>2011-05-22T08:55:12Z</time>
      </trkpt>
      <trkpt lat="43.79739" lon="7.0843">
        <ele>952.417611</ele>
        <time>2011-05-22T08:55:27Z</time>
      </trkpt>
      <trkpt lat="43.79739" lon="7.0843">
        <ele>952.827626</ele>
        <time>2011-05-22T08:55:40Z</time>
      </trkpt>
      <trkpt lat="43.79755" lon="7.08464">
        <ele>953.211016</ele>
        <time>2011-05-22T08:56:08Z</time>
      </trkpt>
      <trkpt lat="43.79761" lon="7.08474">
        <ele>953.715814</ele>
        <time>2011-05-22T08:56:11Z</time>
      </trkpt>
      <trkpt lat="43.79769" lon="7.08483">
        <ele>954.340027</ele>
        <time>2011-05-22T08:56:14Z</time>
      </trkpt>
      <trkpt lat="43.79776" lon="7.08491">
        <ele>955.062876</ele>
        <time>2011-05-22T08:56:17Z</time>
      </trkpt>
      <trkpt lat="43.79782" lon="7.08501">
        <ele>955.859073</ele>
        <time>2011-05-22T08:56:20Z</time>
      </trkpt>
      <trkpt lat="43.79789" lon="7.08511">
        <ele>956.457086</ele>
        <time>2011-05-22T08:56:23Z</time>
      </trkpt>
      <trkpt lat="43.79794" lon="7.08523">
        <ele>956.685837</ele>
        <time>2011-05-22T08:56:26Z</time>
      </trkpt>
      <trkpt lat="43.798" lon="7.08538">
        <ele>956.687463</ele>
        <time>2011-05-22T08:56:30Z</time>
      </trkpt>
      <trkpt lat="43.79805" lon="7.08552">
        <ele>956.601835</ele>
        <time>2011-05-22T08:56:33Z</time>
      </trkpt>
      <trkpt lat="43.79805" lon="7.08566">
        <ele>956.471645</ele>
        <time>2011-05-22T08:56:36Z</time>
      </trkpt>
      <trkpt lat="43.79804" lon="7.08584">
        <ele>956.297826</ele>
        <time>2011-05-22T08:56:39Z</time>
      </trkpt>
      <trkpt lat="43.79807" lon="7.086">
        <ele>956.099898</ele>
        <time>2011-05-22T08:56:42Z</time>
      </trkpt>
      <trkpt lat="43.79814" lon="7.08616">
        <ele>955.852883</ele>
        <time>2011-05-22T08:56:45Z</time>
      </trkpt>
      <trkpt lat="43.79819" lon="7.08627">
        <ele>955.435942</ele>
        <time>2011-05-22T08:56:47Z</time>
      </trkpt>
      <trkpt lat="43.79825" lon="7.08639">
        <ele>954.815222</ele>
        <time>2011-05-22T08:56:50Z</time>
      </trkpt>
      <trkpt lat="43.79832" lon="7.08652">
        <ele>954.09333</ele>
        <time>2011-05-22T08:56:54Z</time>
      </trkpt>
      <trkpt lat="43.79837" lon="7.08663">
        <ele>953.273237</ele>
        <time>2011-05-22T08:56:58Z</time>
      </trkpt>
      <trkpt lat="43.7984" lon="7.08677">
        <ele>952.41453</ele>
        <time>2011-05-22T08:57:03Z</time>
      </trkpt>
      <trkpt lat="43.79843" lon="7.0869">
        <ele>951.751994</ele>
        <time>2011-05-22T08:57:06Z</time>
      </trkpt>
      <trkpt lat="43.79848" lon="7.08704">
        <ele>951.359756</ele>
        <time>2011-05-22T08:57:09Z</time>
      </trkpt>
      <trkpt lat="43.79852" lon="7.08717">
        <ele>951.08053</ele>
        <time>2011-05-22T08:57:12Z</time>
      </trkpt>
      <trkpt lat="43.79855" lon="7.08731">
        <ele>950.798755</ele>
        <time>2011-05-22T08:57:15Z</time>
      </trkpt>
      <trkpt lat="43.79858" lon="7.08744">
        <ele>950.383881</ele>
        <time>2011-05-22T08:57:18Z</time>
      </trkpt>
      <trkpt lat="43.79861" lon="7.0876">
        <ele>949.792939</ele>
        <time>2011-05-22T08:57:21Z</time>
      </trkpt>
      <trkpt lat="43.79865" lon="7.08775">
        <ele>949.221041</ele>
        <time>2011-05-22T08:57:24Z</time>
      </trkpt>
      <trkpt lat="43.79872" lon="7.08792">
        <ele>948.845559</ele>
        <time>2011-05-22T08:57:27Z</time>
      </trkpt>
      <trkpt lat="43.7988" lon="7.08808">
        <ele>948.599231</ele>
        <time>2011-05-22T08:57:30Z</time>
      </trkpt>
      <trkpt lat="43.79889" lon="7.08819">
        <ele>948.339952</ele>
        <time>2011-05-22T08:57:33Z</time>
      </trkpt>
      <trkpt lat="43.79897" lon="7.08832">
        <ele>947.42639</ele>
        <time>2011-05-22T08:57:36Z</time>
      </trkpt>
      <trkpt lat="43.79903" lon="7.08843">
        <ele>945.142374</ele>
        <time>2011-05-22T08:57:39Z</time>
      </trkpt>
      <trkpt lat="43.79909" lon="7.08854">
        <ele>942.051096</ele>
        <time>2011-05-22T08:57:43Z</time>
      </trkpt>
      <trkpt lat="43.79916" lon="7.08867">
        <ele>939.155964</ele>
        <time>2011-05-22T08:57:47Z</time>
      </trkpt>
      <trkpt lat="43.79922" lon="7.08878">
        <ele>936.695115</ele>
        <time>2011-05-22T08:57:50Z</time>
      </trkpt>
      <trkpt lat="43.79928" lon="7.08888">
        <ele>934.879356</ele>
        <time>2011-05-22T08:57:53Z</time>
      </trkpt>
      <trkpt lat="43.79934" lon="7.08901">
        <ele>933.91755</ele>
        <time>2011-05-22T08:57:56Z</time>
      </trkpt>
      <trkpt lat="43.79939" lon="7.08913">
        <ele>933.52836</ele>
        <time>2011-05-22T08:57:59Z</time>
      </trkpt>
      <trkpt lat="43.79942" lon="7.08925">
        <ele>933.353061</ele>
        <time>2011-05-22T08:58:02Z</time>
      </trkpt>
      <trkpt lat="43.79945" lon="7.08938">
        <ele>933.195506</ele>
        <time>2011-05-22T08:58:06Z</time>
      </trkpt>
      <trkpt lat="43.79945" lon="7.08953">
        <ele>933.00166</ele>
        <time>2011-05-22T08:58:11Z</time>
      </trkpt>
      <trkpt lat="43.79948" lon="7.08967">
        <ele>932.786919</ele>
        <time>2011-05-22T08:58:17Z</time>
      </trkpt>
      <trkpt lat="43.79956" lon="7.08977">
        <ele>932.564248</ele>
        <time>2011-05-22T08:58:22Z</time>
      </trkpt>
      <trkpt lat="43.79963" lon="7.08988">
        <ele>932.313711</ele>
        <time>2011-05-22T08:58:27Z</time>
      </trkpt>
      <trkpt lat="43.7997" lon="7.09">
        <ele>932.010838</ele>
        <time>2011-05-22T08:58:31Z</time>
      </trkpt>
      <trkpt lat="43.79976" lon="7.09013">
        <ele>931.657942</ele>
        <time>2011-05-22T08:58:35Z</time>
      </trkpt>
      <trkpt lat="43.79982" lon="7.09024">
        <ele>931.267902</ele>
        <time>2011-05-22T08:58:39Z</time>
      </trkpt>
      <trkpt lat="43.79982" lon="7.09024">
        <ele>930.859103</ele>
        <time>2011-05-22T08:58:44Z</time>
      </trkpt>
      <trkpt lat="43.79996" lon="7.09048">
        <ele>930.491494</ele>
        <time>2011-05-22T08:59:08Z</time>
      </trkpt>
      <trkpt lat="43.80002" lon="7.09064">
        <ele>930.218017</ele>
        <time>2011-05-22T08:59:11Z</time>
      </trkpt>
      <trkpt lat="43.80008" lon="7.09083">
        <ele>930.008037</ele>
        <time>2011-05-22T08:59:14Z</time>
      </trkpt>
      <trkpt lat="43.80014" lon="7.091">
        <ele>929.253071</ele>
        <time>2011-05-22T08:59:17Z</time>
      </trkpt>
      <trkpt lat="43.8002" lon="7.09121">
        <ele>926.644466</ele>
        <time>2011-05-22T08:59:20Z</time>
      </trkpt>
      <trkpt lat="43.80026" lon="7.09142">
        <ele>921.53033</ele>
        <time>2011-05-22T08:59:23Z</time>
      </trkpt>
      <trkpt lat="43.80033" lon="7.09164">
        <ele>915.139727</ele>
        <time>2011-05-22T08:59:26Z</time>
      </trkpt>
      <trkpt lat="43.80037" lon="7.09182">
        <ele>909.584137</ele>
        <time>2011-05-22T08:59:28Z</time>
      </trkpt>
      <trkpt lat="43.80045" lon="7.0921">
        <ele>906.134542</ele>
        <time>2011-05-22T08:59:31Z</time>
      </trkpt>
      <trkpt lat="43.8005" lon="7.0923">
        <ele>904.735562</ele>
        <time>2011-05-22T08:59:33Z</time>
      </trkpt>
      <trkpt lat="43.80056" lon="7.09249">
        <ele>904.586358</ele>
        <time>2011-05-22T08:59:35Z</time>
      </trkpt>
      <trkpt lat="43.80066" lon="7.09279">
        <ele>904.84717</ele>
        <time>2011-05-22T08:59:38Z</time>
      </trkpt>
      <trkpt lat="43.80071" lon="7.09297">
        <ele>905.085804</ele>
        <time>2011-05-22T08:59:40Z</time>
      </trkpt>
      <trkpt lat="43.80076" lon="7.09325">
        <ele>905.220426</ele>
        <time>2011-05-22T08:59:43Z</time>
      </trkpt>
      <trkpt lat="43.80077" lon="7.09345">
        <ele>905.274698</ele>
        <time>2011-05-22T08:59:45Z</time>
      </trkpt>
      <trkpt lat="43.80077" lon="7.09365">
        <ele>905.281048</ele>
        <time>2011-05-22T08:59:47Z</time>
      </trkpt>
      <trkpt lat="43.80074" lon="7.09395">
        <ele>905.26411</ele>
        <time>2011-05-22T08:59:50Z</time>
      </trkpt>
      <trkpt lat="43.80071" lon="7.09415">
        <ele>905.237987</ele>
        <time>2011-05-22T08:59:52Z</time>
      </trkpt>
      <trkpt lat="43.80064" lon="7.09445">
        <ele>905.157622</ele>
        <time>2011-05-22T08:59:55Z</time>
      </trkpt>
      <trkpt lat="43.8006" lon="7.09464">
        <ele>904.94228</ele>
        <time>2011-05-22T08:59:57Z</time>
      </trkpt>
      <trkpt lat="43.80051" lon="7.09484">
        <ele>904.602674</ele>
        <time>2011-05-22T09:00:00Z</time>
      </trkpt>
      <trkpt lat="43.80044" lon="7.09496">
        <ele>904.185859</ele>
        <time>2011-05-22T09:00:03Z</time>
      </trkpt>
      <trkpt lat="43.80036" lon="7.09506">
        <ele>903.678001</ele>
        <time>2011-05-22T09:00:07Z</time>
      </trkpt>
      <trkpt lat="43.80029" lon="7.09515">
        <ele>903.134298</ele>
        <time>2011-05-22T09:00:11Z</time>
      </trkpt>
      <trkpt lat="43.8002" lon="7.09524">
        <ele>902.710607</ele>
        <time>2011-05-22T09:00:15Z</time>
      </trkpt>
      <trkpt lat="43.80011" lon="7.09533">
        <ele>902.474843</ele>
        <time>2011-05-22T09:00:19Z</time>
      </trkpt>
      <trkpt lat="43.80001" lon="7.09542">
        <ele>902.334879</ele>
        <time>2011-05-22T09:00:23Z</time>
      </trkpt>
      <trkpt lat="43.79994" lon="7.09552">
        <ele>902.151553</ele>
        <time>2011-05-22T09:00:27Z</time>
      </trkpt>
      <trkpt lat="43.79987" lon="7.09565">
        <ele>901.846021</ele>
        <time>2011-05-22T09:00:31Z</time>
      </trkpt>
      <trkpt lat="43.79984" lon="7.0958">
        <ele>901.420229</ele>
        <time>2011-05-22T09:00:35Z</time>
      </trkpt>
      <trkpt lat="43.79982" lon="7.09596">
        <ele>900.924511</ele>
        <time>2011-05-22T09:00:39Z</time>
      </trkpt>
      <trkpt lat="43.79982" lon="7.09609">
        <ele>900.398085</ele>
        <time>2011-05-22T09:00:42Z</time>
      </trkpt>
      <trkpt lat="43.79981" lon="7.09622">
        <ele>899.852837</ele>
        <time>2011-05-22T09:00:45Z</time>
      </trkpt>
      <trkpt lat="43.79979" lon="7.09635">
        <ele>899.29803</ele>
        <time>2011-05-22T09:00:48Z</time>
      </trkpt>
      <trkpt lat="43.79978" lon="7.09648">
        <ele>898.774138</ele>
        <time>2011-05-22T09:00:51Z</time>
      </trkpt>
      <trkpt lat="43.79976" lon="7.09661">
        <ele>898.324988</ele>
        <time>2011-05-22T09:00:54Z</time>
      </trkpt>
      <trkpt lat="43.79974" lon="7.09677">
        <ele>897.948305</ele>
        <time>2011-05-22T09:00:58Z</time>
      </trkpt>
      <trkpt lat="43.7997" lon="7.09692">
        <ele>897.609369</ele>
        <time>2011-05-22T09:01:02Z</time>
      </trkpt>
      <trkpt lat="43.79967" lon="7.09703">
        <ele>897.280272</ele>
        <time>2011-05-22T09:01:05Z</time>
      </trkpt>
      <trkpt lat="43.79963" lon="7.09718">
        <ele>896.939991</ele>
        <time>2011-05-22T09:01:09Z</time>
      </trkpt>
      <trkpt lat="43.79959" lon="7.09732">
        <ele>896.573466</ele>
        <time>2011-05-22T09:01:13Z</time>
      </trkpt>
      <trkpt lat="43.79955" lon="7.09747">
        <ele>896.192164</ele>
        <time>2011-05-22T09:01:17Z</time>
      </trkpt>
      <trkpt lat="43.79953" lon="7.09762">
        <ele>895.808005</ele>
        <time>2011-05-22T09:01:21Z</time>
      </trkpt>
      <trkpt lat="43.79951" lon="7.09778">
        <ele>895.400127</ele>
        <time>2011-05-22T09:01:25Z</time>
      </trkpt>
      <trkpt lat="43.79949" lon="7.09794">
        <ele>894.957333</ele>
        <time>2011-05-22T09:01:29Z</time>
      </trkpt>
      <trkpt lat="43.79948" lon="7.09807">
        <ele>894.506109</ele>
        <time>2011-05-22T09:01:32Z</time>
      </trkpt>
      <trkpt lat="43.79947" lon="7.0982">
        <ele>894.073552</ele>
        <time>2011-05-22T09:01:35Z</time>
      </trkpt>
      <trkpt lat="43.79945" lon="7.09836">
        <ele>893.670037</ele>
        <time>2011-05-22T09:01:39Z</time>
      </trkpt>
      <trkpt lat="43.79944" lon="7.09852">
        <ele>893.309107</ele>
        <time>2011-05-22T09:01:43Z</time>
      </trkpt>
      <trkpt lat="43.79944" lon="7.09865">
        <ele>893.00516</ele>
        <time>2011-05-22T09:01:46Z</time>
      </trkpt>
      <trkpt lat="43.79944" lon="7.09878">
        <ele>892.731144</ele>
        <time>2011-05-22T09:01:49Z</time>
      </trkpt>
      <trkpt lat="43.79944" lon="7.09891">
        <ele>892.438283</ele>
        <time>2011-05-22T09:01:52Z</time>
      </trkpt>
      <trkpt lat="43.79945" lon="7.09904">
        <ele>892.127478</ele>
        <time>2011-05-22T09:01:55Z</time>
      </trkpt>
      <trkpt lat="43.79946" lon="7.09918">
        <ele>891.839122</ele>
        <time>2011-05-22T09:01:58Z</time>
      </trkpt>
      <trkpt lat="43.79948" lon="7.09932">
        <ele>891.592105</ele>
        <time>2011-05-22T09:02:01Z</time>
      </trkpt>
      <trkpt lat="43.79952" lon="7.09947">
        <ele>891.370285</ele>
        <time>2011-05-22T09:02:04Z</time>
      </trkpt>
      <trkpt lat="43.79954" lon="7.09961">
        <ele>891.1524</ele>
        <time>2011-05-22T09:02:07Z</time>
      </trkpt>
      <trkpt lat="43.79955" lon="7.09974">
        <ele>890.938309</ele>
        <time>2011-05-22T09:02:10Z</time>
      </trkpt>
      <trkpt lat="43.79957" lon="7.09988">
        <ele>890.746822</ele>
        <time>2011-05-22T09:02:13Z</time>
      </trkpt>
      <trkpt lat="43.79959" lon="7.10002">
        <ele>890.587047</ele>
        <time>2011-05-22T09:02:16Z</time>
      </trkpt>
      <trkpt lat="43.79962" lon="7.10016">
        <ele>890.44802</ele>
        <time>2011-05-22T09:02:19Z</time>
      </trkpt>
      <trkpt lat="43.79965" lon="7.1003">
        <ele>890.314047</ele>
        <time>2011-05-22T09:02:22Z</time>
      </trkpt>
      <trkpt lat="43.79967" lon="7.10044">
        <ele>890.180799</ele>
        <time>2011-05-22T09:02:25Z</time>
      </trkpt>
      <trkpt lat="43.7997" lon="7.10058">
        <ele>890.053442</ele>
        <time>2011-05-22T09:02:28Z</time>
      </trkpt>
      <trkpt lat="43.79973" lon="7.10072">
        <ele>889.939414</ele>
        <time>2011-05-22T09:02:31Z</time>
      </trkpt>
      <trkpt lat="43.79975" lon="7.10085">
        <ele>889.844843</ele>
        <time>2011-05-22T09:02:34Z</time>
      </trkpt>
      <trkpt lat="43.79978" lon="7.10098">
        <ele>889.778152</ele>
        <time>2011-05-22T09:02:37Z</time>
      </trkpt>
      <trkpt lat="43.7998" lon="7.10111">
        <ele>889.745004</ele>
        <time>2011-05-22T09:02:40Z</time>
      </trkpt>
      <trkpt lat="43.79982" lon="7.10125">
        <ele>889.737077</ele>
        <time>2011-05-22T09:02:43Z</time>
      </trkpt>
      <trkpt lat="43.79983" lon="7.10139">
        <ele>889.73606</ele>
        <time>2011-05-22T09:02:46Z</time>
      </trkpt>
      <trkpt lat="43.79985" lon="7.10152">
        <ele>889.73198</ele>
        <time>2011-05-22T09:02:49Z</time>
      </trkpt>
      <trkpt lat="43.79986" lon="7.10167">
        <ele>889.720679</ele>
        <time>2011-05-22T09:02:52Z</time>
      </trkpt>
      <trkpt lat="43.79988" lon="7.10182">
        <ele>889.694151</ele>
        <time>2011-05-22T09:02:55Z</time>
      </trkpt>
      <trkpt lat="43.7999" lon="7.10198">
        <ele>889.645194</ele>
        <time>2011-05-22T09:02:58Z</time>
      </trkpt>
      <trkpt lat="43.79993" lon="7.10212">
        <ele>889.576735</ele>
        <time>2011-05-22T09:03:01Z</time>
      </trkpt>
      <trkpt lat="43.79995" lon="7.10226">
        <ele>889.503397</ele>
        <time>2011-05-22T09:03:04Z</time>
      </trkpt>
      <trkpt lat="43.79998" lon="7.1024">
        <ele>889.440884</ele>
        <time>2011-05-22T09:03:07Z</time>
      </trkpt>
      <trkpt lat="43.80001" lon="7.10255">
        <ele>889.390528</ele>
        <time>2011-05-22T09:03:10Z</time>
      </trkpt>
      <trkpt lat="43.80003" lon="7.10269">
        <ele>889.337628</ele>
        <time>2011-05-22T09:03:13Z</time>
      </trkpt>
      <trkpt lat="43.80005" lon="7.10283">
        <ele>889.262112</ele>
        <time>2011-05-22T09:03:16Z</time>
      </trkpt>
      <trkpt lat="43.80006" lon="7.10297">
        <ele>889.148056</ele>
        <time>2011-05-22T09:03:19Z</time>
      </trkpt>
      <trkpt lat="43.80006" lon="7.10311">
        <ele>888.992866</ele>
        <time>2011-05-22T09:03:22Z</time>
      </trkpt>
      <trkpt lat="43.80006" lon="7.10325">
        <ele>888.816163</ele>
        <time>2011-05-22T09:03:25Z</time>
      </trkpt>
      <trkpt lat="43.80002" lon="7.10339">
        <ele>888.65483</ele>
        <time>2011-05-22T09:03:28Z</time>
      </trkpt>
      <trkpt lat="43.79997" lon="7.1035">
        <ele>888.53579</ele>
        <time>2011-05-22T09:03:31Z</time>
      </trkpt>
      <trkpt lat="43.79988" lon="7.10356">
        <ele>888.454472</ele>
        <time>2011-05-22T09:03:34Z</time>
      </trkpt>
      <trkpt lat="43.7998" lon="7.1036">
        <ele>888.394121</ele>
        <time>2011-05-22T09:03:37Z</time>
      </trkpt>
      <trkpt lat="43.7997" lon="7.10362">
        <ele>888.352991</ele>
        <time>2011-05-22T09:03:40Z</time>
      </trkpt>
      <trkpt lat="43.79961" lon="7.10363">
        <ele>888.334973</ele>
        <time>2011-05-22T09:03:43Z</time>
      </trkpt>
      <trkpt lat="43.79951" lon="7.10365">
        <ele>888.333143</ele>
        <time>2011-05-22T09:03:46Z</time>
      </trkpt>
      <trkpt lat="43.79942" lon="7.10369">
        <ele>888.338748</ele>
        <time>2011-05-22T09:03:49Z</time>
      </trkpt>
      <trkpt lat="43.79933" lon="7.10372">
        <ele>888.350431</ele>
        <time>2011-05-22T09:03:52Z</time>
      </trkpt>
      <trkpt lat="43.79924" lon="7.10375">
        <ele>888.369497</ele>
        <time>2011-05-22T09:03:55Z</time>
      </trkpt>
      <trkpt lat="43.79915" lon="7.10377">
        <ele>888.391729</ele>
        <time>2011-05-22T09:03:58Z</time>
      </trkpt>
      <trkpt lat="43.79907" lon="7.10385">
        <ele>888.410856</ele>
        <time>2011-05-22T09:04:01Z</time>
      </trkpt>
      <trkpt lat="43.79906" lon="7.10398">
        <ele>888.427097</ele>
        <time>2011-05-22T09:04:04Z</time>
      </trkpt>
      <trkpt lat="43.79912" lon="7.10411">
        <ele>888.446037</ele>
        <time>2011-05-22T09:04:08Z</time>
      </trkpt>
      <trkpt lat="43.79921" lon="7.10419">
        <ele>888.472774</ele>
        <time>2011-05-22T09:04:11Z</time>
      </trkpt>
      <trkpt lat="43.79932" lon="7.10426">
        <ele>888.504083</ele>
        <time>2011-05-22T09:04:14Z</time>
      </trkpt>
      <trkpt lat="43.79942" lon="7.10432">
        <ele>888.53284</ele>
        <time>2011-05-22T09:04:17Z</time>
      </trkpt>
      <trkpt lat="43.79951" lon="7.1044">
        <ele>888.566859</ele>
        <time>2011-05-22T09:04:20Z</time>
      </trkpt>
      <trkpt lat="43.7996" lon="7.10451">
        <ele>888.624368</ele>
        <time>2011-05-22T09:04:23Z</time>
      </trkpt>
      <trkpt lat="43.79968" lon="7.10461">
        <ele>888.710262</ele>
        <time>2011-05-22T09:04:26Z</time>
      </trkpt>
      <trkpt lat="43.79975" lon="7.10472">
        <ele>888.815172</ele>
        <time>2011-05-22T09:04:29Z</time>
      </trkpt>
      <trkpt lat="43.79981" lon="7.10484">
        <ele>888.92802</ele>
        <time>2011-05-22T09:04:32Z</time>
      </trkpt>
      <trkpt lat="43.79987" lon="7.10497">
        <ele>889.040919</ele>
        <time>2011-05-22T09:04:35Z</time>
      </trkpt>
      <trkpt lat="43.79991" lon="7.10512">
        <ele>889.148656</ele>
        <time>2011-05-22T09:04:38Z</time>
      </trkpt>
      <trkpt lat="43.79992" lon="7.10527">
        <ele>889.247281</ele>
        <time>2011-05-22T09:04:41Z</time>
      </trkpt>
      <trkpt lat="43.79993" lon="7.10542">
        <ele>889.335578</ele>
        <time>2011-05-22T09:04:44Z</time>
      </trkpt>
      <trkpt lat="43.79993" lon="7.10558">
        <ele>889.475142</ele>
        <time>2011-05-22T09:04:47Z</time>
      </trkpt>
      <trkpt lat="43.79993" lon="7.10574">
        <ele>889.705692</ele>
        <time>2011-05-22T09:04:50Z</time>
      </trkpt>
      <trkpt lat="43.79992" lon="7.10589">
        <ele>889.942446</ele>
        <time>2011-05-22T09:04:53Z</time>
      </trkpt>
      <trkpt lat="43.79991" lon="7.10604">
        <ele>890.159751</ele>
        <time>2011-05-22T09:04:56Z</time>
      </trkpt>
      <trkpt lat="43.7999" lon="7.10618">
        <ele>890.471667</ele>
        <time>2011-05-22T09:04:59Z</time>
      </trkpt>
      <trkpt lat="43.79989" lon="7.10633">
        <ele>890.86559</ele>
        <time>2011-05-22T09:05:02Z</time>
      </trkpt>
      <trkpt lat="43.79989" lon="7.10648">
        <ele>891.186348</ele>
        <time>2011-05-22T09:05:05Z</time>
      </trkpt>
      <trkpt lat="43.7999" lon="7.10663">
        <ele>891.36608</ele>
        <time>2011-05-22T09:05:08Z</time>
      </trkpt>
      <trkpt lat="43.79992" lon="7.10678">
        <ele>891.461507</ele>
        <time>2011-05-22T09:05:11Z</time>
      </trkpt>
      <trkpt lat="43.79993" lon="7.10694">
        <ele>891.5395</ele>
        <time>2011-05-22T09:05:14Z</time>
      </trkpt>
      <trkpt lat="43.79994" lon="7.10711">
        <ele>891.637695</ele>
        <time>2011-05-22T09:05:17Z</time>
      </trkpt>
      <trkpt lat="43.79996" lon="7.10727">
        <ele>891.766398</ele>
        <time>2011-05-22T09:05:20Z</time>
      </trkpt>
      <trkpt lat="43.79997" lon="7.10743">
        <ele>892.054113</ele>
        <time>2011-05-22T09:05:23Z</time>
      </trkpt>
      <trkpt lat="43.79998" lon="7.10759">
        <ele>892.709442</ele>
        <time>2011-05-22T09:05:26Z</time>
      </trkpt>
      <trkpt lat="43.8" lon="7.10774">
        <ele>893.677472</ele>
        <time>2011-05-22T09:05:29Z</time>
      </trkpt>
      <trkpt lat="43.80002" lon="7.10788">
        <ele>894.612975</ele>
        <time>2011-05-22T09:05:32Z</time>
      </trkpt>
      <trkpt lat="43.80003" lon="7.10803">
        <ele>895.249981</ele>
        <time>2011-05-22T09:05:35Z</time>
      </trkpt>
      <trkpt lat="43.80004" lon="7.10819">
        <ele>895.566907</ele>
        <time>2011-05-22T09:05:38Z</time>
      </trkpt>
      <trkpt lat="43.80006" lon="7.10835">
        <ele>895.678889</ele>
        <time>2011-05-22T09:05:41Z</time>
      </trkpt>
      <trkpt lat="43.80007" lon="7.10851">
        <ele>895.695793</ele>
        <time>2011-05-22T09:05:44Z</time>
      </trkpt>
      <trkpt lat="43.80009" lon="7.10868">
        <ele>895.69327</ele>
        <time>2011-05-22T09:05:47Z</time>
      </trkpt>
      <trkpt lat="43.8001" lon="7.10884">
        <ele>895.767313</ele>
        <time>2011-05-22T09:05:50Z</time>
      </trkpt>
      <trkpt lat="43.80011" lon="7.10901">
        <ele>895.989657</ele>
        <time>2011-05-22T09:05:53Z</time>
      </trkpt>
      <trkpt lat="43.80012" lon="7.10917">
        <ele>896.342925</ele>
        <time>2011-05-22T09:05:56Z</time>
      </trkpt>
      <trkpt lat="43.80013" lon="7.10932">
        <ele>896.753847</ele>
        <time>2011-05-22T09:05:59Z</time>
      </trkpt>
      <trkpt lat="43.80013" lon="7.10949">
        <ele>897.152674</ele>
        <time>2011-05-22T09:06:02Z</time>
      </trkpt>
      <trkpt lat="43.80013" lon="7.10966">
        <ele>897.471424</ele>
        <time>2011-05-22T09:06:05Z</time>
      </trkpt>
      <trkpt lat="43.80014" lon="7.10983">
        <ele>897.666496</ele>
        <time>2011-05-22T09:06:08Z</time>
      </trkpt>
      <trkpt lat="43.80015" lon="7.11">
        <ele>897.754649</ele>
        <time>2011-05-22T09:06:11Z</time>
      </trkpt>
      <trkpt lat="43.80017" lon="7.11016">
        <ele>897.800457</ele>
        <time>2011-05-22T09:06:14Z</time>
      </trkpt>
      <trkpt lat="43.80018" lon="7.11032">
        <ele>897.893189</ele>
        <time>2011-05-22T09:06:17Z</time>
      </trkpt>
      <trkpt lat="43.8002" lon="7.11048">
        <ele>898.146126</ele>
        <time>2011-05-22T09:06:20Z</time>
      </trkpt>
      <trkpt lat="43.80022" lon="7.11065">
        <ele>898.582466</ele>
        <time>2011-05-22T09:06:23Z</time>
      </trkpt>
      <trkpt lat="43.80025" lon="7.11083">
        <ele>899.034611</ele>
        <time>2011-05-22T09:06:26Z</time>
      </trkpt>
      <trkpt lat="43.80027" lon="7.11099">
        <ele>899.30997</ele>
        <time>2011-05-22T09:06:29Z</time>
      </trkpt>
      <trkpt lat="43.80028" lon="7.11117">
        <ele>899.388206</ele>
        <time>2011-05-22T09:06:32Z</time>
      </trkpt>
      <trkpt lat="43.80029" lon="7.11133">
        <ele>899.35318</ele>
        <time>2011-05-22T09:06:35Z</time>
      </trkpt>
      <trkpt lat="43.80032" lon="7.11149">
        <ele>899.271837</ele>
        <time>2011-05-22T09:06:38Z</time>
      </trkpt>
      <trkpt lat="43.80034" lon="7.11164">
        <ele>899.197501</ele>
        <time>2011-05-22T09:06:41Z</time>
      </trkpt>
      <trkpt lat="43.80036" lon="7.1118">
        <ele>899.160595</ele>
        <time>2011-05-22T09:06:44Z</time>
      </trkpt>
      <trkpt lat="43.80037" lon="7.11196">
        <ele>899.154024</ele>
        <time>2011-05-22T09:06:47Z</time>
      </trkpt>
      <trkpt lat="43.80039" lon="7.11212">
        <ele>899.195179</ele>
        <time>2011-05-22T09:06:50Z</time>
      </trkpt>
      <trkpt lat="43.80043" lon="7.11228">
        <ele>899.360055</ele>
        <time>2011-05-22T09:06:53Z</time>
      </trkpt>
      <trkpt lat="43.80048" lon="7.11243">
        <ele>899.708023</ele>
        <time>2011-05-22T09:06:56Z</time>
      </trkpt>
      <trkpt lat="43.80054" lon="7.11256">
        <ele>900.204685</ele>
        <time>2011-05-22T09:06:59Z</time>
      </trkpt>
      <trkpt lat="43.80061" lon="7.11269">
        <ele>900.753947</ele>
        <time>2011-05-22T09:07:02Z</time>
      </trkpt>
      <trkpt lat="43.80066" lon="7.11281">
        <ele>901.295432</ele>
        <time>2011-05-22T09:07:05Z</time>
      </trkpt>
      <trkpt lat="43.80072" lon="7.11292">
        <ele>901.784714</ele>
        <time>2011-05-22T09:07:09Z</time>
      </trkpt>
      <trkpt lat="43.80072" lon="7.11292">
        <ele>902.128387</ele>
        <time>2011-05-22T09:07:13Z</time>
      </trkpt>
      <trkpt lat="43.80054" lon="7.11326">
        <ele>902.276481</ele>
        <time>2011-05-22T09:07:34Z</time>
      </trkpt>
      <trkpt lat="43.80048" lon="7.11337">
        <ele>902.293422</ele>
        <time>2011-05-22T09:07:40Z</time>
      </trkpt>
      <trkpt lat="43.80045" lon="7.1135">
        <ele>902.265855</ele>
        <time>2011-05-22T09:07:45Z</time>
      </trkpt>
      <trkpt lat="43.80038" lon="7.11362">
        <ele>902.202963</ele>
        <time>2011-05-22T09:07:51Z</time>
      </trkpt>
      <trkpt lat="43.80031" lon="7.11371">
        <ele>902.050408</ele>
        <time>2011-05-22T09:07:56Z</time>
      </trkpt>
      <trkpt lat="43.80024" lon="7.1138">
        <ele>901.791896</ele>
        <time>2011-05-22T09:08:01Z</time>
      </trkpt>
      <trkpt lat="43.80017" lon="7.1139">
        <ele>901.517432</ele>
        <time>2011-05-22T09:08:06Z</time>
      </trkpt>
      <trkpt lat="43.80011" lon="7.11399">
        <ele>901.316725</ele>
        <time>2011-05-22T09:08:11Z</time>
      </trkpt>
      <trkpt lat="43.80003" lon="7.11407">
        <ele>901.181593</ele>
        <time>2011-05-22T09:08:17Z</time>
      </trkpt>
      <trkpt lat="43.79994" lon="7.11413">
        <ele>901.07337</ele>
        <time>2011-05-22T09:08:23Z</time>
      </trkpt>
      <trkpt lat="43.79994" lon="7.11413">
        <ele>900.995312</ele>
        <time>2011-05-22T09:08:34Z</time>
      </trkpt>
      <trkpt lat="43.79994" lon="7.11413">
        <ele>900.948728</ele>
        <time>2011-05-22T09:08:53Z</time>
      </trkpt>
      <trkpt lat="43.79971" lon="7.11435">
        <ele>900.923825</ele>
        <time>2011-05-22T09:09:16Z</time>
      </trkpt>
      <trkpt lat="43.79962" lon="7.11435">
        <ele>900.913134</ele>
        <time>2011-05-22T09:09:30Z</time>
      </trkpt>
      <trkpt lat="43.79952" lon="7.11439">
        <ele>900.917427</ele>
        <time>2011-05-22T09:09:37Z</time>
      </trkpt>
      <trkpt lat="43.79943" lon="7.11443">
        <ele>901.143379</ele>
        <time>2011-05-22T09:09:44Z</time>
      </trkpt>
      <trkpt lat="43.79933" lon="7.11445">
        <ele>901.798629</ele>
        <time>2011-05-22T09:09:50Z</time>
      </trkpt>
      <trkpt lat="43.79923" lon="7.1145">
        <ele>902.715467</ele>
        <time>2011-05-22T09:09:56Z</time>
      </trkpt>
      <trkpt lat="43.79914" lon="7.11456">
        <ele>903.612333</ele>
        <time>2011-05-22T09:10:02Z</time>
      </trkpt>
      <trkpt lat="43.79905" lon="7.11462">
        <ele>904.413433</ele>
        <time>2011-05-22T09:10:09Z</time>
      </trkpt>
      <trkpt lat="43.79896" lon="7.11466">
        <ele>905.125492</ele>
        <time>2011-05-22T09:10:17Z</time>
      </trkpt>
      <trkpt lat="43.79887" lon="7.11468">
        <ele>905.801988</ele>
        <time>2011-05-22T09:10:27Z</time>
      </trkpt>
      <trkpt lat="43.79878" lon="7.11473">
        <ele>906.522692</ele>
        <time>2011-05-22T09:10:35Z</time>
      </trkpt>
      <trkpt lat="43.79868" lon="7.11474">
        <ele>907.372681</ele>
        <time>2011-05-22T09:10:40Z</time>
      </trkpt>
      <trkpt lat="43.79858" lon="7.11476">
        <ele>908.420271</ele>
        <time>2011-05-22T09:10:46Z</time>
      </trkpt>
      <trkpt lat="43.79849" lon="7.1148">
        <ele>909.639684</ele>
        <time>2011-05-22T09:10:52Z</time>
      </trkpt>
      <trkpt lat="43.79839" lon="7.11481">
        <ele>910.865604</ele>
        <time>2011-05-22T09:10:58Z</time>
      </trkpt>
      <trkpt lat="43.79829" lon="7.11482">
        <ele>911.958901</ele>
        <time>2011-05-22T09:11:04Z</time>
      </trkpt>
      <trkpt lat="43.79819" lon="7.11484">
        <ele>912.94202</ele>
        <time>2011-05-22T09:11:10Z</time>
      </trkpt>
      <trkpt lat="43.7981" lon="7.1149">
        <ele>913.881663</ele>
        <time>2011-05-22T09:11:17Z</time>
      </trkpt>
      <trkpt lat="43.79801" lon="7.11493">
        <ele>914.785707</ele>
        <time>2011-05-22T09:11:23Z</time>
      </trkpt>
      <trkpt lat="43.79792" lon="7.11498">
        <ele>915.63861</ele>
        <time>2011-05-22T09:11:30Z</time>
      </trkpt>
      <trkpt lat="43.79783" lon="7.11498">
        <ele>916.463489</ele>
        <time>2011-05-22T09:11:38Z</time>
      </trkpt>
      <trkpt lat="43.79775" lon="7.11505">
        <ele>917.277761</ele>
        <time>2011-05-22T09:11:50Z</time>
      </trkpt>
      <trkpt lat="43.79781" lon="7.11515">
        <ele>918.079329</ele>
        <time>2011-05-22T09:12:05Z</time>
      </trkpt>
      <trkpt lat="43.79781" lon="7.11515">
        <ele>918.779428</ele>
        <time>2011-05-22T09:12:13Z</time>
      </trkpt>
      <trkpt lat="43.79781" lon="7.11515">
        <ele>919.20755</ele>
        <time>2011-05-22T09:12:35Z</time>
      </trkpt>
      <trkpt lat="43.79756" lon="7.11515">
        <ele>919.501847</ele>
        <time>2011-05-22T09:12:52Z</time>
      </trkpt>
      <trkpt lat="43.79747" lon="7.11511">
        <ele>920.156505</ele>
        <time>2011-05-22T09:12:59Z</time>
      </trkpt>
      <trkpt lat="43.79737" lon="7.11511">
        <ele>921.408488</ele>
        <time>2011-05-22T09:13:06Z</time>
      </trkpt>
      <trkpt lat="43.79728" lon="7.11507">
        <ele>923.582352</ele>
        <time>2011-05-22T09:13:14Z</time>
      </trkpt>
      <trkpt lat="43.79719" lon="7.11505">
        <ele>926.61165</ele>
        <time>2011-05-22T09:13:25Z</time>
      </trkpt>
      <trkpt lat="43.79709" lon="7.11505">
        <ele>929.380892</ele>
        <time>2011-05-22T09:13:30Z</time>
      </trkpt>
      <trkpt lat="43.79699" lon="7.11501">
        <ele>931.098074</ele>
        <time>2011-05-22T09:13:36Z</time>
      </trkpt>
      <trkpt lat="43.79689" lon="7.11499">
        <ele>932.155738</ele>
        <time>2011-05-22T09:13:42Z</time>
      </trkpt>
      <trkpt lat="43.7968" lon="7.11495">
        <ele>932.997928</ele>
        <time>2011-05-22T09:13:49Z</time>
      </trkpt>
      <trkpt lat="43.79671" lon="7.11488">
        <ele>933.737149</ele>
        <time>2011-05-22T09:13:55Z</time>
      </trkpt>
      <trkpt lat="43.79661" lon="7.11486">
        <ele>934.389239</ele>
        <time>2011-05-22T09:14:02Z</time>
      </trkpt>
      <trkpt lat="43.79651" lon="7.11482">
        <ele>935.047859</ele>
        <time>2011-05-22T09:14:09Z</time>
      </trkpt>
      <trkpt lat="43.79641" lon="7.11478">
        <ele>935.794802</ele>
        <time>2011-05-22T09:14:16Z</time>
      </trkpt>
      <trkpt lat="43.79631" lon="7.11476">
        <ele>936.671521</ele>
        <time>2011-05-22T09:14:23Z</time>
      </trkpt>
      <trkpt lat="43.79622" lon="7.11473">
        <ele>937.684066</ele>
        <time>2011-05-22T09:14:30Z</time>
      </trkpt>
      <trkpt lat="43.79622" lon="7.11473">
        <ele>938.639973</ele>
        <time>2011-05-22T09:14:38Z</time>
      </trkpt>
      <trkpt lat="43.79633" lon="7.11505">
        <ele>939.380175</ele>
        <time>2011-05-22T09:14:58Z</time>
      </trkpt>
      <trkpt lat="43.79637" lon="7.11518">
        <ele>940.091114</ele>
        <time>2011-05-22T09:15:05Z</time>
      </trkpt>
      <trkpt lat="43.79637" lon="7.11518">
        <ele>940.830681</ele>
        <time>2011-05-22T09:15:18Z</time>
      </trkpt>
      <trkpt lat="43.79644" lon="7.11561">
        <ele>941.460114</ele>
        <time>2011-05-22T09:15:52Z</time>
      </trkpt>
      <trkpt lat="43.7965" lon="7.1157">
        <ele>942.478448</ele>
        <time>2011-05-22T09:16:01Z</time>
      </trkpt>
      <trkpt lat="43.79655" lon="7.11581">
        <ele>944.262187</ele>
        <time>2011-05-22T09:16:14Z</time>
      </trkpt>
      <trkpt lat="43.79659" lon="7.11593">
        <ele>946.559693</ele>
        <time>2011-05-22T09:16:26Z</time>
      </trkpt>
      <trkpt lat="43.79664" lon="7.11604">
        <ele>948.934459</ele>
        <time>2011-05-22T09:16:36Z</time>
      </trkpt>
      <trkpt lat="43.79669" lon="7.11615">
        <ele>950.906791</ele>
        <time>2011-05-22T09:16:50Z</time>
      </trkpt>
      <trkpt lat="43.79669" lon="7.11615">
        <ele>952.115629</ele>
        <time>2011-05-22T09:16:55Z</time>
      </trkpt>
      <trkpt lat="43.79688" lon="7.11644">
        <ele>952.789555</ele>
        <time>2011-05-22T09:17:28Z</time>
      </trkpt>
      <trkpt lat="43.79695" lon="7.11654">
        <ele>953.34512</ele>
        <time>2011-05-22T09:17:36Z</time>
      </trkpt>
      <trkpt lat="43.79701" lon="7.11665">
        <ele>954.082788</ele>
        <time>2011-05-22T09:17:43Z</time>
      </trkpt>
      <trkpt lat="43.79707" lon="7.11676">
        <ele>955.281302</ele>
        <time>2011-05-22T09:17:49Z</time>
      </trkpt>
      <trkpt lat="43.7971" lon="7.11687">
        <ele>957.00003</ele>
        <time>2011-05-22T09:17:55Z</time>
      </trkpt>
      <trkpt lat="43.79712" lon="7.117">
        <ele>958.726596</ele>
        <time>2011-05-22T09:18:01Z</time>
      </trkpt>
      <trkpt lat="43.79713" lon="7.11714">
        <ele>960.039163</ele>
        <time>2011-05-22T09:18:07Z</time>
      </trkpt>
      <trkpt lat="43.79715" lon="7.11729">
        <ele>961.009497</ele>
        <time>2011-05-22T09:18:12Z</time>
      </trkpt>
      <trkpt lat="43.79713" lon="7.11742">
        <ele>961.809967</ele>
        <time>2011-05-22T09:18:17Z</time>
      </trkpt>
      <trkpt lat="43.79712" lon="7.11756">
        <ele>962.540976</ele>
        <time>2011-05-22T09:18:22Z</time>
      </trkpt>
      <trkpt lat="43.79711" lon="7.1177">
        <ele>963.221301</ele>
        <time>2011-05-22T09:18:27Z</time>
      </trkpt>
      <trkpt lat="43.79707" lon="7.11783">
        <ele>963.865458</ele>
        <time>2011-05-22T09:18:32Z</time>
      </trkpt>
      <trkpt lat="43.79701" lon="7.11794">
        <ele>964.512937</ele>
        <time>2011-05-22T09:18:37Z</time>
      </trkpt>
      <trkpt lat="43.79694" lon="7.11803">
        <ele>965.197371</ele>
        <time>2011-05-22T09:18:42Z</time>
      </trkpt>
      <trkpt lat="43.79687" lon="7.11812">
        <ele>965.925033</ele>
        <time>2011-05-22T09:18:47Z</time>
      </trkpt>
      <trkpt lat="43.79685" lon="7.11826">
        <ele>966.683551</ele>
        <time>2011-05-22T09:18:53Z</time>
      </trkpt>
      <trkpt lat="43.79686" lon="7.11838">
        <ele>967.465074</ele>
        <time>2011-05-22T09:18:58Z</time>
      </trkpt>
      <trkpt lat="43.79685" lon="7.11853">
        <ele>968.270615</ele>
        <time>2011-05-22T09:19:05Z</time>
      </trkpt>
      <trkpt lat="43.79684" lon="7.11866">
        <ele>969.114487</ele>
        <time>2011-05-22T09:19:11Z</time>
      </trkpt>
      <trkpt lat="43.79681" lon="7.11879">
        <ele>969.989796</ele>
        <time>2011-05-22T09:19:16Z</time>
      </trkpt>
      <trkpt lat="43.79679" lon="7.11892">
        <ele>970.884906</ele>
        <time>2011-05-22T09:19:21Z</time>
      </trkpt>
      <trkpt lat="43.79678" lon="7.11905">
        <ele>971.803865</ele>
        <time>2011-05-22T09:19:26Z</time>
      </trkpt>
      <trkpt lat="43.79676" lon="7.11918">
        <ele>972.708216</ele>
        <time>2011-05-22T09:19:30Z</time>
      </trkpt>
      <trkpt lat="43.79675" lon="7.11933">
        <ele>973.53546</ele>
        <time>2011-05-22T09:19:36Z</time>
      </trkpt>
      <trkpt lat="43.79672" lon="7.11948">
        <ele>974.286631</ele>
        <time>2011-05-22T09:19:41Z</time>
      </trkpt>
      <trkpt lat="43.79668" lon="7.11961">
        <ele>974.953178</ele>
        <time>2011-05-22T09:19:46Z</time>
      </trkpt>
      <trkpt lat="43.79663" lon="7.11974">
        <ele>975.55148</ele>
        <time>2011-05-22T09:19:51Z</time>
      </trkpt>
      <trkpt lat="43.79659" lon="7.11986">
        <ele>976.17557</ele>
        <time>2011-05-22T09:19:55Z</time>
      </trkpt>
      <trkpt lat="43.79656" lon="7.12">
        <ele>976.882088</ele>
        <time>2011-05-22T09:20:00Z</time>
      </trkpt>
      <trkpt lat="43.79647" lon="7.12008">
        <ele>977.639585</ele>
        <time>2011-05-22T09:20:05Z</time>
      </trkpt>
      <trkpt lat="43.79641" lon="7.12018">
        <ele>978.386327</ele>
        <time>2011-05-22T09:20:09Z</time>
      </trkpt>
      <trkpt lat="43.79633" lon="7.12028">
        <ele>979.077949</ele>
        <time>2011-05-22T09:20:14Z</time>
      </trkpt>
      <trkpt lat="43.79625" lon="7.12034">
        <ele>979.719925</ele>
        <time>2011-05-22T09:20:18Z</time>
      </trkpt>
      <trkpt lat="43.79616" lon="7.12044">
        <ele>980.32782</ele>
        <time>2011-05-22T09:20:22Z</time>
      </trkpt>
      <trkpt lat="43.7961" lon="7.12057">
        <ele>980.933481</ele>
        <time>2011-05-22T09:20:26Z</time>
      </trkpt>
      <trkpt lat="43.79608" lon="7.1207">
        <ele>981.565702</ele>
        <time>2011-05-22T09:20:30Z</time>
      </trkpt>
      <trkpt lat="43.79607" lon="7.12084">
        <ele>982.194458</ele>
        <time>2011-05-22T09:20:35Z</time>
      </trkpt>
      <trkpt lat="43.79605" lon="7.12098">
        <ele>982.787296</ele>
        <time>2011-05-22T09:20:40Z</time>
      </trkpt>
      <trkpt lat="43.79602" lon="7.1211">
        <ele>983.354104</ele>
        <time>2011-05-22T09:20:45Z</time>
      </trkpt>
      <trkpt lat="43.79598" lon="7.12123">
        <ele>983.930227</ele>
        <time>2011-05-22T09:20:50Z</time>
      </trkpt>
      <trkpt lat="43.79592" lon="7.12135">
        <ele>984.551513</ele>
        <time>2011-05-22T09:20:55Z</time>
      </trkpt>
      <trkpt lat="43.79587" lon="7.12146">
        <ele>985.218131</ele>
        <time>2011-05-22T09:20:59Z</time>
      </trkpt>
      <trkpt lat="43.79582" lon="7.12158">
        <ele>985.899518</ele>
        <time>2011-05-22T09:21:03Z</time>
      </trkpt>
      <trkpt lat="43.79576" lon="7.12169">
        <ele>986.54874</ele>
        <time>2011-05-22T09:21:07Z</time>
      </trkpt>
      <trkpt lat="43.79569" lon="7.12179">
        <ele>987.115248</ele>
        <time>2011-05-22T09:21:12Z</time>
      </trkpt>
      <trkpt lat="43.79565" lon="7.12192">
        <ele>987.588309</ele>
        <time>2011-05-22T09:21:17Z</time>
      </trkpt>
      <trkpt lat="43.79563" lon="7.12204">
        <ele>988.005706</ele>
        <time>2011-05-22T09:21:21Z</time>
      </trkpt>
      <trkpt lat="43.79563" lon="7.12217">
        <ele>988.425112</ele>
        <time>2011-05-22T09:21:26Z</time>
      </trkpt>
      <trkpt lat="43.79564" lon="7.12231">
        <ele>988.870006</ele>
        <time>2011-05-22T09:21:32Z</time>
      </trkpt>
      <trkpt lat="43.79569" lon="7.12243">
        <ele>989.313719</ele>
        <time>2011-05-22T09:21:38Z</time>
      </trkpt>
      <trkpt lat="43.79576" lon="7.12254">
        <ele>989.756414</ele>
        <time>2011-05-22T09:21:44Z</time>
      </trkpt>
      <trkpt lat="43.7958" lon="7.12267">
        <ele>990.265193</ele>
        <time>2011-05-22T09:21:50Z</time>
      </trkpt>
      <trkpt lat="43.79583" lon="7.12279">
        <ele>990.895747</ele>
        <time>2011-05-22T09:21:55Z</time>
      </trkpt>
      <trkpt lat="43.79583" lon="7.12294">
        <ele>991.641133</ele>
        <time>2011-05-22T09:22:00Z</time>
      </trkpt>
      <trkpt lat="43.7958" lon="7.12308">
        <ele>992.463253</ele>
        <time>2011-05-22T09:22:04Z</time>
      </trkpt>
      <trkpt lat="43.79578" lon="7.1232">
        <ele>993.31021</ele>
        <time>2011-05-22T09:22:08Z</time>
      </trkpt>
      <trkpt lat="43.79575" lon="7.12335">
        <ele>994.127648</ele>
        <time>2011-05-22T09:22:13Z</time>
      </trkpt>
      <trkpt lat="43.7957" lon="7.12347">
        <ele>994.882194</ele>
        <time>2011-05-22T09:22:18Z</time>
      </trkpt>
      <trkpt lat="43.79567" lon="7.12362">
        <ele>995.566427</ele>
        <time>2011-05-22T09:22:23Z</time>
      </trkpt>
      <trkpt lat="43.79567" lon="7.12377">
        <ele>996.221605</ele>
        <time>2011-05-22T09:22:28Z</time>
      </trkpt>
      <trkpt lat="43.79567" lon="7.1239">
        <ele>996.914165</ele>
        <time>2011-05-22T09:22:32Z</time>
      </trkpt>
      <trkpt lat="43.79567" lon="7.12403">
        <ele>997.656599</ele>
        <time>2011-05-22T09:22:35Z</time>
      </trkpt>
      <trkpt lat="43.79567" lon="7.12419">
        <ele>998.416297</ele>
        <time>2011-05-22T09:22:38Z</time>
      </trkpt>
      <trkpt lat="43.79559" lon="7.12433">
        <ele>999.149157</ele>
        <time>2011-05-22T09:22:41Z</time>
      </trkpt>
      <trkpt lat="43.7955" lon="7.12438">
        <ele>999.798886</ele>
        <time>2011-05-22T09:22:43Z</time>
      </trkpt>
      <trkpt lat="43.79538" lon="7.12448">
        <ele>1000.52487</ele>
        <time>2011-05-22T09:22:46Z</time>
      </trkpt>
      <trkpt lat="43.7953" lon="7.12462">
        <ele>1001.806929</ele>
        <time>2011-05-22T09:22:48Z</time>
      </trkpt>
      <trkpt lat="43.79526" lon="7.12475">
        <ele>1003.712082</ele>
        <time>2011-05-22T09:22:50Z</time>
      </trkpt>
      <trkpt lat="43.7952" lon="7.1249">
        <ele>1005.637634</ele>
        <time>2011-05-22T09:22:53Z</time>
      </trkpt>
      <trkpt lat="43.79514" lon="7.12504">
        <ele>1007.062534</ele>
        <time>2011-05-22T09:22:56Z</time>
      </trkpt>
      <trkpt lat="43.79507" lon="7.12518">
        <ele>1007.900919</ele>
        <time>2011-05-22T09:22:59Z</time>
      </trkpt>
      <trkpt lat="43.79501" lon="7.1253">
        <ele>1008.310636</ele>
        <time>2011-05-22T09:23:02Z</time>
      </trkpt>
      <trkpt lat="43.79495" lon="7.1254">
        <ele>1008.542145</ele>
        <time>2011-05-22T09:23:06Z</time>
      </trkpt>
      <trkpt lat="43.79491" lon="7.12554">
        <ele>1008.731405</ele>
        <time>2011-05-22T09:23:11Z</time>
      </trkpt>
      <trkpt lat="43.79492" lon="7.12567">
        <ele>1008.889395</ele>
        <time>2011-05-22T09:23:15Z</time>
      </trkpt>
      <trkpt lat="43.79494" lon="7.12581">
        <ele>1008.996519</ele>
        <time>2011-05-22T09:23:21Z</time>
      </trkpt>
      <trkpt lat="43.7949" lon="7.12593">
        <ele>1009.067526</ele>
        <time>2011-05-22T09:23:26Z</time>
      </trkpt>
      <trkpt lat="43.79482" lon="7.12601">
        <ele>1009.145238</ele>
        <time>2011-05-22T09:23:31Z</time>
      </trkpt>
      <trkpt lat="43.79473" lon="7.12604">
        <ele>1009.273839</ele>
        <time>2011-05-22T09:23:37Z</time>
      </trkpt>
      <trkpt lat="43.79463" lon="7.12604">
        <ele>1009.466971</ele>
        <time>2011-05-22T09:23:43Z</time>
      </trkpt>
      <trkpt lat="43.79454" lon="7.12608">
        <ele>1009.687836</ele>
        <time>2011-05-22T09:23:48Z</time>
      </trkpt>
      <trkpt lat="43.79446" lon="7.12617">
        <ele>1009.898447</ele>
        <time>2011-05-22T09:23:54Z</time>
      </trkpt>
      <trkpt lat="43.79436" lon="7.12623">
        <ele>1010.096464</ele>
        <time>2011-05-22T09:23:58Z</time>
      </trkpt>
      <trkpt lat="43.79426" lon="7.12627">
        <ele>1010.286701</ele>
        <time>2011-05-22T09:24:02Z</time>
      </trkpt>
      <trkpt lat="43.79416" lon="7.1263">
        <ele>1010.473546</ele>
        <time>2011-05-22T09:24:06Z</time>
      </trkpt>
      <trkpt lat="43.79406" lon="7.12634">
        <ele>1010.665809</ele>
        <time>2011-05-22T09:24:10Z</time>
      </trkpt>
      <trkpt lat="43.79396" lon="7.12638">
        <ele>1010.865853</ele>
        <time>2011-05-22T09:24:14Z</time>
      </trkpt>
      <trkpt lat="43.79388" lon="7.12645">
        <ele>1011.069592</ele>
        <time>2011-05-22T09:24:18Z</time>
      </trkpt>
      <trkpt lat="43.7938" lon="7.12655">
        <ele>1011.275205</ele>
        <time>2011-05-22T09:24:22Z</time>
      </trkpt>
      <trkpt lat="43.79373" lon="7.12667">
        <ele>1011.48723</ele>
        <time>2011-05-22T09:24:26Z</time>
      </trkpt>
      <trkpt lat="43.79369" lon="7.1268">
        <ele>1011.711447</ele>
        <time>2011-05-22T09:24:30Z</time>
      </trkpt>
      <trkpt lat="43.79363" lon="7.12693">
        <ele>1011.946597</ele>
        <time>2011-05-22T09:24:35Z</time>
      </trkpt>
      <trkpt lat="43.79359" lon="7.12704">
        <ele>1012.187651</ele>
        <time>2011-05-22T09:24:40Z</time>
      </trkpt>
      <trkpt lat="43.79354" lon="7.12715">
        <ele>1012.429415</ele>
        <time>2011-05-22T09:24:45Z</time>
      </trkpt>
      <trkpt lat="43.79344" lon="7.12719">
        <ele>1012.672284</ele>
        <time>2011-05-22T09:24:50Z</time>
      </trkpt>
      <trkpt lat="43.79335" lon="7.12717">
        <ele>1012.914367</ele>
        <time>2011-05-22T09:24:56Z</time>
      </trkpt>
      <trkpt lat="43.79324" lon="7.1272">
        <ele>1013.15012</ele>
        <time>2011-05-22T09:25:01Z</time>
      </trkpt>
      <trkpt lat="43.79315" lon="7.12729">
        <ele>1013.387082</ele>
        <time>2011-05-22T09:25:05Z</time>
      </trkpt>
      <trkpt lat="43.79307" lon="7.12735">
        <ele>1013.655394</ele>
        <time>2011-05-22T09:25:08Z</time>
      </trkpt>
      <trkpt lat="43.79299" lon="7.12742">
        <ele>1013.968009</ele>
        <time>2011-05-22T09:25:13Z</time>
      </trkpt>
      <trkpt lat="43.79299" lon="7.12742">
        <ele>1014.258224</ele>
        <time>2011-05-22T09:25:16Z</time>
      </trkpt>
      <trkpt lat="43.79299" lon="7.12742">
        <ele>1014.429924</ele>
        <time>2011-05-22T09:25:43Z</time>
      </trkpt>
      <trkpt lat="43.79295" lon="7.12766">
        <ele>1014.507603</ele>
        <time>2011-05-22T09:28:41Z</time>
      </trkpt>
      <trkpt lat="43.79294" lon="7.12779">
        <ele>1014.596622</ele>
        <time>2011-05-22T09:28:44Z</time>
      </trkpt>
      <trkpt lat="43.79292" lon="7.12794">
        <ele>1014.745483</ele>
        <time>2011-05-22T09:28:47Z</time>
      </trkpt>
      <trkpt lat="43.79291" lon="7.12809">
        <ele>1015.309253</ele>
        <time>2011-05-22T09:28:50Z</time>
      </trkpt>
      <trkpt lat="43.79289" lon="7.12824">
        <ele>1016.455134</ele>
        <time>2011-05-22T09:28:54Z</time>
      </trkpt>
      <trkpt lat="43.79286" lon="7.12836">
        <ele>1017.551084</ele>
        <time>2011-05-22T09:28:57Z</time>
      </trkpt>
      <trkpt lat="43.79284" lon="7.1285">
        <ele>1018.048715</ele>
        <time>2011-05-22T09:29:00Z</time>
      </trkpt>
      <trkpt lat="43.79282" lon="7.12866">
        <ele>1018.099439</ele>
        <time>2011-05-22T09:29:03Z</time>
      </trkpt>
      <trkpt lat="43.79282" lon="7.12884">
        <ele>1017.963106</ele>
        <time>2011-05-22T09:29:06Z</time>
      </trkpt>
      <trkpt lat="43.79275" lon="7.12895">
        <ele>1017.796159</ele>
        <time>2011-05-22T09:29:10Z</time>
      </trkpt>
      <trkpt lat="43.79265" lon="7.12888">
        <ele>1017.594327</ele>
        <time>2011-05-22T09:29:15Z</time>
      </trkpt>
      <trkpt lat="43.79255" lon="7.12885">
        <ele>1017.063205</ele>
        <time>2011-05-22T09:29:18Z</time>
      </trkpt>
      <trkpt lat="43.79245" lon="7.12888">
        <ele>1016.05519</ele>
        <time>2011-05-22T09:29:21Z</time>
      </trkpt>
      <trkpt lat="43.79235" lon="7.1289">
        <ele>1014.891572</ele>
        <time>2011-05-22T09:29:24Z</time>
      </trkpt>
      <trkpt lat="43.79227" lon="7.12897">
        <ele>1013.892268</ele>
        <time>2011-05-22T09:29:30Z</time>
      </trkpt>
      <trkpt lat="43.79236" lon="7.12903">
        <ele>1012.787633</ele>
        <time>2011-05-22T09:29:33Z</time>
      </trkpt>
      <trkpt lat="43.79245" lon="7.12911">
        <ele>1011.340414</ele>
        <time>2011-05-22T09:29:36Z</time>
      </trkpt>
      <trkpt lat="43.79248" lon="7.12923">
        <ele>1009.826222</ele>
        <time>2011-05-22T09:29:40Z</time>
      </trkpt>
      <trkpt lat="43.7924" lon="7.12932">
        <ele>1008.583203</ele>
        <time>2011-05-22T09:29:47Z</time>
      </trkpt>
      <trkpt lat="43.7924" lon="7.12932">
        <ele>1007.726237</ele>
        <time>2011-05-22T09:29:51Z</time>
      </trkpt>
      <trkpt lat="43.7923" lon="7.12954">
        <ele>1007.250848</ele>
        <time>2011-05-22T09:30:09Z</time>
      </trkpt>
      <trkpt lat="43.7923" lon="7.12969">
        <ele>1006.863416</ele>
        <time>2011-05-22T09:30:12Z</time>
      </trkpt>
      <trkpt lat="43.79234" lon="7.12985">
        <ele>1006.212596</ele>
        <time>2011-05-22T09:30:15Z</time>
      </trkpt>
      <trkpt lat="43.79237" lon="7.12998">
        <ele>1004.883345</ele>
        <time>2011-05-22T09:30:18Z</time>
      </trkpt>
      <trkpt lat="43.7924" lon="7.13014">
        <ele>1002.918778</ele>
        <time>2011-05-22T09:30:22Z</time>
      </trkpt>
      <trkpt lat="43.7924" lon="7.13029">
        <ele>1000.354385</ele>
        <time>2011-05-22T09:30:25Z</time>
      </trkpt>
      <trkpt lat="43.79236" lon="7.13041">
        <ele>997.287946</ele>
        <time>2011-05-22T09:30:28Z</time>
      </trkpt>
      <trkpt lat="43.79227" lon="7.13048">
        <ele>994.668111</ele>
        <time>2011-05-22T09:30:32Z</time>
      </trkpt>
      <trkpt lat="43.79216" lon="7.13047">
        <ele>993.255962</ele>
        <time>2011-05-22T09:30:35Z</time>
      </trkpt>
      <trkpt lat="43.79206" lon="7.13052">
        <ele>992.614211</ele>
        <time>2011-05-22T09:30:39Z</time>
      </trkpt>
      <trkpt lat="43.79197" lon="7.13056">
        <ele>992.177769</ele>
        <time>2011-05-22T09:30:43Z</time>
      </trkpt>
      <trkpt lat="43.79187" lon="7.13058">
        <ele>991.384516</ele>
        <time>2011-05-22T09:30:47Z</time>
      </trkpt>
      <trkpt lat="43.79178" lon="7.13065">
        <ele>990.060485</ele>
        <time>2011-05-22T09:30:51Z</time>
      </trkpt>
      <trkpt lat="43.79169" lon="7.1307">
        <ele>988.658626</ele>
        <time>2011-05-22T09:30:54Z</time>
      </trkpt>
      <trkpt lat="43.79158" lon="7.13072">
        <ele>987.56334</ele>
        <time>2011-05-22T09:30:58Z</time>
      </trkpt>
      <trkpt lat="43.79147" lon="7.13076">
        <ele>986.678264</ele>
        <time>2011-05-22T09:31:02Z</time>
      </trkpt>
      <trkpt lat="43.79138" lon="7.13081">
        <ele>985.868841</ele>
        <time>2011-05-22T09:31:07Z</time>
      </trkpt>
      <trkpt lat="43.79138" lon="7.13081">
        <ele>985.185501</ele>
        <time>2011-05-22T09:31:10Z</time>
      </trkpt>
      <trkpt lat="43.79138" lon="7.13081">
        <ele>984.675465</ele>
        <time>2011-05-22T09:31:37Z</time>
      </trkpt>
      <trkpt lat="43.79125" lon="7.1307">
        <ele>984.283233</ele>
        <time>2011-05-22T09:31:46Z</time>
      </trkpt>
      <trkpt lat="43.79118" lon="7.13062">
        <ele>983.898015</ele>
        <time>2011-05-22T09:31:51Z</time>
      </trkpt>
      <trkpt lat="43.79108" lon="7.13057">
        <ele>983.32619</ele>
        <time>2011-05-22T09:31:56Z</time>
      </trkpt>
      <trkpt lat="43.79099" lon="7.13059">
        <ele>981.934947</ele>
        <time>2011-05-22T09:31:59Z</time>
      </trkpt>
      <trkpt lat="43.7909" lon="7.13066">
        <ele>979.580899</ele>
        <time>2011-05-22T09:32:02Z</time>
      </trkpt>
      <trkpt lat="43.79079" lon="7.13062">
        <ele>977.277138</ele>
        <time>2011-05-22T09:32:06Z</time>
      </trkpt>
      <trkpt lat="43.79069" lon="7.13064">
        <ele>975.806179</ele>
        <time>2011-05-22T09:32:11Z</time>
      </trkpt>
      <trkpt lat="43.79069" lon="7.13064">
        <ele>974.985958</ele>
        <time>2011-05-22T09:32:16Z</time>
      </trkpt>
      <trkpt lat="43.79053" lon="7.13076">
        <ele>974.46981</ele>
        <time>2011-05-22T09:32:30Z</time>
      </trkpt>
      <trkpt lat="43.79045" lon="7.13081">
        <ele>973.800377</ele>
        <time>2011-05-22T09:32:33Z</time>
      </trkpt>
      <trkpt lat="43.79036" lon="7.13086">
        <ele>972.580512</ele>
        <time>2011-05-22T09:32:37Z</time>
      </trkpt>
      <trkpt lat="43.79032" lon="7.13099">
        <ele>970.128755</ele>
        <time>2011-05-22T09:32:41Z</time>
      </trkpt>
      <trkpt lat="43.79027" lon="7.1311">
        <ele>966.41665</ele>
        <time>2011-05-22T09:32:44Z</time>
      </trkpt>
      <trkpt lat="43.7902" lon="7.13119">
        <ele>962.856295</ele>
        <time>2011-05-22T09:32:47Z</time>
      </trkpt>
      <trkpt lat="43.79011" lon="7.13128">
        <ele>960.471367</ele>
        <time>2011-05-22T09:32:50Z</time>
      </trkpt>
      <trkpt lat="43.79" lon="7.13134">
        <ele>958.95666</ele>
        <time>2011-05-22T09:32:53Z</time>
      </trkpt>
      <trkpt lat="43.78991" lon="7.13144">
        <ele>957.884935</ele>
        <time>2011-05-22T09:32:56Z</time>
      </trkpt>
      <trkpt lat="43.78982" lon="7.13154">
        <ele>956.576442</ele>
        <time>2011-05-22T09:32:59Z</time>
      </trkpt>
      <trkpt lat="43.78974" lon="7.13161">
        <ele>953.921175</ele>
        <time>2011-05-22T09:33:02Z</time>
      </trkpt>
      <trkpt lat="43.78966" lon="7.1317">
        <ele>949.981347</ele>
        <time>2011-05-22T09:33:05Z</time>
      </trkpt>
      <trkpt lat="43.7896" lon="7.1318">
        <ele>946.508584</ele>
        <time>2011-05-22T09:33:08Z</time>
      </trkpt>
      <trkpt lat="43.78952" lon="7.13192">
        <ele>944.712834</ele>
        <time>2011-05-22T09:33:11Z</time>
      </trkpt>
      <trkpt lat="43.78944" lon="7.13203">
        <ele>944.215159</ele>
        <time>2011-05-22T09:33:14Z</time>
      </trkpt>
      <trkpt lat="43.78936" lon="7.13215">
        <ele>944.221916</ele>
        <time>2011-05-22T09:33:17Z</time>
      </trkpt>
      <trkpt lat="43.78923" lon="7.13221">
        <ele>944.242848</ele>
        <time>2011-05-22T09:33:20Z</time>
      </trkpt>
      <trkpt lat="43.78915" lon="7.13225">
        <ele>944.134737</ele>
        <time>2011-05-22T09:33:22Z</time>
      </trkpt>
      <trkpt lat="43.78904" lon="7.13229">
        <ele>943.734536</ele>
        <time>2011-05-22T09:33:25Z</time>
      </trkpt>
      <trkpt lat="43.78894" lon="7.13233">
        <ele>942.944523</ele>
        <time>2011-05-22T09:33:28Z</time>
      </trkpt>
      <trkpt lat="43.78881" lon="7.13239">
        <ele>941.960349</ele>
        <time>2011-05-22T09:33:31Z</time>
      </trkpt>
      <trkpt lat="43.78873" lon="7.13244">
        <ele>940.997931</ele>
        <time>2011-05-22T09:33:33Z</time>
      </trkpt>
      <trkpt lat="43.7886" lon="7.13254">
        <ele>940.141463</ele>
        <time>2011-05-22T09:33:36Z</time>
      </trkpt>
      <trkpt lat="43.78849" lon="7.13259">
        <ele>939.486096</ele>
        <time>2011-05-22T09:33:39Z</time>
      </trkpt>
      <trkpt lat="43.7884" lon="7.13266">
        <ele>939.077858</ele>
        <time>2011-05-22T09:33:43Z</time>
      </trkpt>
      <trkpt lat="43.78835" lon="7.13277">
        <ele>938.909281</ele>
        <time>2011-05-22T09:33:47Z</time>
      </trkpt>
      <trkpt lat="43.78835" lon="7.13277">
        <ele>938.896007</ele>
        <time>2011-05-22T09:33:49Z</time>
      </trkpt>
      <trkpt lat="43.78818" lon="7.13304">
        <ele>938.923679</ele>
        <time>2011-05-22T09:34:10Z</time>
      </trkpt>
      <trkpt lat="43.78808" lon="7.13311">
        <ele>938.935913</ele>
        <time>2011-05-22T09:34:14Z</time>
      </trkpt>
      <trkpt lat="43.78797" lon="7.13316">
        <ele>938.919711</ele>
        <time>2011-05-22T09:34:17Z</time>
      </trkpt>
      <trkpt lat="43.78785" lon="7.13321">
        <ele>938.877538</ele>
        <time>2011-05-22T09:34:20Z</time>
      </trkpt>
      <trkpt lat="43.78774" lon="7.13326">
        <ele>938.829261</ele>
        <time>2011-05-22T09:34:23Z</time>
      </trkpt>
      <trkpt lat="43.78764" lon="7.13328">
        <ele>938.789421</ele>
        <time>2011-05-22T09:34:27Z</time>
      </trkpt>
      <trkpt lat="43.78753" lon="7.13327">
        <ele>938.756318</ele>
        <time>2011-05-22T09:34:30Z</time>
      </trkpt>
      <trkpt lat="43.78743" lon="7.13324">
        <ele>938.710154</ele>
        <time>2011-05-22T09:34:33Z</time>
      </trkpt>
      <trkpt lat="43.78733" lon="7.13316">
        <ele>938.631641</ele>
        <time>2011-05-22T09:34:37Z</time>
      </trkpt>
      <trkpt lat="43.78722" lon="7.13316">
        <ele>938.539391</ele>
        <time>2011-05-22T09:34:42Z</time>
      </trkpt>
      <trkpt lat="43.78714" lon="7.13325">
        <ele>938.469633</ele>
        <time>2011-05-22T09:34:47Z</time>
      </trkpt>
      <trkpt lat="43.78704" lon="7.13321">
        <ele>938.433488</ele>
        <time>2011-05-22T09:34:54Z</time>
      </trkpt>
      <trkpt lat="43.78693" lon="7.13317">
        <ele>938.423606</ele>
        <time>2011-05-22T09:34:58Z</time>
      </trkpt>
      <trkpt lat="43.78683" lon="7.13316">
        <ele>938.414586</ele>
        <time>2011-05-22T09:35:01Z</time>
      </trkpt>
      <trkpt lat="43.78671" lon="7.13312">
        <ele>938.336993</ele>
        <time>2011-05-22T09:35:04Z</time>
      </trkpt>
      <trkpt lat="43.78662" lon="7.13311">
        <ele>938.141786</ele>
        <time>2011-05-22T09:35:06Z</time>
      </trkpt>
      <trkpt lat="43.78652" lon="7.13311">
        <ele>937.891842</ele>
        <time>2011-05-22T09:35:08Z</time>
      </trkpt>
      <trkpt lat="43.78637" lon="7.13312">
        <ele>937.607085</ele>
        <time>2011-05-22T09:35:11Z</time>
      </trkpt>
      <trkpt lat="43.78622" lon="7.13316">
        <ele>937.223752</ele>
        <time>2011-05-22T09:35:14Z</time>
      </trkpt>
      <trkpt lat="43.78611" lon="7.13318">
        <ele>936.781351</ele>
        <time>2011-05-22T09:35:16Z</time>
      </trkpt>
      <trkpt lat="43.78595" lon="7.13319">
        <ele>936.381405</ele>
        <time>2011-05-22T09:35:19Z</time>
      </trkpt>
      <trkpt lat="43.78582" lon="7.13319">
        <ele>936.086639</ele>
        <time>2011-05-22T09:35:22Z</time>
      </trkpt>
      <trkpt lat="43.78572" lon="7.1332">
        <ele>935.93774</ele>
        <time>2011-05-22T09:35:24Z</time>
      </trkpt>
      <trkpt lat="43.78558" lon="7.13324">
        <ele>935.909758</ele>
        <time>2011-05-22T09:35:27Z</time>
      </trkpt>
      <trkpt lat="43.78543" lon="7.13328">
        <ele>935.931142</ele>
        <time>2011-05-22T09:35:30Z</time>
      </trkpt>
      <trkpt lat="43.78533" lon="7.13331">
        <ele>935.955194</ele>
        <time>2011-05-22T09:35:33Z</time>
      </trkpt>
      <trkpt lat="43.78522" lon="7.13334">
        <ele>935.967188</ele>
        <time>2011-05-22T09:35:37Z</time>
      </trkpt>
      <trkpt lat="43.78511" lon="7.13337">
        <ele>935.839812</ele>
        <time>2011-05-22T09:35:41Z</time>
      </trkpt>
      <trkpt lat="43.78501" lon="7.1334">
        <ele>935.42548</ele>
        <time>2011-05-22T09:35:44Z</time>
      </trkpt>
      <trkpt lat="43.7849" lon="7.13342">
        <ele>934.851608</ele>
        <time>2011-05-22T09:35:48Z</time>
      </trkpt>
      <trkpt lat="43.78479" lon="7.1334">
        <ele>934.368313</ele>
        <time>2011-05-22T09:35:52Z</time>
      </trkpt>
      <trkpt lat="43.7847" lon="7.13337">
        <ele>934.030865</ele>
        <time>2011-05-22T09:35:55Z</time>
      </trkpt>
      <trkpt lat="43.7846" lon="7.13337">
        <ele>933.764412</ele>
        <time>2011-05-22T09:35:58Z</time>
      </trkpt>
      <trkpt lat="43.78449" lon="7.13339">
        <ele>933.488896</ele>
        <time>2011-05-22T09:36:02Z</time>
      </trkpt>
      <trkpt lat="43.78438" lon="7.13343">
        <ele>933.18087</ele>
        <time>2011-05-22T09:36:06Z</time>
      </trkpt>
      <trkpt lat="43.78428" lon="7.1335">
        <ele>932.873179</ele>
        <time>2011-05-22T09:36:10Z</time>
      </trkpt>
      <trkpt lat="43.78422" lon="7.13359">
        <ele>932.577489</ele>
        <time>2011-05-22T09:36:13Z</time>
      </trkpt>
      <trkpt lat="43.78415" lon="7.13369">
        <ele>932.265408</ele>
        <time>2011-05-22T09:36:16Z</time>
      </trkpt>
      <trkpt lat="43.78406" lon="7.13374">
        <ele>931.923666</ele>
        <time>2011-05-22T09:36:19Z</time>
      </trkpt>
      <trkpt lat="43.78397" lon="7.1338">
        <ele>931.581307</ele>
        <time>2011-05-22T09:36:23Z</time>
      </trkpt>
      <trkpt lat="43.78388" lon="7.13386">
        <ele>931.274857</ele>
        <time>2011-05-22T09:36:27Z</time>
      </trkpt>
      <trkpt lat="43.78379" lon="7.1339">
        <ele>931.009724</ele>
        <time>2011-05-22T09:36:32Z</time>
      </trkpt>
      <trkpt lat="43.7837" lon="7.13396">
        <ele>930.757105</ele>
        <time>2011-05-22T09:36:36Z</time>
      </trkpt>
      <trkpt lat="43.78361" lon="7.13398">
        <ele>930.488941</ele>
        <time>2011-05-22T09:36:40Z</time>
      </trkpt>
      <trkpt lat="43.78351" lon="7.13401">
        <ele>930.197379</ele>
        <time>2011-05-22T09:36:43Z</time>
      </trkpt>
      <trkpt lat="43.78342" lon="7.13402">
        <ele>929.896661</ele>
        <time>2011-05-22T09:36:46Z</time>
      </trkpt>
      <trkpt lat="43.7833" lon="7.13402">
        <ele>929.611959</ele>
        <time>2011-05-22T09:36:50Z</time>
      </trkpt>
      <trkpt lat="43.7832" lon="7.134">
        <ele>929.366697</ele>
        <time>2011-05-22T09:36:53Z</time>
      </trkpt>
      <trkpt lat="43.7831" lon="7.13397">
        <ele>929.168906</ele>
        <time>2011-05-22T09:36:56Z</time>
      </trkpt>
      <trkpt lat="43.783" lon="7.13396">
        <ele>929.001589</ele>
        <time>2011-05-22T09:36:59Z</time>
      </trkpt>
      <trkpt lat="43.78289" lon="7.13394">
        <ele>928.725209</ele>
        <time>2011-05-22T09:37:02Z</time>
      </trkpt>
      <trkpt lat="43.7828" lon="7.13392">
        <ele>928.27106</ele>
        <time>2011-05-22T09:37:05Z</time>
      </trkpt>
      <trkpt lat="43.7827" lon="7.13389">
        <ele>927.825901</ele>
        <time>2011-05-22T09:37:08Z</time>
      </trkpt>
      <trkpt lat="43.78259" lon="7.13388">
        <ele>927.553869</ele>
        <time>2011-05-22T09:37:11Z</time>
      </trkpt>
      <trkpt lat="43.78249" lon="7.1339">
        <ele>927.405932</ele>
        <time>2011-05-22T09:37:14Z</time>
      </trkpt>
      <trkpt lat="43.7824" lon="7.13393">
        <ele>927.298391</ele>
        <time>2011-05-22T09:37:17Z</time>
      </trkpt>
      <trkpt lat="43.78229" lon="7.13395">
        <ele>927.177155</ele>
        <time>2011-05-22T09:37:21Z</time>
      </trkpt>
      <trkpt lat="43.7822" lon="7.13398">
        <ele>927.024378</ele>
        <time>2011-05-22T09:37:26Z</time>
      </trkpt>
      <trkpt lat="43.78211" lon="7.13401">
        <ele>926.849969</ele>
        <time>2011-05-22T09:37:32Z</time>
      </trkpt>
      <trkpt lat="43.78202" lon="7.13403">
        <ele>926.657861</ele>
        <time>2011-05-22T09:37:36Z</time>
      </trkpt>
      <trkpt lat="43.78193" lon="7.13408">
        <ele>926.420016</ele>
        <time>2011-05-22T09:37:40Z</time>
      </trkpt>
      <trkpt lat="43.78183" lon="7.13408">
        <ele>926.104372</ele>
        <time>2011-05-22T09:37:45Z</time>
      </trkpt>
      <trkpt lat="43.78172" lon="7.13412">
        <ele>925.730428</ele>
        <time>2011-05-22T09:37:50Z</time>
      </trkpt>
      <trkpt lat="43.78162" lon="7.13417">
        <ele>925.352588</ele>
        <time>2011-05-22T09:37:54Z</time>
      </trkpt>
      <trkpt lat="43.78152" lon="7.13424">
        <ele>924.984562</ele>
        <time>2011-05-22T09:37:58Z</time>
      </trkpt>
      <trkpt lat="43.78144" lon="7.13432">
        <ele>924.597584</ele>
        <time>2011-05-22T09:38:03Z</time>
      </trkpt>
      <trkpt lat="43.78137" lon="7.13442">
        <ele>924.185137</ele>
        <time>2011-05-22T09:38:08Z</time>
      </trkpt>
      <trkpt lat="43.78139" lon="7.13456">
        <ele>923.758356</ele>
        <time>2011-05-22T09:38:15Z</time>
      </trkpt>
      <trkpt lat="43.78139" lon="7.13456">
        <ele>923.31649</ele>
        <time>2011-05-22T09:38:17Z</time>
      </trkpt>
      <trkpt lat="43.78115" lon="7.13476">
        <ele>922.909097</ele>
        <time>2011-05-22T09:38:49Z</time>
      </trkpt>
      <trkpt lat="43.78105" lon="7.13482">
        <ele>922.563654</ele>
        <time>2011-05-22T09:38:53Z</time>
      </trkpt>
      <trkpt lat="43.78094" lon="7.13487">
        <ele>922.175886</ele>
        <time>2011-05-22T09:38:57Z</time>
      </trkpt>
      <trkpt lat="43.78085" lon="7.13492">
        <ele>921.182374</ele>
        <time>2011-05-22T09:39:00Z</time>
      </trkpt>
      <trkpt lat="43.78085" lon="7.13492">
        <ele>919.422876</ele>
        <time>2011-05-22T09:39:04Z</time>
      </trkpt>
      <trkpt lat="43.78066" lon="7.13509">
        <ele>917.753045</ele>
        <time>2011-05-22T09:39:33Z</time>
      </trkpt>
      <trkpt lat="43.78056" lon="7.13513">
        <ele>916.765364</ele>
        <time>2011-05-22T09:39:38Z</time>
      </trkpt>
      <trkpt lat="43.78045" lon="7.13508">
        <ele>916.156438</ele>
        <time>2011-05-22T09:39:42Z</time>
      </trkpt>
      <trkpt lat="43.78035" lon="7.13508">
        <ele>915.090618</ele>
        <time>2011-05-22T09:39:45Z</time>
      </trkpt>
      <trkpt lat="43.78024" lon="7.13506">
        <ele>913.021607</ele>
        <time>2011-05-22T09:39:48Z</time>
      </trkpt>
      <trkpt lat="43.78015" lon="7.1351">
        <ele>910.687139</ele>
        <time>2011-05-22T09:39:52Z</time>
      </trkpt>
      <trkpt lat="43.78006" lon="7.13515">
        <ele>909.032489</ele>
        <time>2011-05-22T09:39:56Z</time>
      </trkpt>
      <trkpt lat="43.77997" lon="7.13524">
        <ele>908.032597</ele>
        <time>2011-05-22T09:40:00Z</time>
      </trkpt>
      <trkpt lat="43.77986" lon="7.13532">
        <ele>907.25075</ele>
        <time>2011-05-22T09:40:04Z</time>
      </trkpt>
      <trkpt lat="43.77982" lon="7.13543">
        <ele>906.328764</ele>
        <time>2011-05-22T09:40:08Z</time>
      </trkpt>
      <trkpt lat="43.77976" lon="7.13553">
        <ele>905.189817</ele>
        <time>2011-05-22T09:40:15Z</time>
      </trkpt>
      <trkpt lat="43.77969" lon="7.13562">
        <ele>903.944338</ele>
        <time>2011-05-22T09:40:20Z</time>
      </trkpt>
      <trkpt lat="43.77964" lon="7.13574">
        <ele>902.700636</ele>
        <time>2011-05-22T09:40:24Z</time>
      </trkpt>
      <trkpt lat="43.77958" lon="7.13584">
        <ele>901.394322</ele>
        <time>2011-05-22T09:40:29Z</time>
      </trkpt>
      <trkpt lat="43.77958" lon="7.13584">
        <ele>900.11216</ele>
        <time>2011-05-22T09:40:31Z</time>
      </trkpt>
      <trkpt lat="43.77952" lon="7.13623">
        <ele>899.068489</ele>
        <time>2011-05-22T09:40:57Z</time>
      </trkpt>
      <trkpt lat="43.77956" lon="7.13634">
        <ele>898.167774</ele>
        <time>2011-05-22T09:41:04Z</time>
      </trkpt>
      <trkpt lat="43.77952" lon="7.13647">
        <ele>897.174008</ele>
        <time>2011-05-22T09:41:11Z</time>
      </trkpt>
      <trkpt lat="43.77955" lon="7.13662">
        <ele>895.592322</ele>
        <time>2011-05-22T09:41:18Z</time>
      </trkpt>
      <trkpt lat="43.77959" lon="7.13672">
        <ele>893.179233</ele>
        <time>2011-05-22T09:41:24Z</time>
      </trkpt>
      <trkpt lat="43.77959" lon="7.13672">
        <ele>890.884827</ele>
        <time>2011-05-22T09:41:42Z</time>
      </trkpt>
      <trkpt lat="43.77942" lon="7.13668">
        <ele>889.536255</ele>
        <time>2011-05-22T09:41:53Z</time>
      </trkpt>
      <trkpt lat="43.77931" lon="7.13664">
        <ele>888.747391</ele>
        <time>2011-05-22T09:41:57Z</time>
      </trkpt>
      <trkpt lat="43.77922" lon="7.13662">
        <ele>887.981289</ele>
        <time>2011-05-22T09:42:00Z</time>
      </trkpt>
      <trkpt lat="43.77911" lon="7.13659">
        <ele>886.796829</ele>
        <time>2011-05-22T09:42:03Z</time>
      </trkpt>
      <trkpt lat="43.77902" lon="7.1366">
        <ele>885.094924</ele>
        <time>2011-05-22T09:42:07Z</time>
      </trkpt>
      <trkpt lat="43.77892" lon="7.13662">
        <ele>883.501372</ele>
        <time>2011-05-22T09:42:12Z</time>
      </trkpt>
      <trkpt lat="43.77881" lon="7.13664">
        <ele>882.353497</ele>
        <time>2011-05-22T09:42:15Z</time>
      </trkpt>
      <trkpt lat="43.77869" lon="7.13667">
        <ele>881.372606</ele>
        <time>2011-05-22T09:42:18Z</time>
      </trkpt>
      <trkpt lat="43.77858" lon="7.13669">
        <ele>880.524371</ele>
        <time>2011-05-22T09:42:21Z</time>
      </trkpt>
      <trkpt lat="43.77849" lon="7.13673">
        <ele>879.894625</ele>
        <time>2011-05-22T09:42:27Z</time>
      </trkpt>
      <trkpt lat="43.77849" lon="7.13673">
        <ele>879.408452</ele>
        <time>2011-05-22T09:42:28Z</time>
      </trkpt>
      <trkpt lat="43.77826" lon="7.13649">
        <ele>879.035049</ele>
        <time>2011-05-22T09:42:49Z</time>
      </trkpt>
      <trkpt lat="43.77816" lon="7.13652">
        <ele>878.720684</ele>
        <time>2011-05-22T09:42:54Z</time>
      </trkpt>
      <trkpt lat="43.77806" lon="7.13655">
        <ele>878.239757</ele>
        <time>2011-05-22T09:42:59Z</time>
      </trkpt>
      <trkpt lat="43.77795" lon="7.13658">
        <ele>876.942253</ele>
        <time>2011-05-22T09:43:03Z</time>
      </trkpt>
      <trkpt lat="43.77786" lon="7.13655">
        <ele>874.657077</ele>
        <time>2011-05-22T09:43:07Z</time>
      </trkpt>
      <trkpt lat="43.77776" lon="7.13657">
        <ele>872.316509</ele>
        <time>2011-05-22T09:43:11Z</time>
      </trkpt>
      <trkpt lat="43.77766" lon="7.13659">
        <ele>870.740695</ele>
        <time>2011-05-22T09:43:16Z</time>
      </trkpt>
      <trkpt lat="43.7776" lon="7.13671">
        <ele>869.831153</ele>
        <time>2011-05-22T09:43:23Z</time>
      </trkpt>
      <trkpt lat="43.77751" lon="7.13677">
        <ele>869.255054</ele>
        <time>2011-05-22T09:43:29Z</time>
      </trkpt>
      <trkpt lat="43.77751" lon="7.13677">
        <ele>868.78794</ele>
        <time>2011-05-22T09:43:34Z</time>
      </trkpt>
      <trkpt lat="43.77735" lon="7.1369">
        <ele>868.375662</ele>
        <time>2011-05-22T09:43:49Z</time>
      </trkpt>
      <trkpt lat="43.77735" lon="7.13706">
        <ele>867.930955</ele>
        <time>2011-05-22T09:43:53Z</time>
      </trkpt>
      <trkpt lat="43.7773" lon="7.13717">
        <ele>867.328194</ele>
        <time>2011-05-22T09:43:57Z</time>
      </trkpt>
      <trkpt lat="43.77723" lon="7.13728">
        <ele>866.475764</ele>
        <time>2011-05-22T09:44:02Z</time>
      </trkpt>
      <trkpt lat="43.77714" lon="7.13735">
        <ele>865.453196</ele>
        <time>2011-05-22T09:44:07Z</time>
      </trkpt>
      <trkpt lat="43.77709" lon="7.13746">
        <ele>864.533075</ele>
        <time>2011-05-22T09:44:10Z</time>
      </trkpt>
      <trkpt lat="43.77701" lon="7.13754">
        <ele>863.857515</ele>
        <time>2011-05-22T09:44:13Z</time>
      </trkpt>
      <trkpt lat="43.77691" lon="7.1376">
        <ele>863.301002</ele>
        <time>2011-05-22T09:44:19Z</time>
      </trkpt>
      <trkpt lat="43.77682" lon="7.13767">
        <ele>862.783951</ele>
        <time>2011-05-22T09:44:23Z</time>
      </trkpt>
      <trkpt lat="43.77672" lon="7.13776">
        <ele>862.323985</ele>
        <time>2011-05-22T09:44:27Z</time>
      </trkpt>
      <trkpt lat="43.77662" lon="7.13784">
        <ele>861.886528</ele>
        <time>2011-05-22T09:44:31Z</time>
      </trkpt>
      <trkpt lat="43.77652" lon="7.13792">
        <ele>861.408576</ele>
        <time>2011-05-22T09:44:34Z</time>
      </trkpt>
      <trkpt lat="43.77645" lon="7.138">
        <ele>860.937735</ele>
        <time>2011-05-22T09:44:37Z</time>
      </trkpt>
      <trkpt lat="43.77645" lon="7.138">
        <ele>860.551721</ele>
        <time>2011-05-22T09:44:52Z</time>
      </trkpt>
      <trkpt lat="43.77645" lon="7.138">
        <ele>860.253783</ele>
        <time>2011-05-22T09:45:09Z</time>
      </trkpt>
      <trkpt lat="43.77613" lon="7.13818">
        <ele>860.044074</ele>
        <time>2011-05-22T09:46:39Z</time>
      </trkpt>
      <trkpt lat="43.77603" lon="7.13823">
        <ele>859.911397</ele>
        <time>2011-05-22T09:46:44Z</time>
      </trkpt>
      <trkpt lat="43.77594" lon="7.1383">
        <ele>859.79239</ele>
        <time>2011-05-22T09:46:48Z</time>
      </trkpt>
      <trkpt lat="43.77583" lon="7.13836">
        <ele>859.242738</ele>
        <time>2011-05-22T09:46:52Z</time>
      </trkpt>
      <trkpt lat="43.77574" lon="7.1384">
        <ele>857.91188</ele>
        <time>2011-05-22T09:46:57Z</time>
      </trkpt>
      <trkpt lat="43.77565" lon="7.13839">
        <ele>856.239994</ele>
        <time>2011-05-22T09:47:11Z</time>
      </trkpt>
      <trkpt lat="43.77555" lon="7.13841">
        <ele>854.773991</ele>
        <time>2011-05-22T09:47:16Z</time>
      </trkpt>
      <trkpt lat="43.77546" lon="7.13847">
        <ele>853.421363</ele>
        <time>2011-05-22T09:47:21Z</time>
      </trkpt>
      <trkpt lat="43.77537" lon="7.13853">
        <ele>851.539309</ele>
        <time>2011-05-22T09:47:26Z</time>
      </trkpt>
      <trkpt lat="43.77529" lon="7.13862">
        <ele>848.856638</ele>
        <time>2011-05-22T09:47:31Z</time>
      </trkpt>
      <trkpt lat="43.77523" lon="7.13871">
        <ele>846.136958</ele>
        <time>2011-05-22T09:47:38Z</time>
      </trkpt>
      <trkpt lat="43.77513" lon="7.13878">
        <ele>844.095139</ele>
        <time>2011-05-22T09:48:00Z</time>
      </trkpt>
      <trkpt lat="43.77507" lon="7.13889">
        <ele>842.63693</ele>
        <time>2011-05-22T09:48:05Z</time>
      </trkpt>
      <trkpt lat="43.77505" lon="7.13902">
        <ele>841.398125</ele>
        <time>2011-05-22T09:48:08Z</time>
      </trkpt>
      <trkpt lat="43.77501" lon="7.13914">
        <ele>839.561384</ele>
        <time>2011-05-22T09:48:11Z</time>
      </trkpt>
      <trkpt lat="43.77493" lon="7.13928">
        <ele>836.763886</ele>
        <time>2011-05-22T09:48:14Z</time>
      </trkpt>
      <trkpt lat="43.77485" lon="7.13944">
        <ele>833.964654</ele>
        <time>2011-05-22T09:48:17Z</time>
      </trkpt>
      <trkpt lat="43.77479" lon="7.13956">
        <ele>832.104126</ele>
        <time>2011-05-22T09:48:19Z</time>
      </trkpt>
      <trkpt lat="43.77469" lon="7.13968">
        <ele>830.166558</ele>
        <time>2011-05-22T09:48:22Z</time>
      </trkpt>
      <trkpt lat="43.7746" lon="7.13975">
        <ele>826.742271</ele>
        <time>2011-05-22T09:48:25Z</time>
      </trkpt>
      <trkpt lat="43.7745" lon="7.13984">
        <ele>822.487115</ele>
        <time>2011-05-22T09:48:28Z</time>
      </trkpt>
      <trkpt lat="43.77441" lon="7.13989">
        <ele>819.075875</ele>
        <time>2011-05-22T09:48:35Z</time>
      </trkpt>
      <trkpt lat="43.77432" lon="7.13991">
        <ele>817.070898</ele>
        <time>2011-05-22T09:48:38Z</time>
      </trkpt>
      <trkpt lat="43.77432" lon="7.13991">
        <ele>816.207796</ele>
        <time>2011-05-22T09:48:43Z</time>
      </trkpt>
      <trkpt lat="43.77432" lon="7.13991">
        <ele>815.985999</ele>
        <time>2011-05-22T09:49:12Z</time>
      </trkpt>
      <trkpt lat="43.774" lon="7.14005">
        <ele>815.960859</ele>
        <time>2011-05-22T09:50:17Z</time>
      </trkpt>
      <trkpt lat="43.7739" lon="7.14007">
        <ele>815.847521</ele>
        <time>2011-05-22T09:50:21Z</time>
      </trkpt>
      <trkpt lat="43.77381" lon="7.14007">
        <ele>815.530655</ele>
        <time>2011-05-22T09:50:25Z</time>
      </trkpt>
      <trkpt lat="43.77372" lon="7.14013">
        <ele>813.588879</ele>
        <time>2011-05-22T09:50:28Z</time>
      </trkpt>
      <trkpt lat="43.77367" lon="7.14025">
        <ele>809.14594</ele>
        <time>2011-05-22T09:50:31Z</time>
      </trkpt>
      <trkpt lat="43.77359" lon="7.14036">
        <ele>804.406762</ele>
        <time>2011-05-22T09:50:36Z</time>
      </trkpt>
      <trkpt lat="43.77349" lon="7.14043">
        <ele>801.582229</ele>
        <time>2011-05-22T09:50:39Z</time>
      </trkpt>
      <trkpt lat="43.77333" lon="7.14046">
        <ele>800.324259</ele>
        <time>2011-05-22T09:50:42Z</time>
      </trkpt>
      <trkpt lat="43.77316" lon="7.14056">
        <ele>799.668501</ele>
        <time>2011-05-22T09:50:45Z</time>
      </trkpt>
      <trkpt lat="43.77306" lon="7.14065">
        <ele>798.634962</ele>
        <time>2011-05-22T09:50:47Z</time>
      </trkpt>
      <trkpt lat="43.77294" lon="7.14076">
        <ele>796.207225</ele>
        <time>2011-05-22T09:50:50Z</time>
      </trkpt>
      <trkpt lat="43.77285" lon="7.14093">
        <ele>792.181974</ele>
        <time>2011-05-22T09:50:53Z</time>
      </trkpt>
      <trkpt lat="43.7728" lon="7.14108">
        <ele>787.867572</ele>
        <time>2011-05-22T09:50:55Z</time>
      </trkpt>
      <trkpt lat="43.77269" lon="7.14128">
        <ele>784.713842</ele>
        <time>2011-05-22T09:50:58Z</time>
      </trkpt>
      <trkpt lat="43.77261" lon="7.1414">
        <ele>782.940561</ele>
        <time>2011-05-22T09:51:00Z</time>
      </trkpt>
      <trkpt lat="43.77247" lon="7.14157">
        <ele>782.078812</ele>
        <time>2011-05-22T09:51:03Z</time>
      </trkpt>
      <trkpt lat="43.77239" lon="7.14174">
        <ele>781.65615</ele>
        <time>2011-05-22T09:51:06Z</time>
      </trkpt>
      <trkpt lat="43.77241" lon="7.14193">
        <ele>781.334707</ele>
        <time>2011-05-22T09:51:09Z</time>
      </trkpt>
      <trkpt lat="43.77239" lon="7.14206">
        <ele>780.953865</ele>
        <time>2011-05-22T09:51:11Z</time>
      </trkpt>
      <trkpt lat="43.77235" lon="7.14218">
        <ele>780.485304</ele>
        <time>2011-05-22T09:51:13Z</time>
      </trkpt>
      <trkpt lat="43.77227" lon="7.14227">
        <ele>779.919797</ele>
        <time>2011-05-22T09:51:15Z</time>
      </trkpt>
      <trkpt lat="43.77213" lon="7.1424">
        <ele>779.291943</ele>
        <time>2011-05-22T09:51:18Z</time>
      </trkpt>
      <trkpt lat="43.77198" lon="7.14253">
        <ele>778.69084</ele>
        <time>2011-05-22T09:51:21Z</time>
      </trkpt>
      <trkpt lat="43.77184" lon="7.14265">
        <ele>778.170319</ele>
        <time>2011-05-22T09:51:24Z</time>
      </trkpt>
      <trkpt lat="43.77172" lon="7.14277">
        <ele>777.66316</ele>
        <time>2011-05-22T09:51:27Z</time>
      </trkpt>
      <trkpt lat="43.77165" lon="7.14287">
        <ele>777.095849</ele>
        <time>2011-05-22T09:51:29Z</time>
      </trkpt>
      <trkpt lat="43.77155" lon="7.14302">
        <ele>776.508157</ele>
        <time>2011-05-22T09:51:32Z</time>
      </trkpt>
      <trkpt lat="43.77148" lon="7.14313">
        <ele>776.016371</ele>
        <time>2011-05-22T09:51:34Z</time>
      </trkpt>
      <trkpt lat="43.77135" lon="7.14328">
        <ele>775.703027</ele>
        <time>2011-05-22T09:51:37Z</time>
      </trkpt>
      <trkpt lat="43.77119" lon="7.14344">
        <ele>775.564279</ele>
        <time>2011-05-22T09:51:40Z</time>
      </trkpt>
      <trkpt lat="43.77106" lon="7.14359">
        <ele>775.524901</ele>
        <time>2011-05-22T09:51:43Z</time>
      </trkpt>
      <trkpt lat="43.77092" lon="7.14373">
        <ele>775.474559</ele>
        <time>2011-05-22T09:51:46Z</time>
      </trkpt>
      <trkpt lat="43.77081" lon="7.1438">
        <ele>775.249304</ele>
        <time>2011-05-22T09:51:48Z</time>
      </trkpt>
      <trkpt lat="43.77065" lon="7.14388">
        <ele>774.772499</ele>
        <time>2011-05-22T09:51:51Z</time>
      </trkpt>
      <trkpt lat="43.77056" lon="7.14394">
        <ele>774.202373</ele>
        <time>2011-05-22T09:51:53Z</time>
      </trkpt>
      <trkpt lat="43.77045" lon="7.1441">
        <ele>773.755148</ele>
        <time>2011-05-22T09:51:56Z</time>
      </trkpt>
      <trkpt lat="43.77032" lon="7.14421">
        <ele>773.507114</ele>
        <time>2011-05-22T09:51:59Z</time>
      </trkpt>
      <trkpt lat="43.77024" lon="7.14431">
        <ele>773.374128</ele>
        <time>2011-05-22T09:52:01Z</time>
      </trkpt>
      <trkpt lat="43.77013" lon="7.14441">
        <ele>773.088271</ele>
        <time>2011-05-22T09:52:04Z</time>
      </trkpt>
      <trkpt lat="43.77004" lon="7.1445">
        <ele>772.311637</ele>
        <time>2011-05-22T09:52:07Z</time>
      </trkpt>
      <trkpt lat="43.76994" lon="7.14456">
        <ele>770.989106</ele>
        <time>2011-05-22T09:52:10Z</time>
      </trkpt>
      <trkpt lat="43.76982" lon="7.14462">
        <ele>769.403765</ele>
        <time>2011-05-22T09:52:13Z</time>
      </trkpt>
      <trkpt lat="43.76971" lon="7.14468">
        <ele>767.982604</ele>
        <time>2011-05-22T09:52:16Z</time>
      </trkpt>
      <trkpt lat="43.76958" lon="7.14471">
        <ele>766.901375</ele>
        <time>2011-05-22T09:52:19Z</time>
      </trkpt>
      <trkpt lat="43.76948" lon="7.14473">
        <ele>765.876531</ele>
        <time>2011-05-22T09:52:21Z</time>
      </trkpt>
      <trkpt lat="43.76932" lon="7.14476">
        <ele>764.532007</ele>
        <time>2011-05-22T09:52:24Z</time>
      </trkpt>
      <trkpt lat="43.76915" lon="7.14479">
        <ele>762.762076</ele>
        <time>2011-05-22T09:52:27Z</time>
      </trkpt>
      <trkpt lat="43.76898" lon="7.14483">
        <ele>760.747686</ele>
        <time>2011-05-22T09:52:30Z</time>
      </trkpt>
      <trkpt lat="43.76886" lon="7.14485">
        <ele>758.80897</ele>
        <time>2011-05-22T09:52:32Z</time>
      </trkpt>
      <trkpt lat="43.7687" lon="7.14485">
        <ele>757.134314</ele>
        <time>2011-05-22T09:52:35Z</time>
      </trkpt>
      <trkpt lat="43.7686" lon="7.14484">
        <ele>755.852339</ele>
        <time>2011-05-22T09:52:37Z</time>
      </trkpt>
      <trkpt lat="43.76846" lon="7.14481">
        <ele>755.089054</ele>
        <time>2011-05-22T09:52:40Z</time>
      </trkpt>
      <trkpt lat="43.76833" lon="7.14479">
        <ele>754.788367</ele>
        <time>2011-05-22T09:52:43Z</time>
      </trkpt>
      <trkpt lat="43.76821" lon="7.14477">
        <ele>754.75249</ele>
        <time>2011-05-22T09:52:46Z</time>
      </trkpt>
      <trkpt lat="43.7681" lon="7.14475">
        <ele>754.770686</ele>
        <time>2011-05-22T09:52:49Z</time>
      </trkpt>
      <trkpt lat="43.76798" lon="7.14473">
        <ele>754.646113</ele>
        <time>2011-05-22T09:52:52Z</time>
      </trkpt>
      <trkpt lat="43.76786" lon="7.14471">
        <ele>754.341376</ele>
        <time>2011-05-22T09:52:55Z</time>
      </trkpt>
      <trkpt lat="43.76774" lon="7.14467">
        <ele>754.030836</ele>
        <time>2011-05-22T09:52:58Z</time>
      </trkpt>
      <trkpt lat="43.76763" lon="7.14461">
        <ele>753.788336</ele>
        <time>2011-05-22T09:53:01Z</time>
      </trkpt>
      <trkpt lat="43.76754" lon="7.1446">
        <ele>753.474066</ele>
        <time>2011-05-22T09:53:04Z</time>
      </trkpt>
      <trkpt lat="43.76744" lon="7.14465">
        <ele>752.97749</ele>
        <time>2011-05-22T09:53:07Z</time>
      </trkpt>
      <trkpt lat="43.76733" lon="7.1446">
        <ele>752.323587</ele>
        <time>2011-05-22T09:53:11Z</time>
      </trkpt>
      <trkpt lat="43.76724" lon="7.14455">
        <ele>751.674557</ele>
        <time>2011-05-22T09:53:14Z</time>
      </trkpt>
      <trkpt lat="43.76715" lon="7.14451">
        <ele>751.08453</ele>
        <time>2011-05-22T09:53:17Z</time>
      </trkpt>
      <trkpt lat="43.76703" lon="7.14446">
        <ele>750.494994</ele>
        <time>2011-05-22T09:53:21Z</time>
      </trkpt>
      <trkpt lat="43.76693" lon="7.14443">
        <ele>749.999795</ele>
        <time>2011-05-22T09:53:24Z</time>
      </trkpt>
      <trkpt lat="43.76682" lon="7.14439">
        <ele>749.691408</ele>
        <time>2011-05-22T09:53:27Z</time>
      </trkpt>
      <trkpt lat="43.76671" lon="7.14435">
        <ele>749.453273</ele>
        <time>2011-05-22T09:53:30Z</time>
      </trkpt>
      <trkpt lat="43.7666" lon="7.14433">
        <ele>749.17154</ele>
        <time>2011-05-22T09:53:33Z</time>
      </trkpt>
      <trkpt lat="43.76649" lon="7.14433">
        <ele>748.637375</ele>
        <time>2011-05-22T09:53:36Z</time>
      </trkpt>
      <trkpt lat="43.76639" lon="7.14431">
        <ele>747.315817</ele>
        <time>2011-05-22T09:53:39Z</time>
      </trkpt>
      <trkpt lat="43.76627" lon="7.1443">
        <ele>744.890983</ele>
        <time>2011-05-22T09:53:42Z</time>
      </trkpt>
      <trkpt lat="43.76616" lon="7.14431">
        <ele>742.051473</ele>
        <time>2011-05-22T09:53:45Z</time>
      </trkpt>
      <trkpt lat="43.76601" lon="7.14431">
        <ele>739.778932</ele>
        <time>2011-05-22T09:53:48Z</time>
      </trkpt>
      <trkpt lat="43.7659" lon="7.14434">
        <ele>738.034459</ele>
        <time>2011-05-22T09:53:50Z</time>
      </trkpt>
      <trkpt lat="43.76571" lon="7.14437">
        <ele>736.146327</ele>
        <time>2011-05-22T09:53:53Z</time>
      </trkpt>
      <trkpt lat="43.76558" lon="7.14438">
        <ele>733.973322</ele>
        <time>2011-05-22T09:53:55Z</time>
      </trkpt>
      <trkpt lat="43.76543" lon="7.14437">
        <ele>731.956204</ele>
        <time>2011-05-22T09:53:58Z</time>
      </trkpt>
      <trkpt lat="43.7653" lon="7.14442">
        <ele>730.353686</ele>
        <time>2011-05-22T09:54:01Z</time>
      </trkpt>
      <trkpt lat="43.76518" lon="7.14446">
        <ele>729.078124</ele>
        <time>2011-05-22T09:54:04Z</time>
      </trkpt>
      <trkpt lat="43.76506" lon="7.14451">
        <ele>727.973916</ele>
        <time>2011-05-22T09:54:07Z</time>
      </trkpt>
      <trkpt lat="43.76497" lon="7.14454">
        <ele>726.893098</ele>
        <time>2011-05-22T09:54:09Z</time>
      </trkpt>
      <trkpt lat="43.76482" lon="7.14459">
        <ele>725.700512</ele>
        <time>2011-05-22T09:54:12Z</time>
      </trkpt>
      <trkpt lat="43.76465" lon="7.14461">
        <ele>724.331381</ele>
        <time>2011-05-22T09:54:15Z</time>
      </trkpt>
      <trkpt lat="43.76454" lon="7.14462">
        <ele>722.815928</ele>
        <time>2011-05-22T09:54:17Z</time>
      </trkpt>
      <trkpt lat="43.76439" lon="7.14459">
        <ele>721.143787</ele>
        <time>2011-05-22T09:54:20Z</time>
      </trkpt>
      <trkpt lat="43.76426" lon="7.14454">
        <ele>719.160256</ele>
        <time>2011-05-22T09:54:23Z</time>
      </trkpt>
      <trkpt lat="43.76412" lon="7.14449">
        <ele>717.028157</ele>
        <time>2011-05-22T09:54:26Z</time>
      </trkpt>
      <trkpt lat="43.76395" lon="7.14449">
        <ele>715.174549</ele>
        <time>2011-05-22T09:54:29Z</time>
      </trkpt>
      <trkpt lat="43.76378" lon="7.14448">
        <ele>713.615421</ele>
        <time>2011-05-22T09:54:32Z</time>
      </trkpt>
      <trkpt lat="43.76367" lon="7.14445">
        <ele>712.175225</ele>
        <time>2011-05-22T09:54:34Z</time>
      </trkpt>
      <trkpt lat="43.76352" lon="7.14448">
        <ele>710.868821</ele>
        <time>2011-05-22T09:54:37Z</time>
      </trkpt>
      <trkpt lat="43.76336" lon="7.14452">
        <ele>709.632532</ele>
        <time>2011-05-22T09:54:40Z</time>
      </trkpt>
      <trkpt lat="43.76324" lon="7.14453">
        <ele>708.346595</ele>
        <time>2011-05-22T09:54:42Z</time>
      </trkpt>
      <trkpt lat="43.76306" lon="7.1445">
        <ele>707.030665</ele>
        <time>2011-05-22T09:54:45Z</time>
      </trkpt>
      <trkpt lat="43.76296" lon="7.14446">
        <ele>705.722357</ele>
        <time>2011-05-22T09:54:47Z</time>
      </trkpt>
      <trkpt lat="43.76286" lon="7.14442">
        <ele>704.485</ele>
        <time>2011-05-22T09:54:49Z</time>
      </trkpt>
      <trkpt lat="43.76271" lon="7.14437">
        <ele>703.324467</ele>
        <time>2011-05-22T09:54:52Z</time>
      </trkpt>
      <trkpt lat="43.7626" lon="7.14435">
        <ele>702.096771</ele>
        <time>2011-05-22T09:54:54Z</time>
      </trkpt>
      <trkpt lat="43.76242" lon="7.14431">
        <ele>700.760597</ele>
        <time>2011-05-22T09:54:57Z</time>
      </trkpt>
      <trkpt lat="43.76225" lon="7.14425">
        <ele>699.380292</ele>
        <time>2011-05-22T09:55:00Z</time>
      </trkpt>
      <trkpt lat="43.76209" lon="7.14417">
        <ele>698.049229</ele>
        <time>2011-05-22T09:55:03Z</time>
      </trkpt>
      <trkpt lat="43.76193" lon="7.14414">
        <ele>696.840418</ele>
        <time>2011-05-22T09:55:06Z</time>
      </trkpt>
      <trkpt lat="43.76181" lon="7.14414">
        <ele>695.650684</ele>
        <time>2011-05-22T09:55:09Z</time>
      </trkpt>
      <trkpt lat="43.7617" lon="7.14411">
        <ele>694.258641</ele>
        <time>2011-05-22T09:55:13Z</time>
      </trkpt>
      <trkpt lat="43.76162" lon="7.14408">
        <ele>692.565977</ele>
        <time>2011-05-22T09:55:16Z</time>
      </trkpt>
      <trkpt lat="43.76152" lon="7.14404">
        <ele>690.778436</ele>
        <time>2011-05-22T09:55:20Z</time>
      </trkpt>
      <trkpt lat="43.76152" lon="7.14404">
        <ele>689.388667</ele>
        <time>2011-05-22T09:55:24Z</time>
      </trkpt>
      <trkpt lat="43.76152" lon="7.14404">
        <ele>688.672301</ele>
        <time>2011-05-22T09:55:50Z</time>
      </trkpt>
      <trkpt lat="43.76134" lon="7.1439">
        <ele>688.460153</ele>
        <time>2011-05-22T09:56:15Z</time>
      </trkpt>
      <trkpt lat="43.76124" lon="7.14384">
        <ele>688.419635</ele>
        <time>2011-05-22T09:56:18Z</time>
      </trkpt>
      <trkpt lat="43.76112" lon="7.14379">
        <ele>688.293543</ele>
        <time>2011-05-22T09:56:21Z</time>
      </trkpt>
      <trkpt lat="43.76101" lon="7.14371">
        <ele>687.306743</ele>
        <time>2011-05-22T09:56:24Z</time>
      </trkpt>
      <trkpt lat="43.76089" lon="7.1436">
        <ele>684.594261</ele>
        <time>2011-05-22T09:56:27Z</time>
      </trkpt>
      <trkpt lat="43.7608" lon="7.14353">
        <ele>680.072275</ele>
        <time>2011-05-22T09:56:29Z</time>
      </trkpt>
      <trkpt lat="43.76066" lon="7.14343">
        <ele>674.592274</ele>
        <time>2011-05-22T09:56:32Z</time>
      </trkpt>
      <trkpt lat="43.76057" lon="7.14337">
        <ele>669.579577</ele>
        <time>2011-05-22T09:56:34Z</time>
      </trkpt>
      <trkpt lat="43.76043" lon="7.14327">
        <ele>666.242164</ele>
        <time>2011-05-22T09:56:37Z</time>
      </trkpt>
      <trkpt lat="43.76032" lon="7.1432">
        <ele>664.632726</ele>
        <time>2011-05-22T09:56:39Z</time>
      </trkpt>
      <trkpt lat="43.76016" lon="7.14312">
        <ele>664.095597</ele>
        <time>2011-05-22T09:56:42Z</time>
      </trkpt>
      <trkpt lat="43.76003" lon="7.1431">
        <ele>663.929683</ele>
        <time>2011-05-22T09:56:45Z</time>
      </trkpt>
      <trkpt lat="43.75991" lon="7.1431">
        <ele>663.787479</ele>
        <time>2011-05-22T09:56:48Z</time>
      </trkpt>
      <trkpt lat="43.75979" lon="7.1431">
        <ele>663.605063</ele>
        <time>2011-05-22T09:56:51Z</time>
      </trkpt>
      <trkpt lat="43.75969" lon="7.14306">
        <ele>663.40248</ele>
        <time>2011-05-22T09:56:55Z</time>
      </trkpt>
      <trkpt lat="43.75958" lon="7.14307">
        <ele>663.18131</ele>
        <time>2011-05-22T09:56:59Z</time>
      </trkpt>
      <trkpt lat="43.75958" lon="7.14307">
        <ele>662.949649</ele>
        <time>2011-05-22T09:57:00Z</time>
      </trkpt>
      <trkpt lat="43.75937" lon="7.14308">
        <ele>662.727321</ele>
        <time>2011-05-22T09:57:14Z</time>
      </trkpt>
      <trkpt lat="43.75925" lon="7.14305">
        <ele>662.549875</ele>
        <time>2011-05-22T09:57:18Z</time>
      </trkpt>
      <trkpt lat="43.75915" lon="7.14302">
        <ele>662.431695</ele>
        <time>2011-05-22T09:57:21Z</time>
      </trkpt>
      <trkpt lat="43.75904" lon="7.143">
        <ele>662.217568</ele>
        <time>2011-05-22T09:57:24Z</time>
      </trkpt>
      <trkpt lat="43.75894" lon="7.14297">
        <ele>661.760894</ele>
        <time>2011-05-22T09:57:27Z</time>
      </trkpt>
      <trkpt lat="43.75883" lon="7.14291">
        <ele>661.081882</ele>
        <time>2011-05-22T09:57:31Z</time>
      </trkpt>
      <trkpt lat="43.7587" lon="7.14294">
        <ele>660.3151</ele>
        <time>2011-05-22T09:57:34Z</time>
      </trkpt>
      <trkpt lat="43.75854" lon="7.14299">
        <ele>659.663693</ele>
        <time>2011-05-22T09:57:37Z</time>
      </trkpt>
      <trkpt lat="43.75842" lon="7.14301">
        <ele>659.255936</ele>
        <time>2011-05-22T09:57:39Z</time>
      </trkpt>
      <trkpt lat="43.75825" lon="7.14307">
        <ele>658.69162</ele>
        <time>2011-05-22T09:57:42Z</time>
      </trkpt>
      <trkpt lat="43.75809" lon="7.14315">
        <ele>657.389682</ele>
        <time>2011-05-22T09:57:45Z</time>
      </trkpt>
      <trkpt lat="43.75797" lon="7.14322">
        <ele>655.462277</ele>
        <time>2011-05-22T09:57:48Z</time>
      </trkpt>
      <trkpt lat="43.75785" lon="7.14326">
        <ele>653.626455</ele>
        <time>2011-05-22T09:57:51Z</time>
      </trkpt>
      <trkpt lat="43.75773" lon="7.14328">
        <ele>652.400794</ele>
        <time>2011-05-22T09:57:54Z</time>
      </trkpt>
      <trkpt lat="43.75761" lon="7.14327">
        <ele>651.881781</ele>
        <time>2011-05-22T09:57:57Z</time>
      </trkpt>
      <trkpt lat="43.75751" lon="7.14325">
        <ele>651.837236</ele>
        <time>2011-05-22T09:58:00Z</time>
      </trkpt>
      <trkpt lat="43.75738" lon="7.14326">
        <ele>651.945166</ele>
        <time>2011-05-22T09:58:03Z</time>
      </trkpt>
      <trkpt lat="43.75726" lon="7.14322">
        <ele>652.035534</ele>
        <time>2011-05-22T09:58:06Z</time>
      </trkpt>
      <trkpt lat="43.75713" lon="7.14317">
        <ele>652.072736</ele>
        <time>2011-05-22T09:58:09Z</time>
      </trkpt>
      <trkpt lat="43.75703" lon="7.14313">
        <ele>651.971405</ele>
        <time>2011-05-22T09:58:12Z</time>
      </trkpt>
      <trkpt lat="43.75693" lon="7.14311">
        <ele>651.223659</ele>
        <time>2011-05-22T09:58:17Z</time>
      </trkpt>
      <trkpt lat="43.75682" lon="7.14313">
        <ele>648.868764</ele>
        <time>2011-05-22T09:58:22Z</time>
      </trkpt>
      <trkpt lat="43.75671" lon="7.14316">
        <ele>645.048789</ele>
        <time>2011-05-22T09:58:26Z</time>
      </trkpt>
      <trkpt lat="43.75659" lon="7.14317">
        <ele>641.523082</ele>
        <time>2011-05-22T09:58:30Z</time>
      </trkpt>
      <trkpt lat="43.75649" lon="7.14317">
        <ele>639.571577</ele>
        <time>2011-05-22T09:58:34Z</time>
      </trkpt>
      <trkpt lat="43.7564" lon="7.14317">
        <ele>638.931073</ele>
        <time>2011-05-22T09:58:38Z</time>
      </trkpt>
      <trkpt lat="43.7563" lon="7.1432">
        <ele>638.872673</ele>
        <time>2011-05-22T09:58:42Z</time>
      </trkpt>
      <trkpt lat="43.7562" lon="7.14322">
        <ele>638.868008</ele>
        <time>2011-05-22T09:58:46Z</time>
      </trkpt>
      <trkpt lat="43.75609" lon="7.14325">
        <ele>638.70222</ele>
        <time>2011-05-22T09:58:50Z</time>
      </trkpt>
      <trkpt lat="43.75599" lon="7.14327">
        <ele>638.379276</ele>
        <time>2011-05-22T09:58:54Z</time>
      </trkpt>
      <trkpt lat="43.75589" lon="7.14328">
        <ele>637.97325</ele>
        <time>2011-05-22T09:58:57Z</time>
      </trkpt>
      <trkpt lat="43.7558" lon="7.14328">
        <ele>637.525399</ele>
        <time>2011-05-22T09:59:00Z</time>
      </trkpt>
      <trkpt lat="43.75569" lon="7.14327">
        <ele>637.035116</ele>
        <time>2011-05-22T09:59:04Z</time>
      </trkpt>
      <trkpt lat="43.75558" lon="7.14327">
        <ele>636.523314</ele>
        <time>2011-05-22T09:59:07Z</time>
      </trkpt>
      <trkpt lat="43.75549" lon="7.14328">
        <ele>636.046207</ele>
        <time>2011-05-22T09:59:10Z</time>
      </trkpt>
      <trkpt lat="43.75538" lon="7.14328">
        <ele>635.618359</ele>
        <time>2011-05-22T09:59:14Z</time>
      </trkpt>
      <trkpt lat="43.75527" lon="7.14331">
        <ele>635.205736</ele>
        <time>2011-05-22T09:59:19Z</time>
      </trkpt>
      <trkpt lat="43.75516" lon="7.14331">
        <ele>634.79206</ele>
        <time>2011-05-22T09:59:23Z</time>
      </trkpt>
      <trkpt lat="43.75507" lon="7.14328">
        <ele>634.353434</ele>
        <time>2011-05-22T09:59:26Z</time>
      </trkpt>
      <trkpt lat="43.75498" lon="7.14326">
        <ele>633.776166</ele>
        <time>2011-05-22T09:59:29Z</time>
      </trkpt>
      <trkpt lat="43.75489" lon="7.14323">
        <ele>632.947677</ele>
        <time>2011-05-22T09:59:32Z</time>
      </trkpt>
      <trkpt lat="43.7548" lon="7.14319">
        <ele>631.935149</ele>
        <time>2011-05-22T09:59:35Z</time>
      </trkpt>
      <trkpt lat="43.75468" lon="7.14314">
        <ele>630.906182</ele>
        <time>2011-05-22T09:59:39Z</time>
      </trkpt>
      <trkpt lat="43.75459" lon="7.14306">
        <ele>629.919863</ele>
        <time>2011-05-22T09:59:43Z</time>
      </trkpt>
      <trkpt lat="43.75449" lon="7.143">
        <ele>628.930469</ele>
        <time>2011-05-22T09:59:46Z</time>
      </trkpt>
      <trkpt lat="43.75441" lon="7.14293">
        <ele>627.842535</ele>
        <time>2011-05-22T09:59:49Z</time>
      </trkpt>
      <trkpt lat="43.75432" lon="7.14288">
        <ele>626.56758</ele>
        <time>2011-05-22T09:59:52Z</time>
      </trkpt>
      <trkpt lat="43.75423" lon="7.14282">
        <ele>625.181345</ele>
        <time>2011-05-22T09:59:55Z</time>
      </trkpt>
      <trkpt lat="43.75414" lon="7.14276">
        <ele>623.880532</ele>
        <time>2011-05-22T09:59:58Z</time>
      </trkpt>
      <trkpt lat="43.75404" lon="7.14268">
        <ele>622.748881</ele>
        <time>2011-05-22T10:00:02Z</time>
      </trkpt>
      <trkpt lat="43.75395" lon="7.14264">
        <ele>621.733272</ele>
        <time>2011-05-22T10:00:05Z</time>
      </trkpt>
      <trkpt lat="43.75386" lon="7.14263">
        <ele>620.777613</ele>
        <time>2011-05-22T10:00:08Z</time>
      </trkpt>
      <trkpt lat="43.75377" lon="7.14262">
        <ele>619.817314</ele>
        <time>2011-05-22T10:00:12Z</time>
      </trkpt>
      <trkpt lat="43.75367" lon="7.14259">
        <ele>618.809661</ele>
        <time>2011-05-22T10:00:16Z</time>
      </trkpt>
      <trkpt lat="43.75367" lon="7.14259">
        <ele>617.925572</ele>
        <time>2011-05-22T10:00:19Z</time>
      </trkpt>
      <trkpt lat="43.75368" lon="7.14279">
        <ele>617.284282</ele>
        <time>2011-05-22T10:00:27Z</time>
      </trkpt>
      <trkpt lat="43.75375" lon="7.1429">
        <ele>616.600178</ele>
        <time>2011-05-22T10:00:31Z</time>
      </trkpt>
      <trkpt lat="43.75385" lon="7.14296">
        <ele>615.551608</ele>
        <time>2011-05-22T10:00:35Z</time>
      </trkpt>
      <trkpt lat="43.75385" lon="7.14296">
        <ele>614.369706</ele>
        <time>2011-05-22T10:00:40Z</time>
      </trkpt>
      <trkpt lat="43.75374" lon="7.14299">
        <ele>612.932365</ele>
        <time>2011-05-22T10:00:47Z</time>
      </trkpt>
      <trkpt lat="43.75365" lon="7.14295">
        <ele>610.763009</ele>
        <time>2011-05-22T10:00:50Z</time>
      </trkpt>
      <trkpt lat="43.75355" lon="7.1429">
        <ele>608.227825</ele>
        <time>2011-05-22T10:00:53Z</time>
      </trkpt>
      <trkpt lat="43.75346" lon="7.14286">
        <ele>605.630623</ele>
        <time>2011-05-22T10:00:56Z</time>
      </trkpt>
      <trkpt lat="43.75336" lon="7.14284">
        <ele>602.864799</ele>
        <time>2011-05-22T10:00:59Z</time>
      </trkpt>
      <trkpt lat="43.75325" lon="7.14281">
        <ele>600.453375</ele>
        <time>2011-05-22T10:01:02Z</time>
      </trkpt>
      <trkpt lat="43.75315" lon="7.14275">
        <ele>598.634193</ele>
        <time>2011-05-22T10:01:05Z</time>
      </trkpt>
      <trkpt lat="43.75307" lon="7.14266">
        <ele>596.941212</ele>
        <time>2011-05-22T10:01:08Z</time>
      </trkpt>
      <trkpt lat="43.75298" lon="7.14258">
        <ele>595.109007</ele>
        <time>2011-05-22T10:01:11Z</time>
      </trkpt>
      <trkpt lat="43.75288" lon="7.14252">
        <ele>593.135879</ele>
        <time>2011-05-22T10:01:14Z</time>
      </trkpt>
      <trkpt lat="43.75275" lon="7.14249">
        <ele>591.120579</ele>
        <time>2011-05-22T10:01:17Z</time>
      </trkpt>
      <trkpt lat="43.75262" lon="7.14248">
        <ele>588.414563</ele>
        <time>2011-05-22T10:01:20Z</time>
      </trkpt>
      <trkpt lat="43.75251" lon="7.14249">
        <ele>584.658677</ele>
        <time>2011-05-22T10:01:23Z</time>
      </trkpt>
      <trkpt lat="43.7524" lon="7.14247">
        <ele>581.050928</ele>
        <time>2011-05-22T10:01:26Z</time>
      </trkpt>
      <trkpt lat="43.75231" lon="7.14244">
        <ele>578.64413</ele>
        <time>2011-05-22T10:01:29Z</time>
      </trkpt>
      <trkpt lat="43.75221" lon="7.14241">
        <ele>577.091726</ele>
        <time>2011-05-22T10:01:32Z</time>
      </trkpt>
      <trkpt lat="43.75212" lon="7.14236">
        <ele>575.834355</ele>
        <time>2011-05-22T10:01:35Z</time>
      </trkpt>
      <trkpt lat="43.75203" lon="7.14228">
        <ele>574.559186</ele>
        <time>2011-05-22T10:01:38Z</time>
      </trkpt>
      <trkpt lat="43.75191" lon="7.1422">
        <ele>573.205011</ele>
        <time>2011-05-22T10:01:41Z</time>
      </trkpt>
      <trkpt lat="43.75181" lon="7.14217">
        <ele>571.835618</ele>
        <time>2011-05-22T10:01:44Z</time>
      </trkpt>
      <trkpt lat="43.7517" lon="7.14211">
        <ele>569.68222</ele>
        <time>2011-05-22T10:01:47Z</time>
      </trkpt>
      <trkpt lat="43.75159" lon="7.14203">
        <ele>565.645763</ele>
        <time>2011-05-22T10:01:50Z</time>
      </trkpt>
      <trkpt lat="43.75147" lon="7.14194">
        <ele>560.492831</ele>
        <time>2011-05-22T10:01:53Z</time>
      </trkpt>
      <trkpt lat="43.75138" lon="7.14189">
        <ele>556.280731</ele>
        <time>2011-05-22T10:01:56Z</time>
      </trkpt>
      <trkpt lat="43.75128" lon="7.14186">
        <ele>553.471771</ele>
        <time>2011-05-22T10:02:00Z</time>
      </trkpt>
      <trkpt lat="43.75128" lon="7.14186">
        <ele>551.46234</ele>
        <time>2011-05-22T10:02:03Z</time>
      </trkpt>
      <trkpt lat="43.75108" lon="7.1418">
        <ele>549.786024</ele>
        <time>2011-05-22T10:02:25Z</time>
      </trkpt>
      <trkpt lat="43.75097" lon="7.14178">
        <ele>548.188322</ele>
        <time>2011-05-22T10:02:30Z</time>
      </trkpt>
      <trkpt lat="43.75086" lon="7.14174">
        <ele>546.83195</ele>
        <time>2011-05-22T10:02:34Z</time>
      </trkpt>
      <trkpt lat="43.75075" lon="7.1417">
        <ele>545.70442</ele>
        <time>2011-05-22T10:02:37Z</time>
      </trkpt>
      <trkpt lat="43.75064" lon="7.14167">
        <ele>544.29616</ele>
        <time>2011-05-22T10:02:40Z</time>
      </trkpt>
      <trkpt lat="43.75053" lon="7.14164">
        <ele>542.674405</ele>
        <time>2011-05-22T10:02:43Z</time>
      </trkpt>
      <trkpt lat="43.7504" lon="7.14161">
        <ele>541.225114</ele>
        <time>2011-05-22T10:02:46Z</time>
      </trkpt>
      <trkpt lat="43.75029" lon="7.14155">
        <ele>540.064128</ele>
        <time>2011-05-22T10:02:49Z</time>
      </trkpt>
      <trkpt lat="43.75018" lon="7.14152">
        <ele>539.119123</ele>
        <time>2011-05-22T10:02:52Z</time>
      </trkpt>
      <trkpt lat="43.75006" lon="7.14148">
        <ele>537.362246</ele>
        <time>2011-05-22T10:02:55Z</time>
      </trkpt>
      <trkpt lat="43.74991" lon="7.14144">
        <ele>533.861267</ele>
        <time>2011-05-22T10:02:58Z</time>
      </trkpt>
      <trkpt lat="43.7498" lon="7.14146">
        <ele>529.70311</ele>
        <time>2011-05-22T10:03:00Z</time>
      </trkpt>
      <trkpt lat="43.74966" lon="7.14151">
        <ele>526.431184</ele>
        <time>2011-05-22T10:03:03Z</time>
      </trkpt>
      <trkpt lat="43.74955" lon="7.14153">
        <ele>524.013819</ele>
        <time>2011-05-22T10:03:06Z</time>
      </trkpt>
      <trkpt lat="43.74945" lon="7.14156">
        <ele>522.084072</ele>
        <time>2011-05-22T10:03:09Z</time>
      </trkpt>
      <trkpt lat="43.74936" lon="7.14165">
        <ele>520.58817</ele>
        <time>2011-05-22T10:03:13Z</time>
      </trkpt>
      <trkpt lat="43.74928" lon="7.14173">
        <ele>519.496888</ele>
        <time>2011-05-22T10:03:18Z</time>
      </trkpt>
      <trkpt lat="43.7492" lon="7.14181">
        <ele>518.76953</ele>
        <time>2011-05-22T10:03:24Z</time>
      </trkpt>
      <trkpt lat="43.74924" lon="7.14194">
        <ele>518.234153</ele>
        <time>2011-05-22T10:03:30Z</time>
      </trkpt>
      <trkpt lat="43.74916" lon="7.14201">
        <ele>517.528094</ele>
        <time>2011-05-22T10:03:36Z</time>
      </trkpt>
      <trkpt lat="43.74905" lon="7.142">
        <ele>516.428086</ele>
        <time>2011-05-22T10:03:39Z</time>
      </trkpt>
      <trkpt lat="43.74904" lon="7.14215">
        <ele>514.9307</ele>
        <time>2011-05-22T10:03:45Z</time>
      </trkpt>
      <trkpt lat="43.7489" lon="7.14222">
        <ele>512.710081</ele>
        <time>2011-05-22T10:03:49Z</time>
      </trkpt>
      <trkpt lat="43.74876" lon="7.14218">
        <ele>509.135134</ele>
        <time>2011-05-22T10:03:52Z</time>
      </trkpt>
      <trkpt lat="43.7486" lon="7.14219">
        <ele>504.751543</ele>
        <time>2011-05-22T10:03:55Z</time>
      </trkpt>
      <trkpt lat="43.74844" lon="7.14225">
        <ele>500.780609</ele>
        <time>2011-05-22T10:03:58Z</time>
      </trkpt>
      <trkpt lat="43.74824" lon="7.14231">
        <ele>496.927137</ele>
        <time>2011-05-22T10:04:01Z</time>
      </trkpt>
      <trkpt lat="43.74806" lon="7.14236">
        <ele>492.420817</ele>
        <time>2011-05-22T10:04:04Z</time>
      </trkpt>
      <trkpt lat="43.74795" lon="7.14238">
        <ele>487.720106</ele>
        <time>2011-05-22T10:04:07Z</time>
      </trkpt>
      <trkpt lat="43.74784" lon="7.14242">
        <ele>483.489265</ele>
        <time>2011-05-22T10:04:10Z</time>
      </trkpt>
      <trkpt lat="43.74774" lon="7.14246">
        <ele>479.90869</ele>
        <time>2011-05-22T10:04:13Z</time>
      </trkpt>
      <trkpt lat="43.74774" lon="7.14246">
        <ele>477.322375</ele>
        <time>2011-05-22T10:04:17Z</time>
      </trkpt>
      <trkpt lat="43.74777" lon="7.14271">
        <ele>475.851276</ele>
        <time>2011-05-22T10:04:23Z</time>
      </trkpt>
      <trkpt lat="43.74785" lon="7.14279">
        <ele>475.005186</ele>
        <time>2011-05-22T10:04:25Z</time>
      </trkpt>
      <trkpt lat="43.74793" lon="7.14287">
        <ele>474.351553</ele>
        <time>2011-05-22T10:04:27Z</time>
      </trkpt>
      <trkpt lat="43.74799" lon="7.14297">
        <ele>473.487752</ele>
        <time>2011-05-22T10:04:30Z</time>
      </trkpt>
      <trkpt lat="43.74805" lon="7.14307">
        <ele>471.888501</ele>
        <time>2011-05-22T10:04:33Z</time>
      </trkpt>
      <trkpt lat="43.74805" lon="7.14307">
        <ele>469.938302</ele>
        <time>2011-05-22T10:04:34Z</time>
      </trkpt>
      <trkpt lat="43.748" lon="7.14325">
        <ele>468.388119</ele>
        <time>2011-05-22T10:04:40Z</time>
      </trkpt>
      <trkpt lat="43.748" lon="7.14325">
        <ele>467.362626</ele>
        <time>2011-05-22T10:04:43Z</time>
      </trkpt>
      <trkpt lat="43.74814" lon="7.1434">
        <ele>466.782683</ele>
        <time>2011-05-22T10:04:55Z</time>
      </trkpt>
      <trkpt lat="43.74825" lon="7.14346">
        <ele>466.564347</ele>
        <time>2011-05-22T10:04:59Z</time>
      </trkpt>
      <trkpt lat="43.74835" lon="7.14352">
        <ele>466.427223</ele>
        <time>2011-05-22T10:05:03Z</time>
      </trkpt>
      <trkpt lat="43.74844" lon="7.14357">
        <ele>466.076332</ele>
        <time>2011-05-22T10:05:07Z</time>
      </trkpt>
      <trkpt lat="43.74855" lon="7.1436">
        <ele>465.413566</ele>
        <time>2011-05-22T10:05:11Z</time>
      </trkpt>
      <trkpt lat="43.74855" lon="7.1436">
        <ele>464.724807</ele>
        <time>2011-05-22T10:05:14Z</time>
      </trkpt>
      <trkpt lat="43.74855" lon="7.1436">
        <ele>464.306291</ele>
        <time>2011-05-22T10:05:42Z</time>
      </trkpt>
    </trkseg>
  </trk>
</gpx>